<?xml version="1.0" encoding="UTF-8" standalone="no" ?>
<gpx xmlns="http://www.topografix.com/GPX/1/1" xmlns:xsi="http://www.w3.org/2001/XMLSchema-instance" xsi:schemaLocation="http://www.topografix.com/GPX/1/1 http://www.topografix.com/GPX/1/1/gpx.xsd" version="1.1" creator="VisuGPX - https://www.visugpx.com">
  <metadata>
    <name>Saint-Emilion (Gironde)</name>
    <desc><![CDATA[Visite du village et d'une toute petite partie de son vignoble.]]></desc>
  </metadata>
  <trk>
    <name><![CDATA[26-AVR-22 17:02:00]]></name>
    <trkseg>
      <trkpt lat="44.89325" lon="-0.15612">
        <ele>63.58</ele>
        <time>2022-04-26T09:25:27Z</time>
      </trkpt>
      <trkpt lat="44.89328" lon="-0.15616">
        <ele>57.34</ele>
        <time>2022-04-26T09:25:50Z</time>
      </trkpt>
      <trkpt lat="44.89328" lon="-0.15616">
        <ele>68.87</ele>
        <time>2022-04-26T09:25:51Z</time>
      </trkpt>
      <trkpt lat="44.89328" lon="-0.15616">
        <ele>64.07</ele>
        <time>2022-04-26T09:25:52Z</time>
      </trkpt>
      <trkpt lat="44.89328" lon="-0.15618">
        <ele>63.58</ele>
        <time>2022-04-26T09:26:18Z</time>
      </trkpt>
      <trkpt lat="44.89327" lon="-0.15616">
        <ele>63.58</ele>
        <time>2022-04-26T09:26:45Z</time>
      </trkpt>
      <trkpt lat="44.89327" lon="-0.15617">
        <ele>63.58</ele>
        <time>2022-04-26T09:27:13Z</time>
      </trkpt>
      <trkpt lat="44.89327" lon="-0.15619">
        <ele>63.1</ele>
        <time>2022-04-26T09:27:28Z</time>
      </trkpt>
      <trkpt lat="44.89325" lon="-0.15619">
        <ele>63.1</ele>
        <time>2022-04-26T09:27:48Z</time>
      </trkpt>
      <trkpt lat="44.89325" lon="-0.15617">
        <ele>63.58</ele>
        <time>2022-04-26T09:28:01Z</time>
      </trkpt>
      <trkpt lat="44.89323" lon="-0.15618">
        <ele>63.58</ele>
        <time>2022-04-26T09:28:24Z</time>
      </trkpt>
      <trkpt lat="44.89318" lon="-0.15616">
        <ele>62.62</ele>
        <time>2022-04-26T09:28:38Z</time>
      </trkpt>
      <trkpt lat="44.89313" lon="-0.15623">
        <ele>60.7</ele>
        <time>2022-04-26T09:28:54Z</time>
      </trkpt>
      <trkpt lat="44.89309" lon="-0.15621">
        <ele>61.18</ele>
        <time>2022-04-26T09:29:16Z</time>
      </trkpt>
      <trkpt lat="44.893" lon="-0.15619">
        <ele>60.22</ele>
        <time>2022-04-26T09:29:35Z</time>
      </trkpt>
      <trkpt lat="44.89296" lon="-0.15617">
        <ele>59.26</ele>
        <time>2022-04-26T09:29:53Z</time>
      </trkpt>
      <trkpt lat="44.89293" lon="-0.15617">
        <ele>59.26</ele>
        <time>2022-04-26T09:30:16Z</time>
      </trkpt>
      <trkpt lat="44.89274" lon="-0.1562">
        <ele>58.3</ele>
        <time>2022-04-26T09:30:33Z</time>
      </trkpt>
      <trkpt lat="44.89263" lon="-0.15608">
        <ele>56.86</ele>
        <time>2022-04-26T09:30:51Z</time>
      </trkpt>
      <trkpt lat="44.89252" lon="-0.15599">
        <ele>56.37</ele>
        <time>2022-04-26T09:31:05Z</time>
      </trkpt>
      <trkpt lat="44.89244" lon="-0.15593">
        <ele>56.37</ele>
        <time>2022-04-26T09:31:18Z</time>
      </trkpt>
      <trkpt lat="44.89235" lon="-0.15593">
        <ele>56.37</ele>
        <time>2022-04-26T09:31:35Z</time>
      </trkpt>
      <trkpt lat="44.89229" lon="-0.15595">
        <ele>55.89</ele>
        <time>2022-04-26T09:31:54Z</time>
      </trkpt>
      <trkpt lat="44.89217" lon="-0.15592">
        <ele>55.89</ele>
        <time>2022-04-26T09:32:05Z</time>
      </trkpt>
      <trkpt lat="44.89205" lon="-0.15588">
        <ele>55.41</ele>
        <time>2022-04-26T09:32:24Z</time>
      </trkpt>
      <trkpt lat="44.89198" lon="-0.15589">
        <ele>55.41</ele>
        <time>2022-04-26T09:32:36Z</time>
      </trkpt>
      <trkpt lat="44.89189" lon="-0.156">
        <ele>54.45</ele>
        <time>2022-04-26T09:32:50Z</time>
      </trkpt>
      <trkpt lat="44.89191" lon="-0.15605">
        <ele>54.93</ele>
        <time>2022-04-26T09:33:07Z</time>
      </trkpt>
      <trkpt lat="44.89199" lon="-0.15618">
        <ele>55.41</ele>
        <time>2022-04-26T09:33:22Z</time>
      </trkpt>
      <trkpt lat="44.89206" lon="-0.15635">
        <ele>55.89</ele>
        <time>2022-04-26T09:33:35Z</time>
      </trkpt>
      <trkpt lat="44.89211" lon="-0.15636">
        <ele>56.37</ele>
        <time>2022-04-26T09:33:45Z</time>
      </trkpt>
      <trkpt lat="44.89215" lon="-0.1564">
        <ele>56.37</ele>
        <time>2022-04-26T09:33:49Z</time>
      </trkpt>
      <trkpt lat="44.89219" lon="-0.15644">
        <ele>56.37</ele>
        <time>2022-04-26T09:33:53Z</time>
      </trkpt>
      <trkpt lat="44.89222" lon="-0.15647">
        <ele>56.37</ele>
        <time>2022-04-26T09:34:10Z</time>
      </trkpt>
      <trkpt lat="44.89219" lon="-0.15647">
        <ele>56.37</ele>
        <time>2022-04-26T09:34:39Z</time>
      </trkpt>
      <trkpt lat="44.89221" lon="-0.15645">
        <ele>56.37</ele>
        <time>2022-04-26T09:34:54Z</time>
      </trkpt>
      <trkpt lat="44.8922" lon="-0.15645">
        <ele>56.37</ele>
        <time>2022-04-26T09:35:14Z</time>
      </trkpt>
      <trkpt lat="44.89219" lon="-0.15645">
        <ele>56.37</ele>
        <time>2022-04-26T09:35:30Z</time>
      </trkpt>
      <trkpt lat="44.89232" lon="-0.15653">
        <ele>56.86</ele>
        <time>2022-04-26T09:35:45Z</time>
      </trkpt>
      <trkpt lat="44.89235" lon="-0.15654">
        <ele>56.86</ele>
        <time>2022-04-26T09:35:47Z</time>
      </trkpt>
      <trkpt lat="44.89246" lon="-0.15663">
        <ele>58.3</ele>
        <time>2022-04-26T09:36:02Z</time>
      </trkpt>
      <trkpt lat="44.89246" lon="-0.15664">
        <ele>57.82</ele>
        <time>2022-04-26T09:36:24Z</time>
      </trkpt>
      <trkpt lat="44.89244" lon="-0.15669">
        <ele>58.78</ele>
        <time>2022-04-26T09:36:43Z</time>
      </trkpt>
      <trkpt lat="44.8924" lon="-0.15672">
        <ele>60.22</ele>
        <time>2022-04-26T09:36:53Z</time>
      </trkpt>
      <trkpt lat="44.89232" lon="-0.15679">
        <ele>61.66</ele>
        <time>2022-04-26T09:37:09Z</time>
      </trkpt>
      <trkpt lat="44.89225" lon="-0.15692">
        <ele>63.1</ele>
        <time>2022-04-26T09:37:24Z</time>
      </trkpt>
      <trkpt lat="44.89222" lon="-0.15696">
        <ele>64.55</ele>
        <time>2022-04-26T09:37:37Z</time>
      </trkpt>
      <trkpt lat="44.89221" lon="-0.15697">
        <ele>64.07</ele>
        <time>2022-04-26T09:37:39Z</time>
      </trkpt>
      <trkpt lat="44.89214" lon="-0.15703">
        <ele>65.51</ele>
        <time>2022-04-26T09:37:50Z</time>
      </trkpt>
      <trkpt lat="44.89213" lon="-0.15693">
        <ele>66.47</ele>
        <time>2022-04-26T09:38:02Z</time>
      </trkpt>
      <trkpt lat="44.89213" lon="-0.15692">
        <ele>65.99</ele>
        <time>2022-04-26T09:38:03Z</time>
      </trkpt>
      <trkpt lat="44.89215" lon="-0.15689">
        <ele>65.99</ele>
        <time>2022-04-26T09:38:19Z</time>
      </trkpt>
      <trkpt lat="44.89212" lon="-0.15691">
        <ele>65.99</ele>
        <time>2022-04-26T09:38:35Z</time>
      </trkpt>
      <trkpt lat="44.89212" lon="-0.15692">
        <ele>65.99</ele>
        <time>2022-04-26T09:38:37Z</time>
      </trkpt>
      <trkpt lat="44.89213" lon="-0.15699">
        <ele>65.03</ele>
        <time>2022-04-26T09:38:42Z</time>
      </trkpt>
      <trkpt lat="44.89216" lon="-0.15707">
        <ele>66.47</ele>
        <time>2022-04-26T09:38:52Z</time>
      </trkpt>
      <trkpt lat="44.89216" lon="-0.15708">
        <ele>65.99</ele>
        <time>2022-04-26T09:38:53Z</time>
      </trkpt>
      <trkpt lat="44.89216" lon="-0.1572">
        <ele>68.39</ele>
        <time>2022-04-26T09:39:06Z</time>
      </trkpt>
      <trkpt lat="44.89212" lon="-0.15727">
        <ele>70.79</ele>
        <time>2022-04-26T09:39:15Z</time>
      </trkpt>
      <trkpt lat="44.89213" lon="-0.15738">
        <ele>72.24</ele>
        <time>2022-04-26T09:39:27Z</time>
      </trkpt>
      <trkpt lat="44.89215" lon="-0.15741">
        <ele>73.68</ele>
        <time>2022-04-26T09:39:30Z</time>
      </trkpt>
      <trkpt lat="44.89218" lon="-0.1574">
        <ele>74.16</ele>
        <time>2022-04-26T09:39:33Z</time>
      </trkpt>
      <trkpt lat="44.89227" lon="-0.15738">
        <ele>75.6</ele>
        <time>2022-04-26T09:39:40Z</time>
      </trkpt>
      <trkpt lat="44.89225" lon="-0.1575">
        <ele>76.08</ele>
        <time>2022-04-26T09:39:48Z</time>
      </trkpt>
      <trkpt lat="44.89219" lon="-0.15747">
        <ele>76.08</ele>
        <time>2022-04-26T09:39:55Z</time>
      </trkpt>
      <trkpt lat="44.89212" lon="-0.15741">
        <ele>75.12</ele>
        <time>2022-04-26T09:40:08Z</time>
      </trkpt>
      <trkpt lat="44.89203" lon="-0.15733">
        <ele>76.08</ele>
        <time>2022-04-26T09:40:20Z</time>
      </trkpt>
      <trkpt lat="44.89196" lon="-0.15728">
        <ele>74.64</ele>
        <time>2022-04-26T09:40:33Z</time>
      </trkpt>
      <trkpt lat="44.89197" lon="-0.15729">
        <ele>75.12</ele>
        <time>2022-04-26T09:40:56Z</time>
      </trkpt>
      <trkpt lat="44.89198" lon="-0.15729">
        <ele>74.64</ele>
        <time>2022-04-26T09:41:19Z</time>
      </trkpt>
      <trkpt lat="44.892" lon="-0.15732">
        <ele>74.64</ele>
        <time>2022-04-26T09:41:33Z</time>
      </trkpt>
      <trkpt lat="44.89201" lon="-0.15733">
        <ele>76.08</ele>
        <time>2022-04-26T09:41:34Z</time>
      </trkpt>
      <trkpt lat="44.89203" lon="-0.15735">
        <ele>75.12</ele>
        <time>2022-04-26T09:41:36Z</time>
      </trkpt>
      <trkpt lat="44.89208" lon="-0.15737">
        <ele>74.64</ele>
        <time>2022-04-26T09:41:50Z</time>
      </trkpt>
      <trkpt lat="44.89203" lon="-0.15733">
        <ele>74.64</ele>
        <time>2022-04-26T09:42:09Z</time>
      </trkpt>
      <trkpt lat="44.8919" lon="-0.15726">
        <ele>75.12</ele>
        <time>2022-04-26T09:42:23Z</time>
      </trkpt>
      <trkpt lat="44.89188" lon="-0.15724">
        <ele>75.12</ele>
        <time>2022-04-26T09:42:25Z</time>
      </trkpt>
      <trkpt lat="44.89183" lon="-0.15715">
        <ele>74.64</ele>
        <time>2022-04-26T09:42:41Z</time>
      </trkpt>
      <trkpt lat="44.8918" lon="-0.15709">
        <ele>74.16</ele>
        <time>2022-04-26T09:42:59Z</time>
      </trkpt>
      <trkpt lat="44.89175" lon="-0.15698">
        <ele>73.68</ele>
        <time>2022-04-26T09:43:06Z</time>
      </trkpt>
      <trkpt lat="44.89172" lon="-0.15693">
        <ele>73.68</ele>
        <time>2022-04-26T09:43:09Z</time>
      </trkpt>
      <trkpt lat="44.89171" lon="-0.15685">
        <ele>72.72</ele>
        <time>2022-04-26T09:43:23Z</time>
      </trkpt>
      <trkpt lat="44.89168" lon="-0.15681">
        <ele>72.72</ele>
        <time>2022-04-26T09:43:41Z</time>
      </trkpt>
      <trkpt lat="44.89171" lon="-0.15691">
        <ele>72.72</ele>
        <time>2022-04-26T09:43:51Z</time>
      </trkpt>
      <trkpt lat="44.89173" lon="-0.15698">
        <ele>73.2</ele>
        <time>2022-04-26T09:43:56Z</time>
      </trkpt>
      <trkpt lat="44.89179" lon="-0.15713">
        <ele>74.16</ele>
        <time>2022-04-26T09:44:08Z</time>
      </trkpt>
      <trkpt lat="44.89181" lon="-0.15715">
        <ele>74.16</ele>
        <time>2022-04-26T09:44:10Z</time>
      </trkpt>
      <trkpt lat="44.89193" lon="-0.1573">
        <ele>74.64</ele>
        <time>2022-04-26T09:44:23Z</time>
      </trkpt>
      <trkpt lat="44.89204" lon="-0.15738">
        <ele>75.12</ele>
        <time>2022-04-26T09:44:34Z</time>
      </trkpt>
      <trkpt lat="44.8921" lon="-0.15738">
        <ele>74.64</ele>
        <time>2022-04-26T09:44:45Z</time>
      </trkpt>
      <trkpt lat="44.89211" lon="-0.15739">
        <ele>75.12</ele>
        <time>2022-04-26T09:44:49Z</time>
      </trkpt>
      <trkpt lat="44.89213" lon="-0.15741">
        <ele>75.12</ele>
        <time>2022-04-26T09:44:51Z</time>
      </trkpt>
      <trkpt lat="44.89215" lon="-0.15743">
        <ele>75.12</ele>
        <time>2022-04-26T09:44:53Z</time>
      </trkpt>
      <trkpt lat="44.89228" lon="-0.15753">
        <ele>75.12</ele>
        <time>2022-04-26T09:45:08Z</time>
      </trkpt>
      <trkpt lat="44.89233" lon="-0.15754">
        <ele>75.12</ele>
        <time>2022-04-26T09:45:13Z</time>
      </trkpt>
      <trkpt lat="44.89235" lon="-0.15759">
        <ele>75.12</ele>
        <time>2022-04-26T09:45:17Z</time>
      </trkpt>
      <trkpt lat="44.8924" lon="-0.15763">
        <ele>75.12</ele>
        <time>2022-04-26T09:45:22Z</time>
      </trkpt>
      <trkpt lat="44.89255" lon="-0.15777">
        <ele>74.64</ele>
        <time>2022-04-26T09:45:37Z</time>
      </trkpt>
      <trkpt lat="44.89256" lon="-0.15778">
        <ele>74.64</ele>
        <time>2022-04-26T09:45:39Z</time>
      </trkpt>
      <trkpt lat="44.89259" lon="-0.15794">
        <ele>74.64</ele>
        <time>2022-04-26T09:45:49Z</time>
      </trkpt>
      <trkpt lat="44.89267" lon="-0.15807">
        <ele>75.12</ele>
        <time>2022-04-26T09:46:05Z</time>
      </trkpt>
      <trkpt lat="44.89268" lon="-0.15814">
        <ele>76.08</ele>
        <time>2022-04-26T09:46:15Z</time>
      </trkpt>
      <trkpt lat="44.89264" lon="-0.15809">
        <ele>75.6</ele>
        <time>2022-04-26T09:46:28Z</time>
      </trkpt>
      <trkpt lat="44.89264" lon="-0.15805">
        <ele>75.6</ele>
        <time>2022-04-26T09:46:44Z</time>
      </trkpt>
      <trkpt lat="44.89261" lon="-0.158">
        <ele>74.16</ele>
        <time>2022-04-26T09:47:00Z</time>
      </trkpt>
      <trkpt lat="44.89265" lon="-0.15784">
        <ele>70.79</ele>
        <time>2022-04-26T09:47:12Z</time>
      </trkpt>
      <trkpt lat="44.89269" lon="-0.15767">
        <ele>68.39</ele>
        <time>2022-04-26T09:47:23Z</time>
      </trkpt>
      <trkpt lat="44.89274" lon="-0.15756">
        <ele>65.51</ele>
        <time>2022-04-26T09:47:37Z</time>
      </trkpt>
      <trkpt lat="44.89273" lon="-0.15741">
        <ele>63.1</ele>
        <time>2022-04-26T09:47:53Z</time>
      </trkpt>
      <trkpt lat="44.89272" lon="-0.1574">
        <ele>63.1</ele>
        <time>2022-04-26T09:47:54Z</time>
      </trkpt>
      <trkpt lat="44.89269" lon="-0.15733">
        <ele>62.62</ele>
        <time>2022-04-26T09:47:58Z</time>
      </trkpt>
      <trkpt lat="44.89265" lon="-0.15727">
        <ele>61.18</ele>
        <time>2022-04-26T09:48:02Z</time>
      </trkpt>
      <trkpt lat="44.89264" lon="-0.15721">
        <ele>61.18</ele>
        <time>2022-04-26T09:48:06Z</time>
      </trkpt>
      <trkpt lat="44.89264" lon="-0.15718">
        <ele>60.7</ele>
        <time>2022-04-26T09:48:08Z</time>
      </trkpt>
      <trkpt lat="44.89268" lon="-0.15711">
        <ele>60.22</ele>
        <time>2022-04-26T09:48:14Z</time>
      </trkpt>
      <trkpt lat="44.89269" lon="-0.15706">
        <ele>59.74</ele>
        <time>2022-04-26T09:48:17Z</time>
      </trkpt>
      <trkpt lat="44.89278" lon="-0.15686">
        <ele>58.3</ele>
        <time>2022-04-26T09:48:27Z</time>
      </trkpt>
      <trkpt lat="44.89287" lon="-0.15676">
        <ele>58.78</ele>
        <time>2022-04-26T09:48:40Z</time>
      </trkpt>
      <trkpt lat="44.89299" lon="-0.15683">
        <ele>61.66</ele>
        <time>2022-04-26T09:48:57Z</time>
      </trkpt>
      <trkpt lat="44.89316" lon="-0.15683">
        <ele>65.03</ele>
        <time>2022-04-26T09:49:17Z</time>
      </trkpt>
      <trkpt lat="44.89326" lon="-0.15682">
        <ele>68.39</ele>
        <time>2022-04-26T09:49:29Z</time>
      </trkpt>
      <trkpt lat="44.89332" lon="-0.15686">
        <ele>69.35</ele>
        <time>2022-04-26T09:49:34Z</time>
      </trkpt>
      <trkpt lat="44.89339" lon="-0.15685">
        <ele>70.79</ele>
        <time>2022-04-26T09:49:39Z</time>
      </trkpt>
      <trkpt lat="44.89339" lon="-0.15685">
        <ele>70.79</ele>
        <time>2022-04-26T09:49:40Z</time>
      </trkpt>
      <trkpt lat="44.89345" lon="-0.15685">
        <ele>72.72</ele>
        <time>2022-04-26T09:49:44Z</time>
      </trkpt>
      <trkpt lat="44.89354" lon="-0.15689">
        <ele>75.12</ele>
        <time>2022-04-26T09:50:01Z</time>
      </trkpt>
      <trkpt lat="44.89354" lon="-0.15689">
        <ele>75.12</ele>
        <time>2022-04-26T09:50:02Z</time>
      </trkpt>
      <trkpt lat="44.8936" lon="-0.1569">
        <ele>75.6</ele>
        <time>2022-04-26T09:50:12Z</time>
      </trkpt>
      <trkpt lat="44.89363" lon="-0.15691">
        <ele>76.08</ele>
        <time>2022-04-26T09:50:15Z</time>
      </trkpt>
      <trkpt lat="44.89365" lon="-0.15691">
        <ele>76.08</ele>
        <time>2022-04-26T09:50:17Z</time>
      </trkpt>
      <trkpt lat="44.89374" lon="-0.15693">
        <ele>76.08</ele>
        <time>2022-04-26T09:50:26Z</time>
      </trkpt>
      <trkpt lat="44.89379" lon="-0.15695">
        <ele>76.08</ele>
        <time>2022-04-26T09:50:30Z</time>
      </trkpt>
      <trkpt lat="44.89382" lon="-0.15696">
        <ele>76.08</ele>
        <time>2022-04-26T09:50:33Z</time>
      </trkpt>
      <trkpt lat="44.89393" lon="-0.15707">
        <ele>75.6</ele>
        <time>2022-04-26T09:50:47Z</time>
      </trkpt>
      <trkpt lat="44.89396" lon="-0.15707">
        <ele>71.27</ele>
        <time>2022-04-26T09:50:52Z</time>
      </trkpt>
      <trkpt lat="44.89467" lon="-0.15687">
        <ele>75.6</ele>
        <time>2022-04-26T09:56:10Z</time>
      </trkpt>
      <trkpt lat="44.89465" lon="-0.15681">
        <ele>75.6</ele>
        <time>2022-04-26T09:56:11Z</time>
      </trkpt>
      <trkpt lat="44.89434" lon="-0.15658">
        <ele>75.6</ele>
        <time>2022-04-26T09:56:25Z</time>
      </trkpt>
      <trkpt lat="44.89436" lon="-0.15655">
        <ele>75.12</ele>
        <time>2022-04-26T09:56:43Z</time>
      </trkpt>
      <trkpt lat="44.89438" lon="-0.15642">
        <ele>75.6</ele>
        <time>2022-04-26T09:56:53Z</time>
      </trkpt>
      <trkpt lat="44.89437" lon="-0.15627">
        <ele>75.6</ele>
        <time>2022-04-26T09:57:05Z</time>
      </trkpt>
      <trkpt lat="44.89436" lon="-0.15616">
        <ele>76.56</ele>
        <time>2022-04-26T09:57:15Z</time>
      </trkpt>
      <trkpt lat="44.89434" lon="-0.15603">
        <ele>76.08</ele>
        <time>2022-04-26T09:57:26Z</time>
      </trkpt>
      <trkpt lat="44.89435" lon="-0.15588">
        <ele>76.08</ele>
        <time>2022-04-26T09:57:40Z</time>
      </trkpt>
      <trkpt lat="44.89419" lon="-0.15578">
        <ele>75.12</ele>
        <time>2022-04-26T09:58:01Z</time>
      </trkpt>
      <trkpt lat="44.89397" lon="-0.15585">
        <ele>74.16</ele>
        <time>2022-04-26T09:58:22Z</time>
      </trkpt>
      <trkpt lat="44.89386" lon="-0.15592">
        <ele>74.16</ele>
        <time>2022-04-26T09:58:37Z</time>
      </trkpt>
      <trkpt lat="44.89381" lon="-0.15616">
        <ele>74.16</ele>
        <time>2022-04-26T09:58:57Z</time>
      </trkpt>
      <trkpt lat="44.89379" lon="-0.15623">
        <ele>74.64</ele>
        <time>2022-04-26T09:59:15Z</time>
      </trkpt>
      <trkpt lat="44.89362" lon="-0.15639">
        <ele>74.64</ele>
        <time>2022-04-26T09:59:34Z</time>
      </trkpt>
      <trkpt lat="44.89352" lon="-0.15645">
        <ele>73.68</ele>
        <time>2022-04-26T09:59:49Z</time>
      </trkpt>
      <trkpt lat="44.89352" lon="-0.1565">
        <ele>74.64</ele>
        <time>2022-04-26T10:00:12Z</time>
      </trkpt>
      <trkpt lat="44.8936" lon="-0.15658">
        <ele>74.16</ele>
        <time>2022-04-26T10:00:30Z</time>
      </trkpt>
      <trkpt lat="44.89364" lon="-0.15658">
        <ele>74.16</ele>
        <time>2022-04-26T10:00:43Z</time>
      </trkpt>
      <trkpt lat="44.89364" lon="-0.15659">
        <ele>74.16</ele>
        <time>2022-04-26T10:01:02Z</time>
      </trkpt>
      <trkpt lat="44.89365" lon="-0.15661">
        <ele>74.64</ele>
        <time>2022-04-26T10:01:24Z</time>
      </trkpt>
      <trkpt lat="44.8937" lon="-0.15664">
        <ele>74.16</ele>
        <time>2022-04-26T10:01:42Z</time>
      </trkpt>
      <trkpt lat="44.89369" lon="-0.15662">
        <ele>74.16</ele>
        <time>2022-04-26T10:02:08Z</time>
      </trkpt>
      <trkpt lat="44.89354" lon="-0.15653">
        <ele>74.16</ele>
        <time>2022-04-26T10:02:24Z</time>
      </trkpt>
      <trkpt lat="44.89349" lon="-0.15651">
        <ele>72.24</ele>
        <time>2022-04-26T10:02:43Z</time>
      </trkpt>
      <trkpt lat="44.89335" lon="-0.15646">
        <ele>73.2</ele>
        <time>2022-04-26T10:03:06Z</time>
      </trkpt>
      <trkpt lat="44.89346" lon="-0.1562">
        <ele>104.44</ele>
        <time>2022-04-26T10:10:34Z</time>
      </trkpt>
      <trkpt lat="44.89345" lon="-0.15622">
        <ele>104.44</ele>
        <time>2022-04-26T10:10:35Z</time>
      </trkpt>
      <trkpt lat="44.89345" lon="-0.15641">
        <ele>105.4</ele>
        <time>2022-04-26T10:11:02Z</time>
      </trkpt>
      <trkpt lat="44.89345" lon="-0.15643">
        <ele>105.4</ele>
        <time>2022-04-26T10:11:15Z</time>
      </trkpt>
      <trkpt lat="44.89343" lon="-0.15642">
        <ele>105.4</ele>
        <time>2022-04-26T10:11:36Z</time>
      </trkpt>
      <trkpt lat="44.89338" lon="-0.15641">
        <ele>105.4</ele>
        <time>2022-04-26T10:11:53Z</time>
      </trkpt>
      <trkpt lat="44.89338" lon="-0.15641">
        <ele>104.92</ele>
        <time>2022-04-26T10:12:15Z</time>
      </trkpt>
      <trkpt lat="44.89337" lon="-0.1564">
        <ele>105.4</ele>
        <time>2022-04-26T10:12:34Z</time>
      </trkpt>
      <trkpt lat="44.89339" lon="-0.15639">
        <ele>105.4</ele>
        <time>2022-04-26T10:13:12Z</time>
      </trkpt>
      <trkpt lat="44.89337" lon="-0.15641">
        <ele>104.92</ele>
        <time>2022-04-26T10:13:33Z</time>
      </trkpt>
      <trkpt lat="44.89337" lon="-0.15639">
        <ele>104.92</ele>
        <time>2022-04-26T10:13:57Z</time>
      </trkpt>
      <trkpt lat="44.89337" lon="-0.15639">
        <ele>104.92</ele>
        <time>2022-04-26T10:14:20Z</time>
      </trkpt>
      <trkpt lat="44.89338" lon="-0.15639">
        <ele>104.92</ele>
        <time>2022-04-26T10:14:42Z</time>
      </trkpt>
      <trkpt lat="44.89339" lon="-0.15639">
        <ele>104.92</ele>
        <time>2022-04-26T10:15:06Z</time>
      </trkpt>
      <trkpt lat="44.89341" lon="-0.15639">
        <ele>104.92</ele>
        <time>2022-04-26T10:15:41Z</time>
      </trkpt>
      <trkpt lat="44.89341" lon="-0.15642">
        <ele>104.92</ele>
        <time>2022-04-26T10:15:57Z</time>
      </trkpt>
      <trkpt lat="44.89341" lon="-0.15641">
        <ele>104.92</ele>
        <time>2022-04-26T10:16:22Z</time>
      </trkpt>
      <trkpt lat="44.89339" lon="-0.15639">
        <ele>104.92</ele>
        <time>2022-04-26T10:16:47Z</time>
      </trkpt>
      <trkpt lat="44.89339" lon="-0.15642">
        <ele>105.4</ele>
        <time>2022-04-26T10:17:10Z</time>
      </trkpt>
      <trkpt lat="44.89341" lon="-0.15643">
        <ele>105.4</ele>
        <time>2022-04-26T10:17:34Z</time>
      </trkpt>
      <trkpt lat="44.89339" lon="-0.15645">
        <ele>105.4</ele>
        <time>2022-04-26T10:18:11Z</time>
      </trkpt>
      <trkpt lat="44.89339" lon="-0.15646">
        <ele>104.44</ele>
        <time>2022-04-26T10:18:26Z</time>
      </trkpt>
      <trkpt lat="44.8934" lon="-0.15643">
        <ele>105.4</ele>
        <time>2022-04-26T10:18:51Z</time>
      </trkpt>
      <trkpt lat="44.8934" lon="-0.15642">
        <ele>103.96</ele>
        <time>2022-04-26T10:19:16Z</time>
      </trkpt>
      <trkpt lat="44.89339" lon="-0.15641">
        <ele>101.56</ele>
        <time>2022-04-26T10:19:37Z</time>
      </trkpt>
      <trkpt lat="44.89339" lon="-0.15641">
        <ele>100.6</ele>
        <time>2022-04-26T10:19:54Z</time>
      </trkpt>
      <trkpt lat="44.8934" lon="-0.15641">
        <ele>99.63</ele>
        <time>2022-04-26T10:20:10Z</time>
      </trkpt>
      <trkpt lat="44.89341" lon="-0.15641">
        <ele>96.27</ele>
        <time>2022-04-26T10:20:26Z</time>
      </trkpt>
      <trkpt lat="44.8934" lon="-0.1564">
        <ele>92.9</ele>
        <time>2022-04-26T10:20:40Z</time>
      </trkpt>
      <trkpt lat="44.89344" lon="-0.1564">
        <ele>90.02</ele>
        <time>2022-04-26T10:20:52Z</time>
      </trkpt>
      <trkpt lat="44.89347" lon="-0.15652">
        <ele>87.14</ele>
        <time>2022-04-26T10:21:05Z</time>
      </trkpt>
      <trkpt lat="44.89348" lon="-0.15652">
        <ele>86.66</ele>
        <time>2022-04-26T10:21:06Z</time>
      </trkpt>
      <trkpt lat="44.89366" lon="-0.15634">
        <ele>83.29</ele>
        <time>2022-04-26T10:21:22Z</time>
      </trkpt>
      <trkpt lat="44.89348" lon="-0.15641">
        <ele>76.08</ele>
        <time>2022-04-26T10:22:42Z</time>
      </trkpt>
      <trkpt lat="44.89345" lon="-0.15633">
        <ele>76.08</ele>
        <time>2022-04-26T10:22:46Z</time>
      </trkpt>
      <trkpt lat="44.8935" lon="-0.15632">
        <ele>75.6</ele>
        <time>2022-04-26T10:23:02Z</time>
      </trkpt>
      <trkpt lat="44.8935" lon="-0.15632">
        <ele>76.08</ele>
        <time>2022-04-26T10:23:14Z</time>
      </trkpt>
      <trkpt lat="44.89348" lon="-0.15637">
        <ele>76.08</ele>
        <time>2022-04-26T10:23:41Z</time>
      </trkpt>
      <trkpt lat="44.89348" lon="-0.15643">
        <ele>76.08</ele>
        <time>2022-04-26T10:23:56Z</time>
      </trkpt>
      <trkpt lat="44.89351" lon="-0.15647">
        <ele>76.08</ele>
        <time>2022-04-26T10:24:13Z</time>
      </trkpt>
      <trkpt lat="44.89352" lon="-0.15647">
        <ele>75.6</ele>
        <time>2022-04-26T10:24:43Z</time>
      </trkpt>
      <trkpt lat="44.89352" lon="-0.15648">
        <ele>76.08</ele>
        <time>2022-04-26T10:25:02Z</time>
      </trkpt>
      <trkpt lat="44.89354" lon="-0.15648">
        <ele>76.08</ele>
        <time>2022-04-26T10:25:04Z</time>
      </trkpt>
      <trkpt lat="44.89365" lon="-0.15651">
        <ele>76.08</ele>
        <time>2022-04-26T10:25:19Z</time>
      </trkpt>
      <trkpt lat="44.89365" lon="-0.1565">
        <ele>75.6</ele>
        <time>2022-04-26T10:25:36Z</time>
      </trkpt>
      <trkpt lat="44.89361" lon="-0.15647">
        <ele>76.08</ele>
        <time>2022-04-26T10:25:43Z</time>
      </trkpt>
      <trkpt lat="44.89352" lon="-0.15643">
        <ele>76.08</ele>
        <time>2022-04-26T10:25:57Z</time>
      </trkpt>
      <trkpt lat="44.89354" lon="-0.15643">
        <ele>76.08</ele>
        <time>2022-04-26T10:26:13Z</time>
      </trkpt>
      <trkpt lat="44.89357" lon="-0.15642">
        <ele>76.08</ele>
        <time>2022-04-26T10:26:42Z</time>
      </trkpt>
      <trkpt lat="44.89357" lon="-0.15643">
        <ele>76.08</ele>
        <time>2022-04-26T10:27:03Z</time>
      </trkpt>
      <trkpt lat="44.89368" lon="-0.15633">
        <ele>76.56</ele>
        <time>2022-04-26T10:27:19Z</time>
      </trkpt>
      <trkpt lat="44.89375" lon="-0.15618">
        <ele>75.6</ele>
        <time>2022-04-26T10:27:36Z</time>
      </trkpt>
      <trkpt lat="44.89387" lon="-0.15594">
        <ele>75.6</ele>
        <time>2022-04-26T10:27:56Z</time>
      </trkpt>
      <trkpt lat="44.89383" lon="-0.15566">
        <ele>76.08</ele>
        <time>2022-04-26T10:28:14Z</time>
      </trkpt>
      <trkpt lat="44.89386" lon="-0.15555">
        <ele>77.04</ele>
        <time>2022-04-26T10:28:31Z</time>
      </trkpt>
      <trkpt lat="44.89393" lon="-0.15526">
        <ele>74.16</ele>
        <time>2022-04-26T10:28:48Z</time>
      </trkpt>
      <trkpt lat="44.89386" lon="-0.15505">
        <ele>74.64</ele>
        <time>2022-04-26T10:29:05Z</time>
      </trkpt>
      <trkpt lat="44.89383" lon="-0.15503">
        <ele>74.64</ele>
        <time>2022-04-26T10:29:20Z</time>
      </trkpt>
      <trkpt lat="44.89382" lon="-0.15506">
        <ele>74.64</ele>
        <time>2022-04-26T10:29:39Z</time>
      </trkpt>
      <trkpt lat="44.89385" lon="-0.15508">
        <ele>73.2</ele>
        <time>2022-04-26T10:29:51Z</time>
      </trkpt>
      <trkpt lat="44.89397" lon="-0.15534">
        <ele>77.52</ele>
        <time>2022-04-26T10:30:00Z</time>
      </trkpt>
      <trkpt lat="44.89397" lon="-0.15538">
        <ele>77.52</ele>
        <time>2022-04-26T10:30:01Z</time>
      </trkpt>
      <trkpt lat="44.89398" lon="-0.15545">
        <ele>75.6</ele>
        <time>2022-04-26T10:30:03Z</time>
      </trkpt>
      <trkpt lat="44.8939" lon="-0.15589">
        <ele>75.12</ele>
        <time>2022-04-26T10:30:14Z</time>
      </trkpt>
      <trkpt lat="44.89382" lon="-0.15624">
        <ele>76.08</ele>
        <time>2022-04-26T10:30:22Z</time>
      </trkpt>
      <trkpt lat="44.8938" lon="-0.15628">
        <ele>76.08</ele>
        <time>2022-04-26T10:30:24Z</time>
      </trkpt>
      <trkpt lat="44.89344" lon="-0.15634">
        <ele>76.08</ele>
        <time>2022-04-26T10:30:36Z</time>
      </trkpt>
      <trkpt lat="44.89342" lon="-0.15639">
        <ele>76.08</ele>
        <time>2022-04-26T10:30:52Z</time>
      </trkpt>
      <trkpt lat="44.89342" lon="-0.15638">
        <ele>75.6</ele>
        <time>2022-04-26T10:31:04Z</time>
      </trkpt>
      <trkpt lat="44.89344" lon="-0.15638">
        <ele>75.6</ele>
        <time>2022-04-26T10:31:16Z</time>
      </trkpt>
      <trkpt lat="44.89344" lon="-0.15629">
        <ele>75.6</ele>
        <time>2022-04-26T10:31:33Z</time>
      </trkpt>
      <trkpt lat="44.89348" lon="-0.15635">
        <ele>78</ele>
        <time>2022-04-26T10:31:40Z</time>
      </trkpt>
      <trkpt lat="44.89347" lon="-0.15641">
        <ele>75.6</ele>
        <time>2022-04-26T10:31:44Z</time>
      </trkpt>
      <trkpt lat="44.89355" lon="-0.15636">
        <ele>75.6</ele>
        <time>2022-04-26T10:31:54Z</time>
      </trkpt>
      <trkpt lat="44.89371" lon="-0.15629">
        <ele>75.12</ele>
        <time>2022-04-26T10:32:04Z</time>
      </trkpt>
      <trkpt lat="44.89382" lon="-0.15591">
        <ele>74.64</ele>
        <time>2022-04-26T10:32:24Z</time>
      </trkpt>
      <trkpt lat="44.89379" lon="-0.15554">
        <ele>75.6</ele>
        <time>2022-04-26T10:32:39Z</time>
      </trkpt>
      <trkpt lat="44.89376" lon="-0.15523">
        <ele>74.16</ele>
        <time>2022-04-26T10:32:54Z</time>
      </trkpt>
      <trkpt lat="44.89378" lon="-0.15515">
        <ele>73.2</ele>
        <time>2022-04-26T10:33:00Z</time>
      </trkpt>
      <trkpt lat="44.89373" lon="-0.15504">
        <ele>73.68</ele>
        <time>2022-04-26T10:33:16Z</time>
      </trkpt>
      <trkpt lat="44.89368" lon="-0.15503">
        <ele>74.64</ele>
        <time>2022-04-26T10:33:34Z</time>
      </trkpt>
      <trkpt lat="44.89364" lon="-0.15501">
        <ele>74.64</ele>
        <time>2022-04-26T10:33:38Z</time>
      </trkpt>
      <trkpt lat="44.89342" lon="-0.15505">
        <ele>75.6</ele>
        <time>2022-04-26T10:33:54Z</time>
      </trkpt>
      <trkpt lat="44.89332" lon="-0.15503">
        <ele>75.12</ele>
        <time>2022-04-26T10:34:03Z</time>
      </trkpt>
      <trkpt lat="44.89325" lon="-0.155">
        <ele>75.6</ele>
        <time>2022-04-26T10:34:16Z</time>
      </trkpt>
      <trkpt lat="44.8932" lon="-0.15494">
        <ele>75.6</ele>
        <time>2022-04-26T10:34:33Z</time>
      </trkpt>
      <trkpt lat="44.89314" lon="-0.15492">
        <ele>75.6</ele>
        <time>2022-04-26T10:34:39Z</time>
      </trkpt>
      <trkpt lat="44.89302" lon="-0.15491">
        <ele>75.6</ele>
        <time>2022-04-26T10:34:53Z</time>
      </trkpt>
      <trkpt lat="44.89304" lon="-0.15486">
        <ele>76.08</ele>
        <time>2022-04-26T10:35:06Z</time>
      </trkpt>
      <trkpt lat="44.89307" lon="-0.15463">
        <ele>76.08</ele>
        <time>2022-04-26T10:35:26Z</time>
      </trkpt>
      <trkpt lat="44.89319" lon="-0.15447">
        <ele>76.08</ele>
        <time>2022-04-26T10:35:44Z</time>
      </trkpt>
      <trkpt lat="44.89329" lon="-0.15449">
        <ele>76.08</ele>
        <time>2022-04-26T10:35:57Z</time>
      </trkpt>
      <trkpt lat="44.89333" lon="-0.15452">
        <ele>75.6</ele>
        <time>2022-04-26T10:36:15Z</time>
      </trkpt>
      <trkpt lat="44.89332" lon="-0.15452">
        <ele>75.6</ele>
        <time>2022-04-26T10:36:37Z</time>
      </trkpt>
      <trkpt lat="44.8933" lon="-0.15452">
        <ele>75.6</ele>
        <time>2022-04-26T10:37:01Z</time>
      </trkpt>
      <trkpt lat="44.89324" lon="-0.15447">
        <ele>76.56</ele>
        <time>2022-04-26T10:37:18Z</time>
      </trkpt>
      <trkpt lat="44.89317" lon="-0.15441">
        <ele>75.6</ele>
        <time>2022-04-26T10:37:51Z</time>
      </trkpt>
      <trkpt lat="44.89325" lon="-0.15439">
        <ele>75.6</ele>
        <time>2022-04-26T10:38:17Z</time>
      </trkpt>
      <trkpt lat="44.89314" lon="-0.15446">
        <ele>75.6</ele>
        <time>2022-04-26T10:38:37Z</time>
      </trkpt>
      <trkpt lat="44.89304" lon="-0.15475">
        <ele>75.12</ele>
        <time>2022-04-26T10:38:52Z</time>
      </trkpt>
      <trkpt lat="44.89304" lon="-0.15491">
        <ele>75.12</ele>
        <time>2022-04-26T10:39:08Z</time>
      </trkpt>
      <trkpt lat="44.89304" lon="-0.15497">
        <ele>75.12</ele>
        <time>2022-04-26T10:39:25Z</time>
      </trkpt>
      <trkpt lat="44.89309" lon="-0.15483">
        <ele>75.6</ele>
        <time>2022-04-26T10:39:47Z</time>
      </trkpt>
      <trkpt lat="44.89315" lon="-0.15483">
        <ele>75.6</ele>
        <time>2022-04-26T10:40:03Z</time>
      </trkpt>
      <trkpt lat="44.89306" lon="-0.15478">
        <ele>76.08</ele>
        <time>2022-04-26T10:42:11Z</time>
      </trkpt>
      <trkpt lat="44.89303" lon="-0.15489">
        <ele>74.16</ele>
        <time>2022-04-26T10:42:25Z</time>
      </trkpt>
      <trkpt lat="44.89303" lon="-0.1549">
        <ele>74.16</ele>
        <time>2022-04-26T10:42:26Z</time>
      </trkpt>
      <trkpt lat="44.89303" lon="-0.15491">
        <ele>78.48</ele>
        <time>2022-04-26T10:42:27Z</time>
      </trkpt>
      <trkpt lat="44.89303" lon="-0.15492">
        <ele>75.6</ele>
        <time>2022-04-26T10:42:28Z</time>
      </trkpt>
      <trkpt lat="44.89303" lon="-0.15491">
        <ele>76.08</ele>
        <time>2022-04-26T10:42:45Z</time>
      </trkpt>
      <trkpt lat="44.89307" lon="-0.15491">
        <ele>76.08</ele>
        <time>2022-04-26T10:43:16Z</time>
      </trkpt>
      <trkpt lat="44.89319" lon="-0.15505">
        <ele>76.08</ele>
        <time>2022-04-26T10:43:28Z</time>
      </trkpt>
      <trkpt lat="44.89321" lon="-0.15513">
        <ele>75.6</ele>
        <time>2022-04-26T10:43:41Z</time>
      </trkpt>
      <trkpt lat="44.89322" lon="-0.15512">
        <ele>75.6</ele>
        <time>2022-04-26T10:44:03Z</time>
      </trkpt>
      <trkpt lat="44.89322" lon="-0.15512">
        <ele>75.6</ele>
        <time>2022-04-26T10:44:26Z</time>
      </trkpt>
      <trkpt lat="44.89323" lon="-0.15512">
        <ele>75.6</ele>
        <time>2022-04-26T10:44:50Z</time>
      </trkpt>
      <trkpt lat="44.89319" lon="-0.15511">
        <ele>75.6</ele>
        <time>2022-04-26T10:45:09Z</time>
      </trkpt>
      <trkpt lat="44.89323" lon="-0.15507">
        <ele>75.6</ele>
        <time>2022-04-26T10:45:26Z</time>
      </trkpt>
      <trkpt lat="44.89337" lon="-0.15505">
        <ele>75.6</ele>
        <time>2022-04-26T10:45:41Z</time>
      </trkpt>
      <trkpt lat="44.89343" lon="-0.15506">
        <ele>75.6</ele>
        <time>2022-04-26T10:45:55Z</time>
      </trkpt>
      <trkpt lat="44.8936" lon="-0.15511">
        <ele>74.16</ele>
        <time>2022-04-26T10:46:12Z</time>
      </trkpt>
      <trkpt lat="44.89381" lon="-0.15514">
        <ele>73.2</ele>
        <time>2022-04-26T10:46:28Z</time>
      </trkpt>
      <trkpt lat="44.89372" lon="-0.15516">
        <ele>71.76</ele>
        <time>2022-04-26T10:46:44Z</time>
      </trkpt>
      <trkpt lat="44.89367" lon="-0.15535">
        <ele>69.35</ele>
        <time>2022-04-26T10:47:01Z</time>
      </trkpt>
      <trkpt lat="44.89358" lon="-0.15544">
        <ele>67.43</ele>
        <time>2022-04-26T10:47:14Z</time>
      </trkpt>
      <trkpt lat="44.89357" lon="-0.15545">
        <ele>66.95</ele>
        <time>2022-04-26T10:47:20Z</time>
      </trkpt>
      <trkpt lat="44.8935" lon="-0.15544">
        <ele>66.47</ele>
        <time>2022-04-26T10:47:38Z</time>
      </trkpt>
      <trkpt lat="44.89349" lon="-0.15544">
        <ele>66.47</ele>
        <time>2022-04-26T10:48:04Z</time>
      </trkpt>
      <trkpt lat="44.89343" lon="-0.1555">
        <ele>65.51</ele>
        <time>2022-04-26T10:48:16Z</time>
      </trkpt>
      <trkpt lat="44.89345" lon="-0.1556">
        <ele>65.03</ele>
        <time>2022-04-26T10:48:22Z</time>
      </trkpt>
      <trkpt lat="44.89347" lon="-0.15565">
        <ele>65.03</ele>
        <time>2022-04-26T10:48:30Z</time>
      </trkpt>
      <trkpt lat="44.89336" lon="-0.15565">
        <ele>64.07</ele>
        <time>2022-04-26T10:48:47Z</time>
      </trkpt>
      <trkpt lat="44.89333" lon="-0.15567">
        <ele>63.58</ele>
        <time>2022-04-26T10:49:03Z</time>
      </trkpt>
      <trkpt lat="44.89338" lon="-0.15569">
        <ele>63.1</ele>
        <time>2022-04-26T10:49:24Z</time>
      </trkpt>
      <trkpt lat="44.89336" lon="-0.15574">
        <ele>62.62</ele>
        <time>2022-04-26T10:49:44Z</time>
      </trkpt>
      <trkpt lat="44.89339" lon="-0.15583">
        <ele>63.1</ele>
        <time>2022-04-26T10:50:03Z</time>
      </trkpt>
      <trkpt lat="44.89335" lon="-0.15587">
        <ele>63.1</ele>
        <time>2022-04-26T10:50:21Z</time>
      </trkpt>
      <trkpt lat="44.89324" lon="-0.15587">
        <ele>61.18</ele>
        <time>2022-04-26T10:50:40Z</time>
      </trkpt>
      <trkpt lat="44.89324" lon="-0.15601">
        <ele>60.22</ele>
        <time>2022-04-26T10:50:55Z</time>
      </trkpt>
      <trkpt lat="44.89318" lon="-0.15603">
        <ele>60.22</ele>
        <time>2022-04-26T10:51:11Z</time>
      </trkpt>
      <trkpt lat="44.89316" lon="-0.15602">
        <ele>60.22</ele>
        <time>2022-04-26T10:51:32Z</time>
      </trkpt>
      <trkpt lat="44.89309" lon="-0.15606">
        <ele>59.74</ele>
        <time>2022-04-26T10:51:47Z</time>
      </trkpt>
      <trkpt lat="44.89302" lon="-0.15612">
        <ele>59.26</ele>
        <time>2022-04-26T10:51:59Z</time>
      </trkpt>
      <trkpt lat="44.89302" lon="-0.15613">
        <ele>58.78</ele>
        <time>2022-04-26T10:52:00Z</time>
      </trkpt>
      <trkpt lat="44.893" lon="-0.1562">
        <ele>60.22</ele>
        <time>2022-04-26T10:52:14Z</time>
      </trkpt>
      <trkpt lat="44.89314" lon="-0.15616">
        <ele>61.18</ele>
        <time>2022-04-26T10:52:30Z</time>
      </trkpt>
      <trkpt lat="44.89329" lon="-0.15609">
        <ele>62.14</ele>
        <time>2022-04-26T10:52:46Z</time>
      </trkpt>
      <trkpt lat="44.89334" lon="-0.15606">
        <ele>64.55</ele>
        <time>2022-04-26T10:53:00Z</time>
      </trkpt>
      <trkpt lat="44.89344" lon="-0.15602">
        <ele>68.39</ele>
        <time>2022-04-26T10:53:17Z</time>
      </trkpt>
      <trkpt lat="44.89358" lon="-0.15604">
        <ele>71.27</ele>
        <time>2022-04-26T10:53:33Z</time>
      </trkpt>
      <trkpt lat="44.89368" lon="-0.156">
        <ele>73.2</ele>
        <time>2022-04-26T10:53:42Z</time>
      </trkpt>
      <trkpt lat="44.89377" lon="-0.15597">
        <ele>75.6</ele>
        <time>2022-04-26T10:54:01Z</time>
      </trkpt>
      <trkpt lat="44.89383" lon="-0.15598">
        <ele>75.6</ele>
        <time>2022-04-26T10:54:25Z</time>
      </trkpt>
      <trkpt lat="44.89381" lon="-0.15597">
        <ele>75.6</ele>
        <time>2022-04-26T10:54:44Z</time>
      </trkpt>
      <trkpt lat="44.89389" lon="-0.15584">
        <ele>76.08</ele>
        <time>2022-04-26T10:54:57Z</time>
      </trkpt>
      <trkpt lat="44.894" lon="-0.15586">
        <ele>76.56</ele>
        <time>2022-04-26T10:55:13Z</time>
      </trkpt>
      <trkpt lat="44.89419" lon="-0.15591">
        <ele>77.52</ele>
        <time>2022-04-26T10:55:31Z</time>
      </trkpt>
      <trkpt lat="44.89421" lon="-0.15592">
        <ele>77.52</ele>
        <time>2022-04-26T10:55:33Z</time>
      </trkpt>
      <trkpt lat="44.89423" lon="-0.15593">
        <ele>77.52</ele>
        <time>2022-04-26T10:55:35Z</time>
      </trkpt>
      <trkpt lat="44.89427" lon="-0.15596">
        <ele>77.52</ele>
        <time>2022-04-26T10:55:38Z</time>
      </trkpt>
      <trkpt lat="44.89441" lon="-0.15603">
        <ele>77.04</ele>
        <time>2022-04-26T10:55:51Z</time>
      </trkpt>
      <trkpt lat="44.89443" lon="-0.15615">
        <ele>77.04</ele>
        <time>2022-04-26T10:56:02Z</time>
      </trkpt>
      <trkpt lat="44.89439" lon="-0.1563">
        <ele>77.04</ele>
        <time>2022-04-26T10:56:15Z</time>
      </trkpt>
      <trkpt lat="44.89434" lon="-0.15645">
        <ele>76.08</ele>
        <time>2022-04-26T10:56:28Z</time>
      </trkpt>
      <trkpt lat="44.89442" lon="-0.1567">
        <ele>76.08</ele>
        <time>2022-04-26T10:56:42Z</time>
      </trkpt>
      <trkpt lat="44.89449" lon="-0.15687">
        <ele>75.6</ele>
        <time>2022-04-26T10:56:54Z</time>
      </trkpt>
      <trkpt lat="44.8945" lon="-0.15688">
        <ele>75.6</ele>
        <time>2022-04-26T10:56:56Z</time>
      </trkpt>
      <trkpt lat="44.89465" lon="-0.15683">
        <ele>75.12</ele>
        <time>2022-04-26T10:57:09Z</time>
      </trkpt>
      <trkpt lat="44.89475" lon="-0.15675">
        <ele>75.12</ele>
        <time>2022-04-26T10:57:23Z</time>
      </trkpt>
      <trkpt lat="44.89483" lon="-0.15667">
        <ele>75.12</ele>
        <time>2022-04-26T10:57:43Z</time>
      </trkpt>
      <trkpt lat="44.89491" lon="-0.1566">
        <ele>74.64</ele>
        <time>2022-04-26T10:57:57Z</time>
      </trkpt>
      <trkpt lat="44.89493" lon="-0.15659">
        <ele>74.64</ele>
        <time>2022-04-26T10:57:59Z</time>
      </trkpt>
      <trkpt lat="44.89507" lon="-0.15646">
        <ele>74.16</ele>
        <time>2022-04-26T10:58:16Z</time>
      </trkpt>
      <trkpt lat="44.89517" lon="-0.15638">
        <ele>73.68</ele>
        <time>2022-04-26T10:58:28Z</time>
      </trkpt>
      <trkpt lat="44.89519" lon="-0.15637">
        <ele>73.68</ele>
        <time>2022-04-26T10:58:30Z</time>
      </trkpt>
      <trkpt lat="44.89532" lon="-0.15624">
        <ele>73.2</ele>
        <time>2022-04-26T10:58:46Z</time>
      </trkpt>
      <trkpt lat="44.89544" lon="-0.1561">
        <ele>73.2</ele>
        <time>2022-04-26T10:59:02Z</time>
      </trkpt>
      <trkpt lat="44.89545" lon="-0.15609">
        <ele>72.72</ele>
        <time>2022-04-26T10:59:05Z</time>
      </trkpt>
      <trkpt lat="44.89557" lon="-0.15594">
        <ele>72.72</ele>
        <time>2022-04-26T10:59:19Z</time>
      </trkpt>
      <trkpt lat="44.89565" lon="-0.15579">
        <ele>72.24</ele>
        <time>2022-04-26T10:59:32Z</time>
      </trkpt>
      <trkpt lat="44.89578" lon="-0.1557">
        <ele>71.76</ele>
        <time>2022-04-26T10:59:43Z</time>
      </trkpt>
      <trkpt lat="44.89591" lon="-0.15574">
        <ele>71.76</ele>
        <time>2022-04-26T10:59:52Z</time>
      </trkpt>
      <trkpt lat="44.89603" lon="-0.15572">
        <ele>71.27</ele>
        <time>2022-04-26T11:00:01Z</time>
      </trkpt>
      <trkpt lat="44.89607" lon="-0.15569">
        <ele>70.31</ele>
        <time>2022-04-26T11:00:10Z</time>
      </trkpt>
      <trkpt lat="44.89617" lon="-0.15576">
        <ele>69.35</ele>
        <time>2022-04-26T11:00:24Z</time>
      </trkpt>
      <trkpt lat="44.89619" lon="-0.15584">
        <ele>69.35</ele>
        <time>2022-04-26T11:00:40Z</time>
      </trkpt>
      <trkpt lat="44.89619" lon="-0.15586">
        <ele>69.35</ele>
        <time>2022-04-26T11:00:56Z</time>
      </trkpt>
      <trkpt lat="44.89621" lon="-0.15577">
        <ele>69.35</ele>
        <time>2022-04-26T11:01:10Z</time>
      </trkpt>
      <trkpt lat="44.89631" lon="-0.15562">
        <ele>69.35</ele>
        <time>2022-04-26T11:01:25Z</time>
      </trkpt>
      <trkpt lat="44.8964" lon="-0.15572">
        <ele>68.87</ele>
        <time>2022-04-26T11:01:40Z</time>
      </trkpt>
      <trkpt lat="44.8964" lon="-0.15571">
        <ele>68.87</ele>
        <time>2022-04-26T11:02:01Z</time>
      </trkpt>
      <trkpt lat="44.89639" lon="-0.15558">
        <ele>69.35</ele>
        <time>2022-04-26T11:02:16Z</time>
      </trkpt>
      <trkpt lat="44.89638" lon="-0.15557">
        <ele>69.35</ele>
        <time>2022-04-26T11:02:37Z</time>
      </trkpt>
      <trkpt lat="44.89637" lon="-0.15549">
        <ele>69.83</ele>
        <time>2022-04-26T11:02:53Z</time>
      </trkpt>
      <trkpt lat="44.89633" lon="-0.15548">
        <ele>69.35</ele>
        <time>2022-04-26T11:03:07Z</time>
      </trkpt>
      <trkpt lat="44.89632" lon="-0.15547">
        <ele>69.35</ele>
        <time>2022-04-26T11:03:34Z</time>
      </trkpt>
      <trkpt lat="44.89632" lon="-0.15549">
        <ele>69.35</ele>
        <time>2022-04-26T11:04:02Z</time>
      </trkpt>
      <trkpt lat="44.89633" lon="-0.15557">
        <ele>68.87</ele>
        <time>2022-04-26T11:04:18Z</time>
      </trkpt>
      <trkpt lat="44.89636" lon="-0.15562">
        <ele>69.35</ele>
        <time>2022-04-26T11:04:25Z</time>
      </trkpt>
      <trkpt lat="44.89642" lon="-0.15556">
        <ele>68.87</ele>
        <time>2022-04-26T11:04:39Z</time>
      </trkpt>
      <trkpt lat="44.89652" lon="-0.1555">
        <ele>69.35</ele>
        <time>2022-04-26T11:04:52Z</time>
      </trkpt>
      <trkpt lat="44.89667" lon="-0.15549">
        <ele>67.91</ele>
        <time>2022-04-26T11:05:01Z</time>
      </trkpt>
      <trkpt lat="44.89683" lon="-0.15551">
        <ele>67.43</ele>
        <time>2022-04-26T11:05:11Z</time>
      </trkpt>
      <trkpt lat="44.89689" lon="-0.15568">
        <ele>66.95</ele>
        <time>2022-04-26T11:05:24Z</time>
      </trkpt>
      <trkpt lat="44.89693" lon="-0.15594">
        <ele>66.95</ele>
        <time>2022-04-26T11:05:40Z</time>
      </trkpt>
      <trkpt lat="44.89696" lon="-0.15623">
        <ele>66.47</ele>
        <time>2022-04-26T11:05:53Z</time>
      </trkpt>
      <trkpt lat="44.89706" lon="-0.15629">
        <ele>66.47</ele>
        <time>2022-04-26T11:06:06Z</time>
      </trkpt>
      <trkpt lat="44.89705" lon="-0.15625">
        <ele>65.99</ele>
        <time>2022-04-26T11:06:11Z</time>
      </trkpt>
      <trkpt lat="44.89708" lon="-0.1562">
        <ele>65.99</ele>
        <time>2022-04-26T11:06:28Z</time>
      </trkpt>
      <trkpt lat="44.89708" lon="-0.15621">
        <ele>65.99</ele>
        <time>2022-04-26T11:06:55Z</time>
      </trkpt>
      <trkpt lat="44.89706" lon="-0.15624">
        <ele>66.95</ele>
        <time>2022-04-26T11:07:21Z</time>
      </trkpt>
      <trkpt lat="44.89706" lon="-0.15621">
        <ele>65.99</ele>
        <time>2022-04-26T11:07:27Z</time>
      </trkpt>
      <trkpt lat="44.89706" lon="-0.15623">
        <ele>66.47</ele>
        <time>2022-04-26T11:07:30Z</time>
      </trkpt>
      <trkpt lat="44.89707" lon="-0.1564">
        <ele>65.03</ele>
        <time>2022-04-26T11:07:39Z</time>
      </trkpt>
      <trkpt lat="44.89711" lon="-0.15659">
        <ele>65.03</ele>
        <time>2022-04-26T11:07:53Z</time>
      </trkpt>
      <trkpt lat="44.89714" lon="-0.15666">
        <ele>65.03</ele>
        <time>2022-04-26T11:08:04Z</time>
      </trkpt>
      <trkpt lat="44.89714" lon="-0.15667">
        <ele>65.03</ele>
        <time>2022-04-26T11:08:19Z</time>
      </trkpt>
      <trkpt lat="44.89713" lon="-0.15667">
        <ele>65.51</ele>
        <time>2022-04-26T11:08:27Z</time>
      </trkpt>
      <trkpt lat="44.89711" lon="-0.15671">
        <ele>65.03</ele>
        <time>2022-04-26T11:08:31Z</time>
      </trkpt>
      <trkpt lat="44.89706" lon="-0.1568">
        <ele>65.03</ele>
        <time>2022-04-26T11:08:45Z</time>
      </trkpt>
      <trkpt lat="44.89702" lon="-0.15685">
        <ele>65.03</ele>
        <time>2022-04-26T11:08:49Z</time>
      </trkpt>
      <trkpt lat="44.89694" lon="-0.15695">
        <ele>64.55</ele>
        <time>2022-04-26T11:09:03Z</time>
      </trkpt>
      <trkpt lat="44.89691" lon="-0.15696">
        <ele>65.03</ele>
        <time>2022-04-26T11:09:05Z</time>
      </trkpt>
      <trkpt lat="44.89681" lon="-0.15697">
        <ele>65.51</ele>
        <time>2022-04-26T11:09:12Z</time>
      </trkpt>
      <trkpt lat="44.89674" lon="-0.15699">
        <ele>65.51</ele>
        <time>2022-04-26T11:09:17Z</time>
      </trkpt>
      <trkpt lat="44.89654" lon="-0.15704">
        <ele>65.99</ele>
        <time>2022-04-26T11:09:30Z</time>
      </trkpt>
      <trkpt lat="44.89647" lon="-0.15702">
        <ele>65.99</ele>
        <time>2022-04-26T11:09:35Z</time>
      </trkpt>
      <trkpt lat="44.89641" lon="-0.15697">
        <ele>65.99</ele>
        <time>2022-04-26T11:09:40Z</time>
      </trkpt>
      <trkpt lat="44.8964" lon="-0.15685">
        <ele>65.99</ele>
        <time>2022-04-26T11:09:48Z</time>
      </trkpt>
      <trkpt lat="44.89645" lon="-0.15656">
        <ele>66.47</ele>
        <time>2022-04-26T11:10:03Z</time>
      </trkpt>
      <trkpt lat="44.89645" lon="-0.15628">
        <ele>66.95</ele>
        <time>2022-04-26T11:10:20Z</time>
      </trkpt>
      <trkpt lat="44.89644" lon="-0.15608">
        <ele>68.39</ele>
        <time>2022-04-26T11:10:35Z</time>
      </trkpt>
      <trkpt lat="44.89644" lon="-0.15599">
        <ele>68.39</ele>
        <time>2022-04-26T11:10:52Z</time>
      </trkpt>
      <trkpt lat="44.89648" lon="-0.15594">
        <ele>68.39</ele>
        <time>2022-04-26T11:11:09Z</time>
      </trkpt>
      <trkpt lat="44.89649" lon="-0.15594">
        <ele>67.91</ele>
        <time>2022-04-26T11:11:16Z</time>
      </trkpt>
      <trkpt lat="44.89648" lon="-0.15637">
        <ele>69.35</ele>
        <time>2022-04-26T11:53:49Z</time>
      </trkpt>
      <trkpt lat="44.89647" lon="-0.15637">
        <ele>69.35</ele>
        <time>2022-04-26T11:53:50Z</time>
      </trkpt>
      <trkpt lat="44.8965" lon="-0.15649">
        <ele>58.78</ele>
        <time>2022-04-26T11:53:59Z</time>
      </trkpt>
      <trkpt lat="44.8965" lon="-0.1565">
        <ele>76.56</ele>
        <time>2022-04-26T11:54:00Z</time>
      </trkpt>
      <trkpt lat="44.89649" lon="-0.15652">
        <ele>69.35</ele>
        <time>2022-04-26T11:54:01Z</time>
      </trkpt>
      <trkpt lat="44.89647" lon="-0.15657">
        <ele>67.91</ele>
        <time>2022-04-26T11:54:06Z</time>
      </trkpt>
      <trkpt lat="44.89642" lon="-0.15679">
        <ele>68.39</ele>
        <time>2022-04-26T11:54:23Z</time>
      </trkpt>
      <trkpt lat="44.89638" lon="-0.15695">
        <ele>68.39</ele>
        <time>2022-04-26T11:54:37Z</time>
      </trkpt>
      <trkpt lat="44.89643" lon="-0.15702">
        <ele>68.39</ele>
        <time>2022-04-26T11:54:46Z</time>
      </trkpt>
      <trkpt lat="44.89647" lon="-0.15705">
        <ele>67.91</ele>
        <time>2022-04-26T11:54:50Z</time>
      </trkpt>
      <trkpt lat="44.89662" lon="-0.15707">
        <ele>67.43</ele>
        <time>2022-04-26T11:55:04Z</time>
      </trkpt>
      <trkpt lat="44.89672" lon="-0.15707">
        <ele>66.95</ele>
        <time>2022-04-26T11:55:14Z</time>
      </trkpt>
      <trkpt lat="44.89688" lon="-0.15704">
        <ele>66.47</ele>
        <time>2022-04-26T11:55:30Z</time>
      </trkpt>
      <trkpt lat="44.89694" lon="-0.15697">
        <ele>66.47</ele>
        <time>2022-04-26T11:55:37Z</time>
      </trkpt>
      <trkpt lat="44.89705" lon="-0.1569">
        <ele>66.47</ele>
        <time>2022-04-26T11:55:50Z</time>
      </trkpt>
      <trkpt lat="44.89712" lon="-0.15672">
        <ele>66.47</ele>
        <time>2022-04-26T11:56:04Z</time>
      </trkpt>
      <trkpt lat="44.89711" lon="-0.15671">
        <ele>66.47</ele>
        <time>2022-04-26T11:56:22Z</time>
      </trkpt>
      <trkpt lat="44.89712" lon="-0.15672">
        <ele>66.47</ele>
        <time>2022-04-26T11:56:41Z</time>
      </trkpt>
      <trkpt lat="44.89711" lon="-0.15671">
        <ele>66.47</ele>
        <time>2022-04-26T11:57:03Z</time>
      </trkpt>
      <trkpt lat="44.89711" lon="-0.15671">
        <ele>66.47</ele>
        <time>2022-04-26T11:57:21Z</time>
      </trkpt>
      <trkpt lat="44.89711" lon="-0.15671">
        <ele>65.99</ele>
        <time>2022-04-26T11:57:46Z</time>
      </trkpt>
      <trkpt lat="44.89711" lon="-0.15671">
        <ele>65.99</ele>
        <time>2022-04-26T11:58:04Z</time>
      </trkpt>
      <trkpt lat="44.89711" lon="-0.15671">
        <ele>65.51</ele>
        <time>2022-04-26T11:58:24Z</time>
      </trkpt>
      <trkpt lat="44.89712" lon="-0.15672">
        <ele>65.99</ele>
        <time>2022-04-26T11:58:56Z</time>
      </trkpt>
      <trkpt lat="44.89712" lon="-0.15672">
        <ele>65.99</ele>
        <time>2022-04-26T11:59:22Z</time>
      </trkpt>
      <trkpt lat="44.89712" lon="-0.15671">
        <ele>65.99</ele>
        <time>2022-04-26T11:59:37Z</time>
      </trkpt>
      <trkpt lat="44.89712" lon="-0.15671">
        <ele>65.99</ele>
        <time>2022-04-26T12:00:03Z</time>
      </trkpt>
      <trkpt lat="44.89712" lon="-0.15672">
        <ele>66.47</ele>
        <time>2022-04-26T12:00:14Z</time>
      </trkpt>
      <trkpt lat="44.89712" lon="-0.15671">
        <ele>65.99</ele>
        <time>2022-04-26T12:00:34Z</time>
      </trkpt>
      <trkpt lat="44.89711" lon="-0.1567">
        <ele>65.99</ele>
        <time>2022-04-26T12:00:55Z</time>
      </trkpt>
      <trkpt lat="44.89711" lon="-0.1567">
        <ele>65.99</ele>
        <time>2022-04-26T12:01:21Z</time>
      </trkpt>
      <trkpt lat="44.89712" lon="-0.15669">
        <ele>65.99</ele>
        <time>2022-04-26T12:01:52Z</time>
      </trkpt>
      <trkpt lat="44.89711" lon="-0.15668">
        <ele>65.99</ele>
        <time>2022-04-26T12:02:08Z</time>
      </trkpt>
      <trkpt lat="44.89712" lon="-0.15668">
        <ele>65.99</ele>
        <time>2022-04-26T12:02:26Z</time>
      </trkpt>
      <trkpt lat="44.89713" lon="-0.15669">
        <ele>65.99</ele>
        <time>2022-04-26T12:02:52Z</time>
      </trkpt>
      <trkpt lat="44.89712" lon="-0.1567">
        <ele>65.51</ele>
        <time>2022-04-26T12:03:09Z</time>
      </trkpt>
      <trkpt lat="44.89712" lon="-0.1567">
        <ele>65.51</ele>
        <time>2022-04-26T12:03:27Z</time>
      </trkpt>
      <trkpt lat="44.89713" lon="-0.1567">
        <ele>65.99</ele>
        <time>2022-04-26T12:03:55Z</time>
      </trkpt>
      <trkpt lat="44.89712" lon="-0.1567">
        <ele>65.99</ele>
        <time>2022-04-26T12:04:12Z</time>
      </trkpt>
      <trkpt lat="44.89712" lon="-0.1567">
        <ele>65.99</ele>
        <time>2022-04-26T12:04:32Z</time>
      </trkpt>
      <trkpt lat="44.89712" lon="-0.15669">
        <ele>65.51</ele>
        <time>2022-04-26T12:04:54Z</time>
      </trkpt>
      <trkpt lat="44.89712" lon="-0.1567">
        <ele>65.51</ele>
        <time>2022-04-26T12:05:14Z</time>
      </trkpt>
      <trkpt lat="44.89711" lon="-0.1567">
        <ele>65.51</ele>
        <time>2022-04-26T12:05:34Z</time>
      </trkpt>
      <trkpt lat="44.89711" lon="-0.15669">
        <ele>65.51</ele>
        <time>2022-04-26T12:05:53Z</time>
      </trkpt>
      <trkpt lat="44.89711" lon="-0.15669">
        <ele>65.51</ele>
        <time>2022-04-26T12:06:21Z</time>
      </trkpt>
      <trkpt lat="44.89711" lon="-0.15669">
        <ele>65.51</ele>
        <time>2022-04-26T12:06:47Z</time>
      </trkpt>
      <trkpt lat="44.89711" lon="-0.15669">
        <ele>65.51</ele>
        <time>2022-04-26T12:06:54Z</time>
      </trkpt>
      <trkpt lat="44.89709" lon="-0.15659">
        <ele>65.99</ele>
        <time>2022-04-26T12:07:07Z</time>
      </trkpt>
      <trkpt lat="44.89705" lon="-0.15643">
        <ele>66.95</ele>
        <time>2022-04-26T12:07:20Z</time>
      </trkpt>
      <trkpt lat="44.89704" lon="-0.15641">
        <ele>66.47</ele>
        <time>2022-04-26T12:07:21Z</time>
      </trkpt>
      <trkpt lat="44.89701" lon="-0.15636">
        <ele>71.27</ele>
        <time>2022-04-26T12:07:25Z</time>
      </trkpt>
      <trkpt lat="44.89701" lon="-0.15634">
        <ele>66.95</ele>
        <time>2022-04-26T12:07:26Z</time>
      </trkpt>
      <trkpt lat="44.89696" lon="-0.15624">
        <ele>63.58</ele>
        <time>2022-04-26T12:07:34Z</time>
      </trkpt>
      <trkpt lat="44.89695" lon="-0.15623">
        <ele>65.03</ele>
        <time>2022-04-26T12:07:35Z</time>
      </trkpt>
      <trkpt lat="44.89694" lon="-0.15621">
        <ele>62.14</ele>
        <time>2022-04-26T12:07:37Z</time>
      </trkpt>
      <trkpt lat="44.89694" lon="-0.1562">
        <ele>71.27</ele>
        <time>2022-04-26T12:07:38Z</time>
      </trkpt>
      <trkpt lat="44.89694" lon="-0.15619">
        <ele>67.43</ele>
        <time>2022-04-26T12:07:39Z</time>
      </trkpt>
      <trkpt lat="44.89692" lon="-0.15598">
        <ele>67.43</ele>
        <time>2022-04-26T12:07:53Z</time>
      </trkpt>
      <trkpt lat="44.8969" lon="-0.15576">
        <ele>67.43</ele>
        <time>2022-04-26T12:08:07Z</time>
      </trkpt>
      <trkpt lat="44.89687" lon="-0.15556">
        <ele>67.43</ele>
        <time>2022-04-26T12:08:21Z</time>
      </trkpt>
      <trkpt lat="44.89682" lon="-0.15554">
        <ele>66.95</ele>
        <time>2022-04-26T12:08:28Z</time>
      </trkpt>
      <trkpt lat="44.89671" lon="-0.15552">
        <ele>68.39</ele>
        <time>2022-04-26T12:08:37Z</time>
      </trkpt>
      <trkpt lat="44.89665" lon="-0.15549">
        <ele>69.35</ele>
        <time>2022-04-26T12:08:43Z</time>
      </trkpt>
      <trkpt lat="44.89649" lon="-0.15546">
        <ele>69.35</ele>
        <time>2022-04-26T12:08:58Z</time>
      </trkpt>
      <trkpt lat="44.89634" lon="-0.15545">
        <ele>70.31</ele>
        <time>2022-04-26T12:09:12Z</time>
      </trkpt>
      <trkpt lat="44.89622" lon="-0.15542">
        <ele>71.27</ele>
        <time>2022-04-26T12:09:23Z</time>
      </trkpt>
      <trkpt lat="44.89616" lon="-0.15544">
        <ele>71.27</ele>
        <time>2022-04-26T12:09:29Z</time>
      </trkpt>
      <trkpt lat="44.89612" lon="-0.15534">
        <ele>71.27</ele>
        <time>2022-04-26T12:09:36Z</time>
      </trkpt>
      <trkpt lat="44.89605" lon="-0.15531">
        <ele>72.24</ele>
        <time>2022-04-26T12:09:44Z</time>
      </trkpt>
      <trkpt lat="44.89603" lon="-0.1553">
        <ele>73.2</ele>
        <time>2022-04-26T12:09:46Z</time>
      </trkpt>
      <trkpt lat="44.89585" lon="-0.1553">
        <ele>71.76</ele>
        <time>2022-04-26T12:10:01Z</time>
      </trkpt>
      <trkpt lat="44.89576" lon="-0.15528">
        <ele>72.72</ele>
        <time>2022-04-26T12:10:10Z</time>
      </trkpt>
      <trkpt lat="44.89562" lon="-0.15527">
        <ele>71.76</ele>
        <time>2022-04-26T12:10:21Z</time>
      </trkpt>
      <trkpt lat="44.89548" lon="-0.15539">
        <ele>72.24</ele>
        <time>2022-04-26T12:10:37Z</time>
      </trkpt>
      <trkpt lat="44.89542" lon="-0.15545">
        <ele>71.76</ele>
        <time>2022-04-26T12:10:44Z</time>
      </trkpt>
      <trkpt lat="44.89524" lon="-0.15541">
        <ele>72.72</ele>
        <time>2022-04-26T12:10:58Z</time>
      </trkpt>
      <trkpt lat="44.89506" lon="-0.15541">
        <ele>73.68</ele>
        <time>2022-04-26T12:11:16Z</time>
      </trkpt>
      <trkpt lat="44.89489" lon="-0.15537">
        <ele>75.12</ele>
        <time>2022-04-26T12:11:29Z</time>
      </trkpt>
      <trkpt lat="44.89483" lon="-0.15532">
        <ele>74.64</ele>
        <time>2022-04-26T12:11:46Z</time>
      </trkpt>
      <trkpt lat="44.89477" lon="-0.15527">
        <ele>75.6</ele>
        <time>2022-04-26T12:11:53Z</time>
      </trkpt>
      <trkpt lat="44.89455" lon="-0.15526">
        <ele>75.6</ele>
        <time>2022-04-26T12:12:10Z</time>
      </trkpt>
      <trkpt lat="44.89438" lon="-0.15524">
        <ele>75.6</ele>
        <time>2022-04-26T12:12:26Z</time>
      </trkpt>
      <trkpt lat="44.89418" lon="-0.15508">
        <ele>74.16</ele>
        <time>2022-04-26T12:12:45Z</time>
      </trkpt>
      <trkpt lat="44.89414" lon="-0.15501">
        <ele>74.16</ele>
        <time>2022-04-26T12:12:53Z</time>
      </trkpt>
      <trkpt lat="44.89388" lon="-0.15501">
        <ele>71.76</ele>
        <time>2022-04-26T12:13:14Z</time>
      </trkpt>
      <trkpt lat="44.89384" lon="-0.15498">
        <ele>70.79</ele>
        <time>2022-04-26T12:13:19Z</time>
      </trkpt>
      <trkpt lat="44.89377" lon="-0.15498">
        <ele>71.76</ele>
        <time>2022-04-26T12:13:23Z</time>
      </trkpt>
      <trkpt lat="44.89368" lon="-0.15501">
        <ele>78.97</ele>
        <time>2022-04-26T12:13:26Z</time>
      </trkpt>
      <trkpt lat="44.89367" lon="-0.15501">
        <ele>68.39</ele>
        <time>2022-04-26T12:13:27Z</time>
      </trkpt>
      <trkpt lat="44.89365" lon="-0.15501">
        <ele>77.04</ele>
        <time>2022-04-26T12:13:28Z</time>
      </trkpt>
      <trkpt lat="44.89364" lon="-0.15502">
        <ele>71.27</ele>
        <time>2022-04-26T12:13:29Z</time>
      </trkpt>
      <trkpt lat="44.89363" lon="-0.15503">
        <ele>70.31</ele>
        <time>2022-04-26T12:13:31Z</time>
      </trkpt>
      <trkpt lat="44.89358" lon="-0.15508">
        <ele>66.95</ele>
        <time>2022-04-26T12:13:36Z</time>
      </trkpt>
      <trkpt lat="44.89357" lon="-0.15508">
        <ele>72.72</ele>
        <time>2022-04-26T12:13:37Z</time>
      </trkpt>
      <trkpt lat="44.89355" lon="-0.1551">
        <ele>70.31</ele>
        <time>2022-04-26T12:13:39Z</time>
      </trkpt>
      <trkpt lat="44.89338" lon="-0.15523">
        <ele>68.39</ele>
        <time>2022-04-26T12:13:55Z</time>
      </trkpt>
      <trkpt lat="44.89337" lon="-0.15523">
        <ele>68.39</ele>
        <time>2022-04-26T12:13:56Z</time>
      </trkpt>
      <trkpt lat="44.89334" lon="-0.15524">
        <ele>67.91</ele>
        <time>2022-04-26T12:13:58Z</time>
      </trkpt>
      <trkpt lat="44.89319" lon="-0.15535">
        <ele>66.47</ele>
        <time>2022-04-26T12:14:15Z</time>
      </trkpt>
      <trkpt lat="44.89313" lon="-0.15537">
        <ele>66.47</ele>
        <time>2022-04-26T12:14:21Z</time>
      </trkpt>
      <trkpt lat="44.89305" lon="-0.15537">
        <ele>65.51</ele>
        <time>2022-04-26T12:14:28Z</time>
      </trkpt>
      <trkpt lat="44.89298" lon="-0.15541">
        <ele>65.03</ele>
        <time>2022-04-26T12:14:38Z</time>
      </trkpt>
      <trkpt lat="44.89295" lon="-0.15543">
        <ele>65.03</ele>
        <time>2022-04-26T12:14:41Z</time>
      </trkpt>
      <trkpt lat="44.89291" lon="-0.15544">
        <ele>64.55</ele>
        <time>2022-04-26T12:14:45Z</time>
      </trkpt>
      <trkpt lat="44.89284" lon="-0.15545">
        <ele>63.58</ele>
        <time>2022-04-26T12:14:51Z</time>
      </trkpt>
      <trkpt lat="44.89269" lon="-0.1554">
        <ele>63.1</ele>
        <time>2022-04-26T12:15:07Z</time>
      </trkpt>
      <trkpt lat="44.89266" lon="-0.15534">
        <ele>63.1</ele>
        <time>2022-04-26T12:15:19Z</time>
      </trkpt>
      <trkpt lat="44.8926" lon="-0.15529">
        <ele>62.14</ele>
        <time>2022-04-26T12:15:33Z</time>
      </trkpt>
      <trkpt lat="44.89258" lon="-0.15531">
        <ele>59.26</ele>
        <time>2022-04-26T12:15:46Z</time>
      </trkpt>
      <trkpt lat="44.89256" lon="-0.15537">
        <ele>56.86</ele>
        <time>2022-04-26T12:15:57Z</time>
      </trkpt>
      <trkpt lat="44.89254" lon="-0.1554">
        <ele>54.93</ele>
        <time>2022-04-26T12:16:02Z</time>
      </trkpt>
      <trkpt lat="44.89253" lon="-0.15551">
        <ele>53.97</ele>
        <time>2022-04-26T12:16:10Z</time>
      </trkpt>
      <trkpt lat="44.8925" lon="-0.15559">
        <ele>50.61</ele>
        <time>2022-04-26T12:16:15Z</time>
      </trkpt>
      <trkpt lat="44.89248" lon="-0.15562">
        <ele>55.89</ele>
        <time>2022-04-26T12:16:17Z</time>
      </trkpt>
      <trkpt lat="44.89247" lon="-0.15564">
        <ele>53.97</ele>
        <time>2022-04-26T12:16:18Z</time>
      </trkpt>
      <trkpt lat="44.89242" lon="-0.15571">
        <ele>53.01</ele>
        <time>2022-04-26T12:16:29Z</time>
      </trkpt>
      <trkpt lat="44.89231" lon="-0.15559">
        <ele>52.53</ele>
        <time>2022-04-26T12:16:39Z</time>
      </trkpt>
      <trkpt lat="44.89229" lon="-0.15558">
        <ele>52.53</ele>
        <time>2022-04-26T12:16:41Z</time>
      </trkpt>
      <trkpt lat="44.89217" lon="-0.15544">
        <ele>53.01</ele>
        <time>2022-04-26T12:16:56Z</time>
      </trkpt>
      <trkpt lat="44.89216" lon="-0.15543">
        <ele>53.01</ele>
        <time>2022-04-26T12:16:57Z</time>
      </trkpt>
      <trkpt lat="44.89203" lon="-0.15535">
        <ele>51.09</ele>
        <time>2022-04-26T12:17:10Z</time>
      </trkpt>
      <trkpt lat="44.89196" lon="-0.15528">
        <ele>51.57</ele>
        <time>2022-04-26T12:17:17Z</time>
      </trkpt>
      <trkpt lat="44.89189" lon="-0.15523">
        <ele>51.09</ele>
        <time>2022-04-26T12:17:23Z</time>
      </trkpt>
      <trkpt lat="44.89173" lon="-0.15517">
        <ele>50.61</ele>
        <time>2022-04-26T12:17:38Z</time>
      </trkpt>
      <trkpt lat="44.89155" lon="-0.15508">
        <ele>49.16</ele>
        <time>2022-04-26T12:17:54Z</time>
      </trkpt>
      <trkpt lat="44.89146" lon="-0.15504">
        <ele>49.16</ele>
        <time>2022-04-26T12:18:04Z</time>
      </trkpt>
      <trkpt lat="44.89142" lon="-0.15499">
        <ele>49.65</ele>
        <time>2022-04-26T12:18:08Z</time>
      </trkpt>
      <trkpt lat="44.89131" lon="-0.15487">
        <ele>49.16</ele>
        <time>2022-04-26T12:18:19Z</time>
      </trkpt>
      <trkpt lat="44.89124" lon="-0.15479">
        <ele>51.09</ele>
        <time>2022-04-26T12:18:28Z</time>
      </trkpt>
      <trkpt lat="44.89119" lon="-0.15479">
        <ele>50.13</ele>
        <time>2022-04-26T12:18:32Z</time>
      </trkpt>
      <trkpt lat="44.89108" lon="-0.15491">
        <ele>49.16</ele>
        <time>2022-04-26T12:18:45Z</time>
      </trkpt>
      <trkpt lat="44.89102" lon="-0.155">
        <ele>49.65</ele>
        <time>2022-04-26T12:18:50Z</time>
      </trkpt>
      <trkpt lat="44.89092" lon="-0.15502">
        <ele>48.68</ele>
        <time>2022-04-26T12:19:01Z</time>
      </trkpt>
      <trkpt lat="44.8908" lon="-0.15502">
        <ele>48.2</ele>
        <time>2022-04-26T12:19:10Z</time>
      </trkpt>
      <trkpt lat="44.89071" lon="-0.15495">
        <ele>47.72</ele>
        <time>2022-04-26T12:19:18Z</time>
      </trkpt>
      <trkpt lat="44.89058" lon="-0.15486">
        <ele>47.24</ele>
        <time>2022-04-26T12:19:32Z</time>
      </trkpt>
      <trkpt lat="44.89042" lon="-0.15477">
        <ele>46.28</ele>
        <time>2022-04-26T12:19:44Z</time>
      </trkpt>
      <trkpt lat="44.89041" lon="-0.15476">
        <ele>46.28</ele>
        <time>2022-04-26T12:19:46Z</time>
      </trkpt>
      <trkpt lat="44.89039" lon="-0.15474">
        <ele>45.32</ele>
        <time>2022-04-26T12:19:52Z</time>
      </trkpt>
      <trkpt lat="44.89039" lon="-0.15471">
        <ele>44.36</ele>
        <time>2022-04-26T12:19:55Z</time>
      </trkpt>
      <trkpt lat="44.89039" lon="-0.15468">
        <ele>44.36</ele>
        <time>2022-04-26T12:19:57Z</time>
      </trkpt>
      <trkpt lat="44.89037" lon="-0.15447">
        <ele>44.36</ele>
        <time>2022-04-26T12:20:09Z</time>
      </trkpt>
      <trkpt lat="44.89045" lon="-0.15427">
        <ele>44.36</ele>
        <time>2022-04-26T12:20:20Z</time>
      </trkpt>
      <trkpt lat="44.8906" lon="-0.15415">
        <ele>43.88</ele>
        <time>2022-04-26T12:20:39Z</time>
      </trkpt>
      <trkpt lat="44.89062" lon="-0.15413">
        <ele>45.32</ele>
        <time>2022-04-26T12:20:41Z</time>
      </trkpt>
      <trkpt lat="44.89081" lon="-0.15396">
        <ele>44.36</ele>
        <time>2022-04-26T12:20:58Z</time>
      </trkpt>
      <trkpt lat="44.8908" lon="-0.15395">
        <ele>45.8</ele>
        <time>2022-04-26T12:21:05Z</time>
      </trkpt>
      <trkpt lat="44.89082" lon="-0.15386">
        <ele>45.32</ele>
        <time>2022-04-26T12:21:20Z</time>
      </trkpt>
      <trkpt lat="44.89081" lon="-0.15384">
        <ele>45.8</ele>
        <time>2022-04-26T12:21:22Z</time>
      </trkpt>
      <trkpt lat="44.89077" lon="-0.15364">
        <ele>45.8</ele>
        <time>2022-04-26T12:21:36Z</time>
      </trkpt>
      <trkpt lat="44.89078" lon="-0.15361">
        <ele>45.8</ele>
        <time>2022-04-26T12:21:38Z</time>
      </trkpt>
      <trkpt lat="44.89077" lon="-0.15337">
        <ele>46.28</ele>
        <time>2022-04-26T12:21:53Z</time>
      </trkpt>
      <trkpt lat="44.89076" lon="-0.15327">
        <ele>45.8</ele>
        <time>2022-04-26T12:21:59Z</time>
      </trkpt>
      <trkpt lat="44.89078" lon="-0.15317">
        <ele>45.8</ele>
        <time>2022-04-26T12:22:04Z</time>
      </trkpt>
      <trkpt lat="44.89077" lon="-0.15312">
        <ele>45.8</ele>
        <time>2022-04-26T12:22:08Z</time>
      </trkpt>
      <trkpt lat="44.89077" lon="-0.15309">
        <ele>45.8</ele>
        <time>2022-04-26T12:22:10Z</time>
      </trkpt>
      <trkpt lat="44.89078" lon="-0.153">
        <ele>46.28</ele>
        <time>2022-04-26T12:22:16Z</time>
      </trkpt>
      <trkpt lat="44.8908" lon="-0.15289">
        <ele>47.24</ele>
        <time>2022-04-26T12:22:23Z</time>
      </trkpt>
      <trkpt lat="44.89081" lon="-0.15282">
        <ele>46.28</ele>
        <time>2022-04-26T12:22:27Z</time>
      </trkpt>
      <trkpt lat="44.89086" lon="-0.15262">
        <ele>46.28</ele>
        <time>2022-04-26T12:22:41Z</time>
      </trkpt>
      <trkpt lat="44.89087" lon="-0.15252">
        <ele>46.76</ele>
        <time>2022-04-26T12:22:52Z</time>
      </trkpt>
      <trkpt lat="44.89089" lon="-0.15246">
        <ele>46.76</ele>
        <time>2022-04-26T12:22:56Z</time>
      </trkpt>
      <trkpt lat="44.89091" lon="-0.15242">
        <ele>46.76</ele>
        <time>2022-04-26T12:22:59Z</time>
      </trkpt>
      <trkpt lat="44.89097" lon="-0.15231">
        <ele>46.76</ele>
        <time>2022-04-26T12:23:08Z</time>
      </trkpt>
      <trkpt lat="44.89099" lon="-0.15222">
        <ele>47.24</ele>
        <time>2022-04-26T12:23:15Z</time>
      </trkpt>
      <trkpt lat="44.89099" lon="-0.1522">
        <ele>47.24</ele>
        <time>2022-04-26T12:23:17Z</time>
      </trkpt>
      <trkpt lat="44.89101" lon="-0.15217">
        <ele>46.76</ele>
        <time>2022-04-26T12:23:19Z</time>
      </trkpt>
      <trkpt lat="44.89104" lon="-0.1521">
        <ele>47.72</ele>
        <time>2022-04-26T12:23:24Z</time>
      </trkpt>
      <trkpt lat="44.89106" lon="-0.15202">
        <ele>47.24</ele>
        <time>2022-04-26T12:23:29Z</time>
      </trkpt>
      <trkpt lat="44.89107" lon="-0.152">
        <ele>47.72</ele>
        <time>2022-04-26T12:23:31Z</time>
      </trkpt>
      <trkpt lat="44.8911" lon="-0.15196">
        <ele>47.72</ele>
        <time>2022-04-26T12:23:34Z</time>
      </trkpt>
      <trkpt lat="44.89117" lon="-0.15177">
        <ele>48.2</ele>
        <time>2022-04-26T12:23:47Z</time>
      </trkpt>
      <trkpt lat="44.89118" lon="-0.15174">
        <ele>48.68</ele>
        <time>2022-04-26T12:23:49Z</time>
      </trkpt>
      <trkpt lat="44.89121" lon="-0.15161">
        <ele>48.68</ele>
        <time>2022-04-26T12:24:00Z</time>
      </trkpt>
      <trkpt lat="44.89123" lon="-0.15155">
        <ele>49.16</ele>
        <time>2022-04-26T12:24:05Z</time>
      </trkpt>
      <trkpt lat="44.89126" lon="-0.15138">
        <ele>49.16</ele>
        <time>2022-04-26T12:24:17Z</time>
      </trkpt>
      <trkpt lat="44.89127" lon="-0.1513">
        <ele>49.16</ele>
        <time>2022-04-26T12:24:22Z</time>
      </trkpt>
      <trkpt lat="44.89129" lon="-0.1511">
        <ele>49.65</ele>
        <time>2022-04-26T12:24:34Z</time>
      </trkpt>
      <trkpt lat="44.89128" lon="-0.15101">
        <ele>50.13</ele>
        <time>2022-04-26T12:24:39Z</time>
      </trkpt>
      <trkpt lat="44.89129" lon="-0.1509">
        <ele>50.13</ele>
        <time>2022-04-26T12:24:45Z</time>
      </trkpt>
      <trkpt lat="44.89129" lon="-0.15082">
        <ele>50.13</ele>
        <time>2022-04-26T12:24:50Z</time>
      </trkpt>
      <trkpt lat="44.89132" lon="-0.15068">
        <ele>50.61</ele>
        <time>2022-04-26T12:24:59Z</time>
      </trkpt>
      <trkpt lat="44.89135" lon="-0.15054">
        <ele>50.61</ele>
        <time>2022-04-26T12:25:09Z</time>
      </trkpt>
      <trkpt lat="44.89143" lon="-0.15041">
        <ele>51.09</ele>
        <time>2022-04-26T12:25:19Z</time>
      </trkpt>
      <trkpt lat="44.89151" lon="-0.15023">
        <ele>51.09</ele>
        <time>2022-04-26T12:25:31Z</time>
      </trkpt>
      <trkpt lat="44.89157" lon="-0.15008">
        <ele>51.09</ele>
        <time>2022-04-26T12:25:41Z</time>
      </trkpt>
      <trkpt lat="44.89157" lon="-0.15001">
        <ele>51.57</ele>
        <time>2022-04-26T12:25:45Z</time>
      </trkpt>
      <trkpt lat="44.89156" lon="-0.14995">
        <ele>51.57</ele>
        <time>2022-04-26T12:25:49Z</time>
      </trkpt>
      <trkpt lat="44.89154" lon="-0.14993">
        <ele>52.05</ele>
        <time>2022-04-26T12:25:52Z</time>
      </trkpt>
      <trkpt lat="44.89147" lon="-0.14984">
        <ele>51.57</ele>
        <time>2022-04-26T12:26:01Z</time>
      </trkpt>
      <trkpt lat="44.89136" lon="-0.1496">
        <ele>52.53</ele>
        <time>2022-04-26T12:26:17Z</time>
      </trkpt>
      <trkpt lat="44.89134" lon="-0.14949">
        <ele>53.97</ele>
        <time>2022-04-26T12:26:23Z</time>
      </trkpt>
      <trkpt lat="44.8914" lon="-0.14935">
        <ele>53.49</ele>
        <time>2022-04-26T12:26:32Z</time>
      </trkpt>
      <trkpt lat="44.8914" lon="-0.14931">
        <ele>53.49</ele>
        <time>2022-04-26T12:26:35Z</time>
      </trkpt>
      <trkpt lat="44.89139" lon="-0.14915">
        <ele>53.97</ele>
        <time>2022-04-26T12:26:48Z</time>
      </trkpt>
      <trkpt lat="44.89137" lon="-0.14912">
        <ele>54.45</ele>
        <time>2022-04-26T12:26:52Z</time>
      </trkpt>
      <trkpt lat="44.89125" lon="-0.14904">
        <ele>56.37</ele>
        <time>2022-04-26T12:27:05Z</time>
      </trkpt>
      <trkpt lat="44.89108" lon="-0.14895">
        <ele>57.34</ele>
        <time>2022-04-26T12:27:18Z</time>
      </trkpt>
      <trkpt lat="44.89098" lon="-0.14891">
        <ele>57.82</ele>
        <time>2022-04-26T12:27:29Z</time>
      </trkpt>
      <trkpt lat="44.89092" lon="-0.14888">
        <ele>58.78</ele>
        <time>2022-04-26T12:27:36Z</time>
      </trkpt>
      <trkpt lat="44.89088" lon="-0.14887">
        <ele>58.78</ele>
        <time>2022-04-26T12:27:39Z</time>
      </trkpt>
      <trkpt lat="44.8908" lon="-0.14891">
        <ele>59.26</ele>
        <time>2022-04-26T12:27:47Z</time>
      </trkpt>
      <trkpt lat="44.8907" lon="-0.14912">
        <ele>59.74</ele>
        <time>2022-04-26T12:28:02Z</time>
      </trkpt>
      <trkpt lat="44.89065" lon="-0.14929">
        <ele>60.7</ele>
        <time>2022-04-26T12:28:15Z</time>
      </trkpt>
      <trkpt lat="44.89062" lon="-0.14928">
        <ele>61.66</ele>
        <time>2022-04-26T12:28:24Z</time>
      </trkpt>
      <trkpt lat="44.89063" lon="-0.14922">
        <ele>62.14</ele>
        <time>2022-04-26T12:28:29Z</time>
      </trkpt>
      <trkpt lat="44.89064" lon="-0.14914">
        <ele>62.62</ele>
        <time>2022-04-26T12:28:35Z</time>
      </trkpt>
      <trkpt lat="44.89067" lon="-0.14908">
        <ele>63.1</ele>
        <time>2022-04-26T12:28:40Z</time>
      </trkpt>
      <trkpt lat="44.89071" lon="-0.14889">
        <ele>64.07</ele>
        <time>2022-04-26T12:28:52Z</time>
      </trkpt>
      <trkpt lat="44.89062" lon="-0.14898">
        <ele>65.51</ele>
        <time>2022-04-26T12:29:04Z</time>
      </trkpt>
      <trkpt lat="44.89061" lon="-0.14901">
        <ele>65.51</ele>
        <time>2022-04-26T12:29:06Z</time>
      </trkpt>
      <trkpt lat="44.8906" lon="-0.14909">
        <ele>65.99</ele>
        <time>2022-04-26T12:29:12Z</time>
      </trkpt>
      <trkpt lat="44.8906" lon="-0.14912">
        <ele>65.99</ele>
        <time>2022-04-26T12:29:14Z</time>
      </trkpt>
      <trkpt lat="44.89059" lon="-0.14918">
        <ele>66.95</ele>
        <time>2022-04-26T12:29:17Z</time>
      </trkpt>
      <trkpt lat="44.89052" lon="-0.14938">
        <ele>67.43</ele>
        <time>2022-04-26T12:29:29Z</time>
      </trkpt>
      <trkpt lat="44.89051" lon="-0.14958">
        <ele>66.95</ele>
        <time>2022-04-26T12:29:43Z</time>
      </trkpt>
      <trkpt lat="44.89048" lon="-0.14967">
        <ele>66.47</ele>
        <time>2022-04-26T12:29:56Z</time>
      </trkpt>
      <trkpt lat="44.89045" lon="-0.14974">
        <ele>66.95</ele>
        <time>2022-04-26T12:30:04Z</time>
      </trkpt>
      <trkpt lat="44.89045" lon="-0.14976">
        <ele>66.95</ele>
        <time>2022-04-26T12:30:08Z</time>
      </trkpt>
      <trkpt lat="44.8904" lon="-0.14983">
        <ele>66.95</ele>
        <time>2022-04-26T12:30:13Z</time>
      </trkpt>
      <trkpt lat="44.89037" lon="-0.14992">
        <ele>66.95</ele>
        <time>2022-04-26T12:30:19Z</time>
      </trkpt>
      <trkpt lat="44.89029" lon="-0.15006">
        <ele>66.95</ele>
        <time>2022-04-26T12:30:31Z</time>
      </trkpt>
      <trkpt lat="44.89023" lon="-0.15022">
        <ele>66.47</ele>
        <time>2022-04-26T12:30:42Z</time>
      </trkpt>
      <trkpt lat="44.89021" lon="-0.15039">
        <ele>67.43</ele>
        <time>2022-04-26T12:30:55Z</time>
      </trkpt>
      <trkpt lat="44.8902" lon="-0.1504">
        <ele>66.95</ele>
        <time>2022-04-26T12:31:01Z</time>
      </trkpt>
      <trkpt lat="44.89016" lon="-0.15049">
        <ele>66.95</ele>
        <time>2022-04-26T12:31:08Z</time>
      </trkpt>
      <trkpt lat="44.89014" lon="-0.15054">
        <ele>67.43</ele>
        <time>2022-04-26T12:31:12Z</time>
      </trkpt>
      <trkpt lat="44.89013" lon="-0.15058">
        <ele>67.43</ele>
        <time>2022-04-26T12:31:14Z</time>
      </trkpt>
      <trkpt lat="44.8901" lon="-0.15065">
        <ele>67.43</ele>
        <time>2022-04-26T12:31:20Z</time>
      </trkpt>
      <trkpt lat="44.89007" lon="-0.15071">
        <ele>67.91</ele>
        <time>2022-04-26T12:31:24Z</time>
      </trkpt>
      <trkpt lat="44.88999" lon="-0.15088">
        <ele>67.91</ele>
        <time>2022-04-26T12:31:37Z</time>
      </trkpt>
      <trkpt lat="44.8899" lon="-0.15105">
        <ele>68.87</ele>
        <time>2022-04-26T12:31:50Z</time>
      </trkpt>
      <trkpt lat="44.88985" lon="-0.15123">
        <ele>69.83</ele>
        <time>2022-04-26T12:32:03Z</time>
      </trkpt>
      <trkpt lat="44.88985" lon="-0.15124">
        <ele>69.83</ele>
        <time>2022-04-26T12:32:04Z</time>
      </trkpt>
      <trkpt lat="44.88983" lon="-0.15131">
        <ele>70.31</ele>
        <time>2022-04-26T12:32:09Z</time>
      </trkpt>
      <trkpt lat="44.88982" lon="-0.15136">
        <ele>70.31</ele>
        <time>2022-04-26T12:32:12Z</time>
      </trkpt>
      <trkpt lat="44.88974" lon="-0.15152">
        <ele>70.79</ele>
        <time>2022-04-26T12:32:23Z</time>
      </trkpt>
      <trkpt lat="44.88965" lon="-0.15165">
        <ele>70.79</ele>
        <time>2022-04-26T12:32:34Z</time>
      </trkpt>
      <trkpt lat="44.88955" lon="-0.15175">
        <ele>71.27</ele>
        <time>2022-04-26T12:32:46Z</time>
      </trkpt>
      <trkpt lat="44.88944" lon="-0.1518">
        <ele>70.31</ele>
        <time>2022-04-26T12:32:57Z</time>
      </trkpt>
      <trkpt lat="44.8893" lon="-0.15181">
        <ele>69.83</ele>
        <time>2022-04-26T12:33:10Z</time>
      </trkpt>
      <trkpt lat="44.88927" lon="-0.15182">
        <ele>69.83</ele>
        <time>2022-04-26T12:33:13Z</time>
      </trkpt>
      <trkpt lat="44.8891" lon="-0.15181">
        <ele>69.83</ele>
        <time>2022-04-26T12:33:28Z</time>
      </trkpt>
      <trkpt lat="44.88896" lon="-0.15174">
        <ele>69.35</ele>
        <time>2022-04-26T12:33:40Z</time>
      </trkpt>
      <trkpt lat="44.88881" lon="-0.15179">
        <ele>69.35</ele>
        <time>2022-04-26T12:33:54Z</time>
      </trkpt>
      <trkpt lat="44.88878" lon="-0.15179">
        <ele>69.35</ele>
        <time>2022-04-26T12:33:57Z</time>
      </trkpt>
      <trkpt lat="44.88867" lon="-0.15184">
        <ele>69.35</ele>
        <time>2022-04-26T12:34:07Z</time>
      </trkpt>
      <trkpt lat="44.8886" lon="-0.15188">
        <ele>69.83</ele>
        <time>2022-04-26T12:34:14Z</time>
      </trkpt>
      <trkpt lat="44.88843" lon="-0.15189">
        <ele>69.35</ele>
        <time>2022-04-26T12:34:29Z</time>
      </trkpt>
      <trkpt lat="44.88825" lon="-0.15192">
        <ele>69.35</ele>
        <time>2022-04-26T12:34:44Z</time>
      </trkpt>
      <trkpt lat="44.88822" lon="-0.15192">
        <ele>69.35</ele>
        <time>2022-04-26T12:34:47Z</time>
      </trkpt>
      <trkpt lat="44.88815" lon="-0.15195">
        <ele>68.87</ele>
        <time>2022-04-26T12:34:53Z</time>
      </trkpt>
      <trkpt lat="44.88803" lon="-0.15204">
        <ele>67.43</ele>
        <time>2022-04-26T12:35:05Z</time>
      </trkpt>
      <trkpt lat="44.88788" lon="-0.15201">
        <ele>66.95</ele>
        <time>2022-04-26T12:35:20Z</time>
      </trkpt>
      <trkpt lat="44.8878" lon="-0.15193">
        <ele>66.95</ele>
        <time>2022-04-26T12:35:27Z</time>
      </trkpt>
      <trkpt lat="44.88772" lon="-0.15175">
        <ele>67.43</ele>
        <time>2022-04-26T12:35:42Z</time>
      </trkpt>
      <trkpt lat="44.88767" lon="-0.15166">
        <ele>66.95</ele>
        <time>2022-04-26T12:35:49Z</time>
      </trkpt>
      <trkpt lat="44.8876" lon="-0.1516">
        <ele>66.95</ele>
        <time>2022-04-26T12:35:55Z</time>
      </trkpt>
      <trkpt lat="44.88756" lon="-0.15159">
        <ele>68.39</ele>
        <time>2022-04-26T12:36:02Z</time>
      </trkpt>
      <trkpt lat="44.88758" lon="-0.15158">
        <ele>66.95</ele>
        <time>2022-04-26T12:36:12Z</time>
      </trkpt>
      <trkpt lat="44.88763" lon="-0.15162">
        <ele>66.95</ele>
        <time>2022-04-26T12:36:26Z</time>
      </trkpt>
      <trkpt lat="44.88763" lon="-0.15161">
        <ele>66.95</ele>
        <time>2022-04-26T12:36:37Z</time>
      </trkpt>
      <trkpt lat="44.88765" lon="-0.15159">
        <ele>67.43</ele>
        <time>2022-04-26T12:36:46Z</time>
      </trkpt>
      <trkpt lat="44.88759" lon="-0.15159">
        <ele>66.95</ele>
        <time>2022-04-26T12:36:51Z</time>
      </trkpt>
      <trkpt lat="44.88742" lon="-0.15157">
        <ele>66.47</ele>
        <time>2022-04-26T12:37:05Z</time>
      </trkpt>
      <trkpt lat="44.88734" lon="-0.15158">
        <ele>67.43</ele>
        <time>2022-04-26T12:37:18Z</time>
      </trkpt>
      <trkpt lat="44.88731" lon="-0.15135">
        <ele>68.87</ele>
        <time>2022-04-26T12:37:31Z</time>
      </trkpt>
      <trkpt lat="44.88729" lon="-0.15113">
        <ele>71.27</ele>
        <time>2022-04-26T12:37:45Z</time>
      </trkpt>
      <trkpt lat="44.88728" lon="-0.15113">
        <ele>71.27</ele>
        <time>2022-04-26T12:37:59Z</time>
      </trkpt>
      <trkpt lat="44.88728" lon="-0.15113">
        <ele>71.27</ele>
        <time>2022-04-26T12:38:13Z</time>
      </trkpt>
      <trkpt lat="44.88727" lon="-0.15113">
        <ele>70.79</ele>
        <time>2022-04-26T12:38:19Z</time>
      </trkpt>
      <trkpt lat="44.88724" lon="-0.15112">
        <ele>71.27</ele>
        <time>2022-04-26T12:38:31Z</time>
      </trkpt>
      <trkpt lat="44.88725" lon="-0.15112">
        <ele>71.27</ele>
        <time>2022-04-26T12:38:32Z</time>
      </trkpt>
      <trkpt lat="44.88724" lon="-0.15111">
        <ele>70.79</ele>
        <time>2022-04-26T12:38:36Z</time>
      </trkpt>
      <trkpt lat="44.88702" lon="-0.1511">
        <ele>70.31</ele>
        <time>2022-04-26T12:38:53Z</time>
      </trkpt>
      <trkpt lat="44.88678" lon="-0.15101">
        <ele>69.35</ele>
        <time>2022-04-26T12:39:08Z</time>
      </trkpt>
      <trkpt lat="44.88673" lon="-0.15098">
        <ele>69.83</ele>
        <time>2022-04-26T12:39:12Z</time>
      </trkpt>
      <trkpt lat="44.88666" lon="-0.15091">
        <ele>66.95</ele>
        <time>2022-04-26T12:39:20Z</time>
      </trkpt>
      <trkpt lat="44.88666" lon="-0.15091">
        <ele>68.39</ele>
        <time>2022-04-26T12:39:40Z</time>
      </trkpt>
      <trkpt lat="44.88665" lon="-0.15091">
        <ele>67.91</ele>
        <time>2022-04-26T12:39:55Z</time>
      </trkpt>
      <trkpt lat="44.88666" lon="-0.1509">
        <ele>68.39</ele>
        <time>2022-04-26T12:40:06Z</time>
      </trkpt>
      <trkpt lat="44.88667" lon="-0.1509">
        <ele>67.91</ele>
        <time>2022-04-26T12:40:29Z</time>
      </trkpt>
      <trkpt lat="44.88666" lon="-0.1509">
        <ele>68.39</ele>
        <time>2022-04-26T12:40:34Z</time>
      </trkpt>
      <trkpt lat="44.88668" lon="-0.15092">
        <ele>68.87</ele>
        <time>2022-04-26T12:40:37Z</time>
      </trkpt>
      <trkpt lat="44.88683" lon="-0.15102">
        <ele>69.83</ele>
        <time>2022-04-26T12:40:50Z</time>
      </trkpt>
      <trkpt lat="44.88694" lon="-0.15108">
        <ele>71.27</ele>
        <time>2022-04-26T12:40:59Z</time>
      </trkpt>
      <trkpt lat="44.88707" lon="-0.15109">
        <ele>69.35</ele>
        <time>2022-04-26T12:41:08Z</time>
      </trkpt>
      <trkpt lat="44.8872" lon="-0.1511">
        <ele>68.39</ele>
        <time>2022-04-26T12:41:16Z</time>
      </trkpt>
      <trkpt lat="44.88722" lon="-0.1511">
        <ele>73.2</ele>
        <time>2022-04-26T12:41:17Z</time>
      </trkpt>
      <trkpt lat="44.88724" lon="-0.1511">
        <ele>71.76</ele>
        <time>2022-04-26T12:41:18Z</time>
      </trkpt>
      <trkpt lat="44.8873" lon="-0.15111">
        <ele>71.27</ele>
        <time>2022-04-26T12:41:22Z</time>
      </trkpt>
      <trkpt lat="44.88739" lon="-0.15114">
        <ele>71.76</ele>
        <time>2022-04-26T12:41:30Z</time>
      </trkpt>
      <trkpt lat="44.88753" lon="-0.15111">
        <ele>72.24</ele>
        <time>2022-04-26T12:41:41Z</time>
      </trkpt>
      <trkpt lat="44.88757" lon="-0.15114">
        <ele>72.24</ele>
        <time>2022-04-26T12:41:51Z</time>
      </trkpt>
      <trkpt lat="44.88766" lon="-0.15117">
        <ele>72.72</ele>
        <time>2022-04-26T12:42:01Z</time>
      </trkpt>
      <trkpt lat="44.8877" lon="-0.15119">
        <ele>71.76</ele>
        <time>2022-04-26T12:42:07Z</time>
      </trkpt>
      <trkpt lat="44.88774" lon="-0.1512">
        <ele>73.68</ele>
        <time>2022-04-26T12:42:11Z</time>
      </trkpt>
      <trkpt lat="44.88788" lon="-0.15124">
        <ele>73.2</ele>
        <time>2022-04-26T12:42:22Z</time>
      </trkpt>
      <trkpt lat="44.88789" lon="-0.15125">
        <ele>73.2</ele>
        <time>2022-04-26T12:42:23Z</time>
      </trkpt>
      <trkpt lat="44.88805" lon="-0.15129">
        <ele>74.16</ele>
        <time>2022-04-26T12:42:36Z</time>
      </trkpt>
      <trkpt lat="44.88809" lon="-0.15131">
        <ele>74.64</ele>
        <time>2022-04-26T12:42:40Z</time>
      </trkpt>
      <trkpt lat="44.88811" lon="-0.15132">
        <ele>74.16</ele>
        <time>2022-04-26T12:42:42Z</time>
      </trkpt>
      <trkpt lat="44.88815" lon="-0.15134">
        <ele>74.16</ele>
        <time>2022-04-26T12:42:46Z</time>
      </trkpt>
      <trkpt lat="44.88801" lon="-0.15127">
        <ele>73.68</ele>
        <time>2022-04-26T12:42:58Z</time>
      </trkpt>
      <trkpt lat="44.88795" lon="-0.15126">
        <ele>74.64</ele>
        <time>2022-04-26T12:43:02Z</time>
      </trkpt>
      <trkpt lat="44.88773" lon="-0.15119">
        <ele>73.2</ele>
        <time>2022-04-26T12:43:18Z</time>
      </trkpt>
      <trkpt lat="44.88771" lon="-0.15118">
        <ele>72.24</ele>
        <time>2022-04-26T12:43:20Z</time>
      </trkpt>
      <trkpt lat="44.88758" lon="-0.15114">
        <ele>72.72</ele>
        <time>2022-04-26T12:43:33Z</time>
      </trkpt>
      <trkpt lat="44.88756" lon="-0.15098">
        <ele>72.24</ele>
        <time>2022-04-26T12:43:44Z</time>
      </trkpt>
      <trkpt lat="44.88756" lon="-0.15097">
        <ele>72.24</ele>
        <time>2022-04-26T12:43:45Z</time>
      </trkpt>
      <trkpt lat="44.8876" lon="-0.15073">
        <ele>74.16</ele>
        <time>2022-04-26T12:44:02Z</time>
      </trkpt>
      <trkpt lat="44.88759" lon="-0.15065">
        <ele>75.6</ele>
        <time>2022-04-26T12:44:07Z</time>
      </trkpt>
      <trkpt lat="44.88758" lon="-0.15058">
        <ele>77.04</ele>
        <time>2022-04-26T12:44:12Z</time>
      </trkpt>
      <trkpt lat="44.88756" lon="-0.15044">
        <ele>79.93</ele>
        <time>2022-04-26T12:44:24Z</time>
      </trkpt>
      <trkpt lat="44.88756" lon="-0.15039">
        <ele>78.48</ele>
        <time>2022-04-26T12:44:27Z</time>
      </trkpt>
      <trkpt lat="44.88755" lon="-0.15028">
        <ele>81.37</ele>
        <time>2022-04-26T12:44:35Z</time>
      </trkpt>
      <trkpt lat="44.88755" lon="-0.15027">
        <ele>79.93</ele>
        <time>2022-04-26T12:44:36Z</time>
      </trkpt>
      <trkpt lat="44.88757" lon="-0.15024">
        <ele>80.41</ele>
        <time>2022-04-26T12:44:38Z</time>
      </trkpt>
      <trkpt lat="44.88748" lon="-0.15021">
        <ele>80.89</ele>
        <time>2022-04-26T12:44:48Z</time>
      </trkpt>
      <trkpt lat="44.88745" lon="-0.15022">
        <ele>79.93</ele>
        <time>2022-04-26T12:44:51Z</time>
      </trkpt>
      <trkpt lat="44.88728" lon="-0.15036">
        <ele>77.52</ele>
        <time>2022-04-26T12:45:10Z</time>
      </trkpt>
      <trkpt lat="44.88724" lon="-0.15034">
        <ele>78</ele>
        <time>2022-04-26T12:45:14Z</time>
      </trkpt>
      <trkpt lat="44.88707" lon="-0.15024">
        <ele>77.52</ele>
        <time>2022-04-26T12:45:29Z</time>
      </trkpt>
      <trkpt lat="44.88697" lon="-0.15008">
        <ele>77.52</ele>
        <time>2022-04-26T12:45:42Z</time>
      </trkpt>
      <trkpt lat="44.88691" lon="-0.15001">
        <ele>76.56</ele>
        <time>2022-04-26T12:46:00Z</time>
      </trkpt>
      <trkpt lat="44.88681" lon="-0.14984">
        <ele>76.56</ele>
        <time>2022-04-26T12:46:15Z</time>
      </trkpt>
      <trkpt lat="44.88679" lon="-0.14975">
        <ele>78</ele>
        <time>2022-04-26T12:46:21Z</time>
      </trkpt>
      <trkpt lat="44.8868" lon="-0.14971">
        <ele>78</ele>
        <time>2022-04-26T12:46:26Z</time>
      </trkpt>
      <trkpt lat="44.88681" lon="-0.14962">
        <ele>78.48</ele>
        <time>2022-04-26T12:46:32Z</time>
      </trkpt>
      <trkpt lat="44.88675" lon="-0.14947">
        <ele>79.45</ele>
        <time>2022-04-26T12:46:47Z</time>
      </trkpt>
      <trkpt lat="44.8867" lon="-0.14932">
        <ele>80.89</ele>
        <time>2022-04-26T12:47:00Z</time>
      </trkpt>
      <trkpt lat="44.88669" lon="-0.14929">
        <ele>80.89</ele>
        <time>2022-04-26T12:47:03Z</time>
      </trkpt>
      <trkpt lat="44.88664" lon="-0.14917">
        <ele>81.37</ele>
        <time>2022-04-26T12:47:12Z</time>
      </trkpt>
      <trkpt lat="44.88657" lon="-0.14899">
        <ele>82.81</ele>
        <time>2022-04-26T12:47:26Z</time>
      </trkpt>
      <trkpt lat="44.88653" lon="-0.1489">
        <ele>86.66</ele>
        <time>2022-04-26T12:47:34Z</time>
      </trkpt>
      <trkpt lat="44.88653" lon="-0.14888">
        <ele>84.25</ele>
        <time>2022-04-26T12:47:35Z</time>
      </trkpt>
      <trkpt lat="44.88649" lon="-0.14877">
        <ele>85.21</ele>
        <time>2022-04-26T12:47:44Z</time>
      </trkpt>
      <trkpt lat="44.88648" lon="-0.14873">
        <ele>85.69</ele>
        <time>2022-04-26T12:47:47Z</time>
      </trkpt>
      <trkpt lat="44.88643" lon="-0.14863">
        <ele>86.66</ele>
        <time>2022-04-26T12:47:57Z</time>
      </trkpt>
      <trkpt lat="44.88642" lon="-0.14857">
        <ele>87.14</ele>
        <time>2022-04-26T12:48:05Z</time>
      </trkpt>
      <trkpt lat="44.88641" lon="-0.14848">
        <ele>87.14</ele>
        <time>2022-04-26T12:48:12Z</time>
      </trkpt>
      <trkpt lat="44.88638" lon="-0.14823">
        <ele>87.62</ele>
        <time>2022-04-26T12:48:28Z</time>
      </trkpt>
      <trkpt lat="44.88639" lon="-0.14822">
        <ele>88.1</ele>
        <time>2022-04-26T12:48:29Z</time>
      </trkpt>
      <trkpt lat="44.88648" lon="-0.1481">
        <ele>89.06</ele>
        <time>2022-04-26T12:48:41Z</time>
      </trkpt>
      <trkpt lat="44.88658" lon="-0.14795">
        <ele>90.02</ele>
        <time>2022-04-26T12:48:55Z</time>
      </trkpt>
      <trkpt lat="44.88661" lon="-0.14781">
        <ele>90.5</ele>
        <time>2022-04-26T12:49:06Z</time>
      </trkpt>
      <trkpt lat="44.8866" lon="-0.14779">
        <ele>90.5</ele>
        <time>2022-04-26T12:49:14Z</time>
      </trkpt>
      <trkpt lat="44.88663" lon="-0.14783">
        <ele>90.5</ele>
        <time>2022-04-26T12:49:27Z</time>
      </trkpt>
      <trkpt lat="44.88664" lon="-0.14782">
        <ele>90.5</ele>
        <time>2022-04-26T12:49:31Z</time>
      </trkpt>
      <trkpt lat="44.88681" lon="-0.14776">
        <ele>91.94</ele>
        <time>2022-04-26T12:49:46Z</time>
      </trkpt>
      <trkpt lat="44.88694" lon="-0.14772">
        <ele>92.42</ele>
        <time>2022-04-26T12:49:57Z</time>
      </trkpt>
      <trkpt lat="44.88699" lon="-0.1477">
        <ele>96.27</ele>
        <time>2022-04-26T12:50:01Z</time>
      </trkpt>
      <trkpt lat="44.88701" lon="-0.14769">
        <ele>90.02</ele>
        <time>2022-04-26T12:50:03Z</time>
      </trkpt>
      <trkpt lat="44.88703" lon="-0.14767">
        <ele>93.39</ele>
        <time>2022-04-26T12:50:05Z</time>
      </trkpt>
      <trkpt lat="44.88704" lon="-0.14759">
        <ele>92.9</ele>
        <time>2022-04-26T12:50:16Z</time>
      </trkpt>
      <trkpt lat="44.88706" lon="-0.14763">
        <ele>94.35</ele>
        <time>2022-04-26T12:50:26Z</time>
      </trkpt>
      <trkpt lat="44.88706" lon="-0.14763">
        <ele>93.39</ele>
        <time>2022-04-26T12:50:33Z</time>
      </trkpt>
      <trkpt lat="44.88703" lon="-0.1475">
        <ele>93.39</ele>
        <time>2022-04-26T12:50:44Z</time>
      </trkpt>
      <trkpt lat="44.887" lon="-0.14732">
        <ele>92.9</ele>
        <time>2022-04-26T12:50:59Z</time>
      </trkpt>
      <trkpt lat="44.88699" lon="-0.14719">
        <ele>92.9</ele>
        <time>2022-04-26T12:51:07Z</time>
      </trkpt>
      <trkpt lat="44.88697" lon="-0.14702">
        <ele>92.9</ele>
        <time>2022-04-26T12:51:19Z</time>
      </trkpt>
      <trkpt lat="44.88697" lon="-0.147">
        <ele>92.9</ele>
        <time>2022-04-26T12:51:21Z</time>
      </trkpt>
      <trkpt lat="44.88694" lon="-0.14683">
        <ele>92.42</ele>
        <time>2022-04-26T12:51:30Z</time>
      </trkpt>
      <trkpt lat="44.88692" lon="-0.14674">
        <ele>91.94</ele>
        <time>2022-04-26T12:51:38Z</time>
      </trkpt>
      <trkpt lat="44.8869" lon="-0.14658">
        <ele>91.46</ele>
        <time>2022-04-26T12:51:49Z</time>
      </trkpt>
      <trkpt lat="44.88686" lon="-0.14641">
        <ele>91.46</ele>
        <time>2022-04-26T12:52:00Z</time>
      </trkpt>
      <trkpt lat="44.88681" lon="-0.14625">
        <ele>90.5</ele>
        <time>2022-04-26T12:52:11Z</time>
      </trkpt>
      <trkpt lat="44.88666" lon="-0.14623">
        <ele>89.06</ele>
        <time>2022-04-26T12:52:24Z</time>
      </trkpt>
      <trkpt lat="44.88653" lon="-0.14622">
        <ele>88.1</ele>
        <time>2022-04-26T12:52:35Z</time>
      </trkpt>
      <trkpt lat="44.88652" lon="-0.14621">
        <ele>88.1</ele>
        <time>2022-04-26T12:52:36Z</time>
      </trkpt>
      <trkpt lat="44.8865" lon="-0.1461">
        <ele>88.1</ele>
        <time>2022-04-26T12:52:43Z</time>
      </trkpt>
      <trkpt lat="44.88649" lon="-0.14591">
        <ele>88.1</ele>
        <time>2022-04-26T12:52:55Z</time>
      </trkpt>
      <trkpt lat="44.8865" lon="-0.14583">
        <ele>88.1</ele>
        <time>2022-04-26T12:52:58Z</time>
      </trkpt>
      <trkpt lat="44.88651" lon="-0.14566">
        <ele>87.62</ele>
        <time>2022-04-26T12:53:10Z</time>
      </trkpt>
      <trkpt lat="44.8865" lon="-0.14561">
        <ele>87.62</ele>
        <time>2022-04-26T12:53:13Z</time>
      </trkpt>
      <trkpt lat="44.88645" lon="-0.14551">
        <ele>87.14</ele>
        <time>2022-04-26T12:53:28Z</time>
      </trkpt>
      <trkpt lat="44.88645" lon="-0.14548">
        <ele>87.62</ele>
        <time>2022-04-26T12:53:44Z</time>
      </trkpt>
      <trkpt lat="44.88643" lon="-0.14542">
        <ele>88.1</ele>
        <time>2022-04-26T12:53:50Z</time>
      </trkpt>
      <trkpt lat="44.88638" lon="-0.14525">
        <ele>86.66</ele>
        <time>2022-04-26T12:54:02Z</time>
      </trkpt>
      <trkpt lat="44.88636" lon="-0.14497">
        <ele>86.18</ele>
        <time>2022-04-26T12:54:17Z</time>
      </trkpt>
      <trkpt lat="44.88636" lon="-0.14473">
        <ele>87.14</ele>
        <time>2022-04-26T12:54:31Z</time>
      </trkpt>
      <trkpt lat="44.88637" lon="-0.14448">
        <ele>86.66</ele>
        <time>2022-04-26T12:54:45Z</time>
      </trkpt>
      <trkpt lat="44.88627" lon="-0.14428">
        <ele>85.21</ele>
        <time>2022-04-26T12:54:59Z</time>
      </trkpt>
      <trkpt lat="44.88618" lon="-0.14407">
        <ele>83.77</ele>
        <time>2022-04-26T12:55:18Z</time>
      </trkpt>
      <trkpt lat="44.88615" lon="-0.14384">
        <ele>84.25</ele>
        <time>2022-04-26T12:55:31Z</time>
      </trkpt>
      <trkpt lat="44.88612" lon="-0.14363">
        <ele>85.21</ele>
        <time>2022-04-26T12:55:45Z</time>
      </trkpt>
      <trkpt lat="44.88614" lon="-0.14344">
        <ele>86.18</ele>
        <time>2022-04-26T12:55:58Z</time>
      </trkpt>
      <trkpt lat="44.88621" lon="-0.14325">
        <ele>85.69</ele>
        <time>2022-04-26T12:56:12Z</time>
      </trkpt>
      <trkpt lat="44.88622" lon="-0.14317">
        <ele>86.66</ele>
        <time>2022-04-26T12:56:17Z</time>
      </trkpt>
      <trkpt lat="44.88623" lon="-0.14304">
        <ele>88.1</ele>
        <time>2022-04-26T12:56:25Z</time>
      </trkpt>
      <trkpt lat="44.88621" lon="-0.14293">
        <ele>90.98</ele>
        <time>2022-04-26T12:56:32Z</time>
      </trkpt>
      <trkpt lat="44.88621" lon="-0.14291">
        <ele>86.66</ele>
        <time>2022-04-26T12:56:33Z</time>
      </trkpt>
      <trkpt lat="44.88615" lon="-0.14282">
        <ele>86.66</ele>
        <time>2022-04-26T12:56:44Z</time>
      </trkpt>
      <trkpt lat="44.88608" lon="-0.14281">
        <ele>82.81</ele>
        <time>2022-04-26T12:56:51Z</time>
      </trkpt>
      <trkpt lat="44.88607" lon="-0.14281">
        <ele>89.06</ele>
        <time>2022-04-26T12:56:52Z</time>
      </trkpt>
      <trkpt lat="44.88601" lon="-0.14282">
        <ele>86.18</ele>
        <time>2022-04-26T12:57:07Z</time>
      </trkpt>
      <trkpt lat="44.88599" lon="-0.14283">
        <ele>86.18</ele>
        <time>2022-04-26T12:57:17Z</time>
      </trkpt>
      <trkpt lat="44.88589" lon="-0.14284">
        <ele>86.18</ele>
        <time>2022-04-26T12:57:33Z</time>
      </trkpt>
      <trkpt lat="44.88577" lon="-0.14283">
        <ele>85.69</ele>
        <time>2022-04-26T12:57:46Z</time>
      </trkpt>
      <trkpt lat="44.88562" lon="-0.14281">
        <ele>85.69</ele>
        <time>2022-04-26T12:57:58Z</time>
      </trkpt>
      <trkpt lat="44.88558" lon="-0.1428">
        <ele>85.69</ele>
        <time>2022-04-26T12:58:02Z</time>
      </trkpt>
      <trkpt lat="44.88553" lon="-0.1428">
        <ele>85.69</ele>
        <time>2022-04-26T12:58:06Z</time>
      </trkpt>
      <trkpt lat="44.88539" lon="-0.1428">
        <ele>85.69</ele>
        <time>2022-04-26T12:58:20Z</time>
      </trkpt>
      <trkpt lat="44.88535" lon="-0.14279">
        <ele>85.69</ele>
        <time>2022-04-26T12:58:27Z</time>
      </trkpt>
      <trkpt lat="44.88535" lon="-0.14279">
        <ele>86.18</ele>
        <time>2022-04-26T12:58:34Z</time>
      </trkpt>
      <trkpt lat="44.88527" lon="-0.1428">
        <ele>86.18</ele>
        <time>2022-04-26T12:58:41Z</time>
      </trkpt>
      <trkpt lat="44.88509" lon="-0.14282">
        <ele>85.69</ele>
        <time>2022-04-26T12:58:57Z</time>
      </trkpt>
      <trkpt lat="44.88505" lon="-0.14282">
        <ele>85.69</ele>
        <time>2022-04-26T12:59:01Z</time>
      </trkpt>
      <trkpt lat="44.88496" lon="-0.14284">
        <ele>86.66</ele>
        <time>2022-04-26T12:59:09Z</time>
      </trkpt>
      <trkpt lat="44.8848" lon="-0.14289">
        <ele>86.66</ele>
        <time>2022-04-26T12:59:24Z</time>
      </trkpt>
      <trkpt lat="44.88476" lon="-0.14288">
        <ele>84.73</ele>
        <time>2022-04-26T12:59:30Z</time>
      </trkpt>
      <trkpt lat="44.88478" lon="-0.14287">
        <ele>87.14</ele>
        <time>2022-04-26T12:59:36Z</time>
      </trkpt>
      <trkpt lat="44.88466" lon="-0.1429">
        <ele>87.14</ele>
        <time>2022-04-26T12:59:49Z</time>
      </trkpt>
      <trkpt lat="44.8846" lon="-0.1429">
        <ele>87.14</ele>
        <time>2022-04-26T12:59:54Z</time>
      </trkpt>
      <trkpt lat="44.88458" lon="-0.14291">
        <ele>87.14</ele>
        <time>2022-04-26T12:59:57Z</time>
      </trkpt>
      <trkpt lat="44.88453" lon="-0.1429">
        <ele>87.14</ele>
        <time>2022-04-26T13:00:01Z</time>
      </trkpt>
      <trkpt lat="44.88433" lon="-0.14293">
        <ele>87.14</ele>
        <time>2022-04-26T13:00:18Z</time>
      </trkpt>
      <trkpt lat="44.8842" lon="-0.14288">
        <ele>86.18</ele>
        <time>2022-04-26T13:00:32Z</time>
      </trkpt>
      <trkpt lat="44.8842" lon="-0.14279">
        <ele>86.66</ele>
        <time>2022-04-26T13:00:39Z</time>
      </trkpt>
      <trkpt lat="44.88419" lon="-0.14274">
        <ele>86.18</ele>
        <time>2022-04-26T13:00:43Z</time>
      </trkpt>
      <trkpt lat="44.88417" lon="-0.14265">
        <ele>86.18</ele>
        <time>2022-04-26T13:00:56Z</time>
      </trkpt>
      <trkpt lat="44.88416" lon="-0.14256">
        <ele>86.18</ele>
        <time>2022-04-26T13:01:09Z</time>
      </trkpt>
      <trkpt lat="44.88416" lon="-0.14253">
        <ele>86.18</ele>
        <time>2022-04-26T13:01:23Z</time>
      </trkpt>
      <trkpt lat="44.88416" lon="-0.14246">
        <ele>86.18</ele>
        <time>2022-04-26T13:01:27Z</time>
      </trkpt>
      <trkpt lat="44.88414" lon="-0.14225">
        <ele>88.1</ele>
        <time>2022-04-26T13:01:40Z</time>
      </trkpt>
      <trkpt lat="44.88411" lon="-0.14213">
        <ele>86.66</ele>
        <time>2022-04-26T13:01:49Z</time>
      </trkpt>
      <trkpt lat="44.88411" lon="-0.14208">
        <ele>88.1</ele>
        <time>2022-04-26T13:01:52Z</time>
      </trkpt>
      <trkpt lat="44.88406" lon="-0.14189">
        <ele>87.14</ele>
        <time>2022-04-26T13:02:04Z</time>
      </trkpt>
      <trkpt lat="44.88403" lon="-0.14162">
        <ele>88.58</ele>
        <time>2022-04-26T13:02:20Z</time>
      </trkpt>
      <trkpt lat="44.88402" lon="-0.14151">
        <ele>88.58</ele>
        <time>2022-04-26T13:02:27Z</time>
      </trkpt>
      <trkpt lat="44.88399" lon="-0.1414">
        <ele>87.62</ele>
        <time>2022-04-26T13:02:35Z</time>
      </trkpt>
      <trkpt lat="44.88398" lon="-0.14134">
        <ele>87.62</ele>
        <time>2022-04-26T13:02:39Z</time>
      </trkpt>
      <trkpt lat="44.88393" lon="-0.14112">
        <ele>87.62</ele>
        <time>2022-04-26T13:02:54Z</time>
      </trkpt>
      <trkpt lat="44.8839" lon="-0.14097">
        <ele>87.14</ele>
        <time>2022-04-26T13:03:06Z</time>
      </trkpt>
      <trkpt lat="44.8838" lon="-0.14088">
        <ele>86.66</ele>
        <time>2022-04-26T13:03:17Z</time>
      </trkpt>
      <trkpt lat="44.88378" lon="-0.14089">
        <ele>86.66</ele>
        <time>2022-04-26T13:03:31Z</time>
      </trkpt>
      <trkpt lat="44.88378" lon="-0.14089">
        <ele>87.14</ele>
        <time>2022-04-26T13:03:33Z</time>
      </trkpt>
      <trkpt lat="44.88372" lon="-0.1409">
        <ele>87.14</ele>
        <time>2022-04-26T13:03:49Z</time>
      </trkpt>
      <trkpt lat="44.88371" lon="-0.14091">
        <ele>86.66</ele>
        <time>2022-04-26T13:03:50Z</time>
      </trkpt>
      <trkpt lat="44.88352" lon="-0.14099">
        <ele>87.62</ele>
        <time>2022-04-26T13:04:07Z</time>
      </trkpt>
      <trkpt lat="44.8835" lon="-0.14099">
        <ele>87.62</ele>
        <time>2022-04-26T13:04:15Z</time>
      </trkpt>
      <trkpt lat="44.88346" lon="-0.14101">
        <ele>86.66</ele>
        <time>2022-04-26T13:04:19Z</time>
      </trkpt>
      <trkpt lat="44.88333" lon="-0.14106">
        <ele>86.18</ele>
        <time>2022-04-26T13:04:31Z</time>
      </trkpt>
      <trkpt lat="44.88327" lon="-0.14107">
        <ele>86.18</ele>
        <time>2022-04-26T13:04:35Z</time>
      </trkpt>
      <trkpt lat="44.8831" lon="-0.14112">
        <ele>86.18</ele>
        <time>2022-04-26T13:04:48Z</time>
      </trkpt>
      <trkpt lat="44.88302" lon="-0.14116">
        <ele>86.18</ele>
        <time>2022-04-26T13:04:57Z</time>
      </trkpt>
      <trkpt lat="44.88296" lon="-0.14116">
        <ele>84.73</ele>
        <time>2022-04-26T13:05:08Z</time>
      </trkpt>
      <trkpt lat="44.88295" lon="-0.14115">
        <ele>84.25</ele>
        <time>2022-04-26T13:05:12Z</time>
      </trkpt>
      <trkpt lat="44.88295" lon="-0.14115">
        <ele>70.31</ele>
        <time>2022-04-26T13:05:13Z</time>
      </trkpt>
      <trkpt lat="44.88296" lon="-0.14115">
        <ele>90.02</ele>
        <time>2022-04-26T13:05:14Z</time>
      </trkpt>
      <trkpt lat="44.88296" lon="-0.14115">
        <ele>89.06</ele>
        <time>2022-04-26T13:05:15Z</time>
      </trkpt>
      <trkpt lat="44.88296" lon="-0.14115">
        <ele>85.21</ele>
        <time>2022-04-26T13:05:17Z</time>
      </trkpt>
      <trkpt lat="44.88295" lon="-0.14115">
        <ele>86.66</ele>
        <time>2022-04-26T13:05:28Z</time>
      </trkpt>
      <trkpt lat="44.88295" lon="-0.14115">
        <ele>94.83</ele>
        <time>2022-04-26T13:05:29Z</time>
      </trkpt>
      <trkpt lat="44.88295" lon="-0.14116">
        <ele>86.18</ele>
        <time>2022-04-26T13:05:30Z</time>
      </trkpt>
      <trkpt lat="44.88295" lon="-0.14116">
        <ele>85.21</ele>
        <time>2022-04-26T13:05:31Z</time>
      </trkpt>
      <trkpt lat="44.88287" lon="-0.14116">
        <ele>86.18</ele>
        <time>2022-04-26T13:05:43Z</time>
      </trkpt>
      <trkpt lat="44.88286" lon="-0.14116">
        <ele>84.73</ele>
        <time>2022-04-26T13:05:44Z</time>
      </trkpt>
      <trkpt lat="44.88284" lon="-0.14119">
        <ele>86.18</ele>
        <time>2022-04-26T13:05:48Z</time>
      </trkpt>
      <trkpt lat="44.88275" lon="-0.14122">
        <ele>85.69</ele>
        <time>2022-04-26T13:05:56Z</time>
      </trkpt>
      <trkpt lat="44.8826" lon="-0.14126">
        <ele>85.69</ele>
        <time>2022-04-26T13:06:08Z</time>
      </trkpt>
      <trkpt lat="44.88246" lon="-0.14119">
        <ele>84.25</ele>
        <time>2022-04-26T13:06:22Z</time>
      </trkpt>
      <trkpt lat="44.88245" lon="-0.14118">
        <ele>84.25</ele>
        <time>2022-04-26T13:06:23Z</time>
      </trkpt>
      <trkpt lat="44.88236" lon="-0.14113">
        <ele>83.77</ele>
        <time>2022-04-26T13:06:32Z</time>
      </trkpt>
      <trkpt lat="44.88233" lon="-0.1411">
        <ele>83.77</ele>
        <time>2022-04-26T13:06:36Z</time>
      </trkpt>
      <trkpt lat="44.88225" lon="-0.14106">
        <ele>81.85</ele>
        <time>2022-04-26T13:06:44Z</time>
      </trkpt>
      <trkpt lat="44.88211" lon="-0.14099">
        <ele>80.41</ele>
        <time>2022-04-26T13:06:58Z</time>
      </trkpt>
      <trkpt lat="44.88205" lon="-0.14096">
        <ele>79.45</ele>
        <time>2022-04-26T13:07:05Z</time>
      </trkpt>
      <trkpt lat="44.88202" lon="-0.14094">
        <ele>78.97</ele>
        <time>2022-04-26T13:07:07Z</time>
      </trkpt>
      <trkpt lat="44.88192" lon="-0.1409">
        <ele>77.04</ele>
        <time>2022-04-26T13:07:17Z</time>
      </trkpt>
      <trkpt lat="44.88189" lon="-0.14089">
        <ele>78</ele>
        <time>2022-04-26T13:07:20Z</time>
      </trkpt>
      <trkpt lat="44.88182" lon="-0.14088">
        <ele>77.04</ele>
        <time>2022-04-26T13:07:27Z</time>
      </trkpt>
      <trkpt lat="44.88174" lon="-0.14082">
        <ele>75.6</ele>
        <time>2022-04-26T13:07:41Z</time>
      </trkpt>
      <trkpt lat="44.88172" lon="-0.14081">
        <ele>75.6</ele>
        <time>2022-04-26T13:08:02Z</time>
      </trkpt>
      <trkpt lat="44.88171" lon="-0.14082">
        <ele>75.12</ele>
        <time>2022-04-26T13:08:21Z</time>
      </trkpt>
      <trkpt lat="44.88172" lon="-0.14082">
        <ele>75.6</ele>
        <time>2022-04-26T13:08:49Z</time>
      </trkpt>
      <trkpt lat="44.88172" lon="-0.14082">
        <ele>75.6</ele>
        <time>2022-04-26T13:09:16Z</time>
      </trkpt>
      <trkpt lat="44.88173" lon="-0.14082">
        <ele>76.08</ele>
        <time>2022-04-26T13:09:43Z</time>
      </trkpt>
      <trkpt lat="44.88172" lon="-0.14079">
        <ele>76.08</ele>
        <time>2022-04-26T13:09:52Z</time>
      </trkpt>
      <trkpt lat="44.88168" lon="-0.14062">
        <ele>73.2</ele>
        <time>2022-04-26T13:10:05Z</time>
      </trkpt>
      <trkpt lat="44.8817" lon="-0.14054">
        <ele>72.72</ele>
        <time>2022-04-26T13:10:11Z</time>
      </trkpt>
      <trkpt lat="44.88177" lon="-0.14027">
        <ele>71.76</ele>
        <time>2022-04-26T13:10:30Z</time>
      </trkpt>
      <trkpt lat="44.88187" lon="-0.14006">
        <ele>69.83</ele>
        <time>2022-04-26T13:10:46Z</time>
      </trkpt>
      <trkpt lat="44.88189" lon="-0.14001">
        <ele>70.31</ele>
        <time>2022-04-26T13:10:50Z</time>
      </trkpt>
      <trkpt lat="44.88192" lon="-0.13998">
        <ele>70.31</ele>
        <time>2022-04-26T13:11:03Z</time>
      </trkpt>
      <trkpt lat="44.88198" lon="-0.13989">
        <ele>69.83</ele>
        <time>2022-04-26T13:11:18Z</time>
      </trkpt>
      <trkpt lat="44.88215" lon="-0.13974">
        <ele>69.35</ele>
        <time>2022-04-26T13:11:36Z</time>
      </trkpt>
      <trkpt lat="44.88221" lon="-0.13967">
        <ele>69.35</ele>
        <time>2022-04-26T13:11:50Z</time>
      </trkpt>
      <trkpt lat="44.88225" lon="-0.13962">
        <ele>70.79</ele>
        <time>2022-04-26T13:12:02Z</time>
      </trkpt>
      <trkpt lat="44.88233" lon="-0.13954">
        <ele>71.27</ele>
        <time>2022-04-26T13:12:08Z</time>
      </trkpt>
      <trkpt lat="44.88241" lon="-0.13945">
        <ele>70.79</ele>
        <time>2022-04-26T13:12:17Z</time>
      </trkpt>
      <trkpt lat="44.88247" lon="-0.13936">
        <ele>70.31</ele>
        <time>2022-04-26T13:12:25Z</time>
      </trkpt>
      <trkpt lat="44.88264" lon="-0.13918">
        <ele>69.35</ele>
        <time>2022-04-26T13:12:43Z</time>
      </trkpt>
      <trkpt lat="44.88267" lon="-0.13901">
        <ele>65.51</ele>
        <time>2022-04-26T13:12:54Z</time>
      </trkpt>
      <trkpt lat="44.88267" lon="-0.13895">
        <ele>65.99</ele>
        <time>2022-04-26T13:12:59Z</time>
      </trkpt>
      <trkpt lat="44.88266" lon="-0.13891">
        <ele>67.43</ele>
        <time>2022-04-26T13:13:01Z</time>
      </trkpt>
      <trkpt lat="44.88262" lon="-0.13877">
        <ele>64.55</ele>
        <time>2022-04-26T13:13:09Z</time>
      </trkpt>
      <trkpt lat="44.88261" lon="-0.13873">
        <ele>64.07</ele>
        <time>2022-04-26T13:13:12Z</time>
      </trkpt>
      <trkpt lat="44.88256" lon="-0.13851">
        <ele>61.66</ele>
        <time>2022-04-26T13:13:27Z</time>
      </trkpt>
      <trkpt lat="44.88251" lon="-0.13832">
        <ele>58.78</ele>
        <time>2022-04-26T13:13:41Z</time>
      </trkpt>
      <trkpt lat="44.88248" lon="-0.13816">
        <ele>56.37</ele>
        <time>2022-04-26T13:13:54Z</time>
      </trkpt>
      <trkpt lat="44.88246" lon="-0.13815">
        <ele>55.89</ele>
        <time>2022-04-26T13:13:56Z</time>
      </trkpt>
      <trkpt lat="44.88239" lon="-0.13819">
        <ele>54.45</ele>
        <time>2022-04-26T13:14:10Z</time>
      </trkpt>
      <trkpt lat="44.88238" lon="-0.1382">
        <ele>53.97</ele>
        <time>2022-04-26T13:14:11Z</time>
      </trkpt>
      <trkpt lat="44.88229" lon="-0.13834">
        <ele>52.53</ele>
        <time>2022-04-26T13:14:23Z</time>
      </trkpt>
      <trkpt lat="44.88231" lon="-0.13826">
        <ele>52.53</ele>
        <time>2022-04-26T13:14:35Z</time>
      </trkpt>
      <trkpt lat="44.88232" lon="-0.13823">
        <ele>52.53</ele>
        <time>2022-04-26T13:14:44Z</time>
      </trkpt>
      <trkpt lat="44.8824" lon="-0.13801">
        <ele>53.49</ele>
        <time>2022-04-26T13:15:00Z</time>
      </trkpt>
      <trkpt lat="44.88244" lon="-0.13787">
        <ele>53.97</ele>
        <time>2022-04-26T13:15:14Z</time>
      </trkpt>
      <trkpt lat="44.88246" lon="-0.1378">
        <ele>54.45</ele>
        <time>2022-04-26T13:15:19Z</time>
      </trkpt>
      <trkpt lat="44.88253" lon="-0.13757">
        <ele>51.57</ele>
        <time>2022-04-26T13:15:32Z</time>
      </trkpt>
      <trkpt lat="44.88253" lon="-0.13756">
        <ele>55.41</ele>
        <time>2022-04-26T13:15:33Z</time>
      </trkpt>
      <trkpt lat="44.88255" lon="-0.13748">
        <ele>55.41</ele>
        <time>2022-04-26T13:15:40Z</time>
      </trkpt>
      <trkpt lat="44.88263" lon="-0.13724">
        <ele>56.86</ele>
        <time>2022-04-26T13:15:55Z</time>
      </trkpt>
      <trkpt lat="44.88266" lon="-0.13715">
        <ele>58.3</ele>
        <time>2022-04-26T13:16:09Z</time>
      </trkpt>
      <trkpt lat="44.88265" lon="-0.13715">
        <ele>58.3</ele>
        <time>2022-04-26T13:16:26Z</time>
      </trkpt>
      <trkpt lat="44.88264" lon="-0.13716">
        <ele>58.78</ele>
        <time>2022-04-26T13:16:48Z</time>
      </trkpt>
      <trkpt lat="44.88269" lon="-0.13696">
        <ele>61.18</ele>
        <time>2022-04-26T13:17:00Z</time>
      </trkpt>
      <trkpt lat="44.88272" lon="-0.13685">
        <ele>63.1</ele>
        <time>2022-04-26T13:17:15Z</time>
      </trkpt>
      <trkpt lat="44.88267" lon="-0.13668">
        <ele>63.58</ele>
        <time>2022-04-26T13:17:29Z</time>
      </trkpt>
      <trkpt lat="44.88264" lon="-0.13657">
        <ele>62.62</ele>
        <time>2022-04-26T13:17:42Z</time>
      </trkpt>
      <trkpt lat="44.88263" lon="-0.13656">
        <ele>62.62</ele>
        <time>2022-04-26T13:17:43Z</time>
      </trkpt>
      <trkpt lat="44.8826" lon="-0.13646">
        <ele>64.07</ele>
        <time>2022-04-26T13:17:50Z</time>
      </trkpt>
      <trkpt lat="44.88248" lon="-0.13635">
        <ele>62.14</ele>
        <time>2022-04-26T13:18:09Z</time>
      </trkpt>
      <trkpt lat="44.88248" lon="-0.13635">
        <ele>65.51</ele>
        <time>2022-04-26T13:18:10Z</time>
      </trkpt>
      <trkpt lat="44.88249" lon="-0.13635">
        <ele>63.58</ele>
        <time>2022-04-26T13:18:11Z</time>
      </trkpt>
      <trkpt lat="44.88245" lon="-0.1363">
        <ele>63.1</ele>
        <time>2022-04-26T13:18:29Z</time>
      </trkpt>
      <trkpt lat="44.88244" lon="-0.1363">
        <ele>64.55</ele>
        <time>2022-04-26T13:18:31Z</time>
      </trkpt>
      <trkpt lat="44.88244" lon="-0.1363">
        <ele>60.22</ele>
        <time>2022-04-26T13:18:32Z</time>
      </trkpt>
      <trkpt lat="44.88243" lon="-0.13629">
        <ele>64.55</ele>
        <time>2022-04-26T13:18:33Z</time>
      </trkpt>
      <trkpt lat="44.8824" lon="-0.13627">
        <ele>62.62</ele>
        <time>2022-04-26T13:18:42Z</time>
      </trkpt>
      <trkpt lat="44.88236" lon="-0.13627">
        <ele>62.14</ele>
        <time>2022-04-26T13:18:49Z</time>
      </trkpt>
      <trkpt lat="44.88236" lon="-0.13626">
        <ele>65.03</ele>
        <time>2022-04-26T13:18:50Z</time>
      </trkpt>
      <trkpt lat="44.88236" lon="-0.13626">
        <ele>64.55</ele>
        <time>2022-04-26T13:18:51Z</time>
      </trkpt>
      <trkpt lat="44.88236" lon="-0.13625">
        <ele>63.1</ele>
        <time>2022-04-26T13:18:53Z</time>
      </trkpt>
      <trkpt lat="44.88233" lon="-0.13619">
        <ele>66.47</ele>
        <time>2022-04-26T13:19:00Z</time>
      </trkpt>
      <trkpt lat="44.88233" lon="-0.13616">
        <ele>67.43</ele>
        <time>2022-04-26T13:19:03Z</time>
      </trkpt>
      <trkpt lat="44.88233" lon="-0.13613">
        <ele>64.07</ele>
        <time>2022-04-26T13:19:05Z</time>
      </trkpt>
      <trkpt lat="44.88233" lon="-0.13613">
        <ele>69.83</ele>
        <time>2022-04-26T13:19:06Z</time>
      </trkpt>
      <trkpt lat="44.88232" lon="-0.13611">
        <ele>67.43</ele>
        <time>2022-04-26T13:19:07Z</time>
      </trkpt>
      <trkpt lat="44.88232" lon="-0.13611">
        <ele>65.03</ele>
        <time>2022-04-26T13:19:08Z</time>
      </trkpt>
      <trkpt lat="44.88231" lon="-0.13611">
        <ele>70.31</ele>
        <time>2022-04-26T13:19:09Z</time>
      </trkpt>
      <trkpt lat="44.88231" lon="-0.1361">
        <ele>67.91</ele>
        <time>2022-04-26T13:19:10Z</time>
      </trkpt>
      <trkpt lat="44.88225" lon="-0.13603">
        <ele>71.27</ele>
        <time>2022-04-26T13:19:19Z</time>
      </trkpt>
      <trkpt lat="44.88223" lon="-0.13602">
        <ele>69.35</ele>
        <time>2022-04-26T13:19:22Z</time>
      </trkpt>
      <trkpt lat="44.88215" lon="-0.13605">
        <ele>65.03</ele>
        <time>2022-04-26T13:19:27Z</time>
      </trkpt>
      <trkpt lat="44.88214" lon="-0.13605">
        <ele>74.64</ele>
        <time>2022-04-26T13:19:28Z</time>
      </trkpt>
      <trkpt lat="44.88213" lon="-0.13606">
        <ele>69.35</ele>
        <time>2022-04-26T13:19:29Z</time>
      </trkpt>
      <trkpt lat="44.88211" lon="-0.13618">
        <ele>68.87</ele>
        <time>2022-04-26T13:19:37Z</time>
      </trkpt>
      <trkpt lat="44.8821" lon="-0.13625">
        <ele>68.87</ele>
        <time>2022-04-26T13:19:54Z</time>
      </trkpt>
      <trkpt lat="44.88205" lon="-0.1362">
        <ele>68.87</ele>
        <time>2022-04-26T13:20:04Z</time>
      </trkpt>
      <trkpt lat="44.88196" lon="-0.13614">
        <ele>68.87</ele>
        <time>2022-04-26T13:20:19Z</time>
      </trkpt>
      <trkpt lat="44.88195" lon="-0.13613">
        <ele>68.87</ele>
        <time>2022-04-26T13:20:44Z</time>
      </trkpt>
      <trkpt lat="44.88198" lon="-0.13613">
        <ele>68.39</ele>
        <time>2022-04-26T13:21:01Z</time>
      </trkpt>
      <trkpt lat="44.88197" lon="-0.13613">
        <ele>68.39</ele>
        <time>2022-04-26T13:21:25Z</time>
      </trkpt>
      <trkpt lat="44.88196" lon="-0.13613">
        <ele>67.91</ele>
        <time>2022-04-26T13:21:49Z</time>
      </trkpt>
      <trkpt lat="44.88195" lon="-0.13614">
        <ele>68.39</ele>
        <time>2022-04-26T13:22:14Z</time>
      </trkpt>
      <trkpt lat="44.88195" lon="-0.13616">
        <ele>67.91</ele>
        <time>2022-04-26T13:22:38Z</time>
      </trkpt>
      <trkpt lat="44.88196" lon="-0.13614">
        <ele>68.39</ele>
        <time>2022-04-26T13:23:00Z</time>
      </trkpt>
      <trkpt lat="44.88193" lon="-0.13613">
        <ele>67.91</ele>
        <time>2022-04-26T13:23:29Z</time>
      </trkpt>
      <trkpt lat="44.88193" lon="-0.13613">
        <ele>68.39</ele>
        <time>2022-04-26T13:23:56Z</time>
      </trkpt>
      <trkpt lat="44.88196" lon="-0.13613">
        <ele>68.39</ele>
        <time>2022-04-26T13:24:13Z</time>
      </trkpt>
      <trkpt lat="44.88197" lon="-0.13606">
        <ele>70.31</ele>
        <time>2022-04-26T13:24:34Z</time>
      </trkpt>
      <trkpt lat="44.88194" lon="-0.136">
        <ele>66.47</ele>
        <time>2022-04-26T13:24:40Z</time>
      </trkpt>
      <trkpt lat="44.88194" lon="-0.13598">
        <ele>71.76</ele>
        <time>2022-04-26T13:24:41Z</time>
      </trkpt>
      <trkpt lat="44.88192" lon="-0.13585">
        <ele>69.35</ele>
        <time>2022-04-26T13:24:50Z</time>
      </trkpt>
      <trkpt lat="44.88187" lon="-0.13564">
        <ele>68.39</ele>
        <time>2022-04-26T13:25:04Z</time>
      </trkpt>
      <trkpt lat="44.88184" lon="-0.1355">
        <ele>67.91</ele>
        <time>2022-04-26T13:25:16Z</time>
      </trkpt>
      <trkpt lat="44.8818" lon="-0.1355">
        <ele>67.91</ele>
        <time>2022-04-26T13:25:34Z</time>
      </trkpt>
      <trkpt lat="44.8818" lon="-0.13548">
        <ele>67.43</ele>
        <time>2022-04-26T13:25:36Z</time>
      </trkpt>
      <trkpt lat="44.88175" lon="-0.13535">
        <ele>67.43</ele>
        <time>2022-04-26T13:25:49Z</time>
      </trkpt>
      <trkpt lat="44.88177" lon="-0.13522">
        <ele>67.43</ele>
        <time>2022-04-26T13:25:57Z</time>
      </trkpt>
      <trkpt lat="44.8818" lon="-0.13513">
        <ele>67.43</ele>
        <time>2022-04-26T13:26:03Z</time>
      </trkpt>
      <trkpt lat="44.88189" lon="-0.13504">
        <ele>68.39</ele>
        <time>2022-04-26T13:26:15Z</time>
      </trkpt>
      <trkpt lat="44.8819" lon="-0.13504">
        <ele>69.35</ele>
        <time>2022-04-26T13:26:24Z</time>
      </trkpt>
      <trkpt lat="44.88194" lon="-0.13501">
        <ele>68.87</ele>
        <time>2022-04-26T13:26:28Z</time>
      </trkpt>
      <trkpt lat="44.88187" lon="-0.13504">
        <ele>66.95</ele>
        <time>2022-04-26T13:26:40Z</time>
      </trkpt>
      <trkpt lat="44.88185" lon="-0.13513">
        <ele>67.43</ele>
        <time>2022-04-26T13:26:45Z</time>
      </trkpt>
      <trkpt lat="44.88184" lon="-0.13525">
        <ele>67.43</ele>
        <time>2022-04-26T13:26:51Z</time>
      </trkpt>
      <trkpt lat="44.88184" lon="-0.13531">
        <ele>67.43</ele>
        <time>2022-04-26T13:26:55Z</time>
      </trkpt>
      <trkpt lat="44.88185" lon="-0.13538">
        <ele>67.43</ele>
        <time>2022-04-26T13:27:00Z</time>
      </trkpt>
      <trkpt lat="44.88182" lon="-0.13546">
        <ele>66.95</ele>
        <time>2022-04-26T13:27:06Z</time>
      </trkpt>
      <trkpt lat="44.8818" lon="-0.13554">
        <ele>65.51</ele>
        <time>2022-04-26T13:27:16Z</time>
      </trkpt>
      <trkpt lat="44.88178" lon="-0.13536">
        <ele>65.51</ele>
        <time>2022-04-26T13:27:37Z</time>
      </trkpt>
      <trkpt lat="44.88179" lon="-0.13528">
        <ele>61.18</ele>
        <time>2022-04-26T13:27:42Z</time>
      </trkpt>
      <trkpt lat="44.88179" lon="-0.13528">
        <ele>68.87</ele>
        <time>2022-04-26T13:27:43Z</time>
      </trkpt>
      <trkpt lat="44.88179" lon="-0.13527">
        <ele>66.95</ele>
        <time>2022-04-26T13:27:44Z</time>
      </trkpt>
      <trkpt lat="44.88183" lon="-0.13517">
        <ele>64.07</ele>
        <time>2022-04-26T13:27:49Z</time>
      </trkpt>
      <trkpt lat="44.88182" lon="-0.13509">
        <ele>65.03</ele>
        <time>2022-04-26T13:28:02Z</time>
      </trkpt>
      <trkpt lat="44.88177" lon="-0.13513">
        <ele>65.51</ele>
        <time>2022-04-26T13:28:21Z</time>
      </trkpt>
      <trkpt lat="44.88173" lon="-0.13528">
        <ele>65.51</ele>
        <time>2022-04-26T13:28:40Z</time>
      </trkpt>
      <trkpt lat="44.88173" lon="-0.13526">
        <ele>65.51</ele>
        <time>2022-04-26T13:28:57Z</time>
      </trkpt>
      <trkpt lat="44.88178" lon="-0.13519">
        <ele>64.55</ele>
        <time>2022-04-26T13:29:02Z</time>
      </trkpt>
      <trkpt lat="44.88184" lon="-0.13508">
        <ele>64.55</ele>
        <time>2022-04-26T13:29:10Z</time>
      </trkpt>
      <trkpt lat="44.88185" lon="-0.13504">
        <ele>68.39</ele>
        <time>2022-04-26T13:29:12Z</time>
      </trkpt>
      <trkpt lat="44.88184" lon="-0.13502">
        <ele>64.55</ele>
        <time>2022-04-26T13:29:15Z</time>
      </trkpt>
      <trkpt lat="44.88183" lon="-0.13498">
        <ele>64.55</ele>
        <time>2022-04-26T13:29:30Z</time>
      </trkpt>
      <trkpt lat="44.88183" lon="-0.13499">
        <ele>59.74</ele>
        <time>2022-04-26T13:29:36Z</time>
      </trkpt>
      <trkpt lat="44.88183" lon="-0.13499">
        <ele>65.99</ele>
        <time>2022-04-26T13:29:37Z</time>
      </trkpt>
      <trkpt lat="44.88184" lon="-0.135">
        <ele>63.58</ele>
        <time>2022-04-26T13:29:40Z</time>
      </trkpt>
      <trkpt lat="44.88179" lon="-0.13499">
        <ele>62.62</ele>
        <time>2022-04-26T13:29:51Z</time>
      </trkpt>
      <trkpt lat="44.88176" lon="-0.13502">
        <ele>62.62</ele>
        <time>2022-04-26T13:29:55Z</time>
      </trkpt>
      <trkpt lat="44.88167" lon="-0.13515">
        <ele>61.66</ele>
        <time>2022-04-26T13:30:10Z</time>
      </trkpt>
      <trkpt lat="44.8816" lon="-0.13508">
        <ele>58.78</ele>
        <time>2022-04-26T13:30:19Z</time>
      </trkpt>
      <trkpt lat="44.88153" lon="-0.13494">
        <ele>55.41</ele>
        <time>2022-04-26T13:30:31Z</time>
      </trkpt>
      <trkpt lat="44.88144" lon="-0.13483">
        <ele>52.53</ele>
        <time>2022-04-26T13:30:43Z</time>
      </trkpt>
      <trkpt lat="44.8814" lon="-0.13472">
        <ele>50.61</ele>
        <time>2022-04-26T13:30:51Z</time>
      </trkpt>
      <trkpt lat="44.8814" lon="-0.13466">
        <ele>50.13</ele>
        <time>2022-04-26T13:30:57Z</time>
      </trkpt>
      <trkpt lat="44.88136" lon="-0.13475">
        <ele>49.65</ele>
        <time>2022-04-26T13:31:09Z</time>
      </trkpt>
      <trkpt lat="44.88133" lon="-0.13476">
        <ele>48.2</ele>
        <time>2022-04-26T13:31:24Z</time>
      </trkpt>
      <trkpt lat="44.88131" lon="-0.13479">
        <ele>48.2</ele>
        <time>2022-04-26T13:31:41Z</time>
      </trkpt>
      <trkpt lat="44.8813" lon="-0.13482">
        <ele>54.45</ele>
        <time>2022-04-26T13:31:52Z</time>
      </trkpt>
      <trkpt lat="44.8813" lon="-0.13482">
        <ele>43.4</ele>
        <time>2022-04-26T13:31:53Z</time>
      </trkpt>
      <trkpt lat="44.8813" lon="-0.13482">
        <ele>49.16</ele>
        <time>2022-04-26T13:31:54Z</time>
      </trkpt>
      <trkpt lat="44.8813" lon="-0.13482">
        <ele>46.76</ele>
        <time>2022-04-26T13:31:57Z</time>
      </trkpt>
      <trkpt lat="44.88131" lon="-0.13484">
        <ele>46.76</ele>
        <time>2022-04-26T13:32:17Z</time>
      </trkpt>
      <trkpt lat="44.8813" lon="-0.13484">
        <ele>45.8</ele>
        <time>2022-04-26T13:32:37Z</time>
      </trkpt>
      <trkpt lat="44.88129" lon="-0.13485">
        <ele>46.76</ele>
        <time>2022-04-26T13:32:44Z</time>
      </trkpt>
      <trkpt lat="44.88127" lon="-0.13481">
        <ele>44.84</ele>
        <time>2022-04-26T13:32:53Z</time>
      </trkpt>
      <trkpt lat="44.88129" lon="-0.13478">
        <ele>45.32</ele>
        <time>2022-04-26T13:32:56Z</time>
      </trkpt>
      <trkpt lat="44.88131" lon="-0.13468">
        <ele>45.32</ele>
        <time>2022-04-26T13:33:09Z</time>
      </trkpt>
      <trkpt lat="44.8813" lon="-0.13468">
        <ele>45.32</ele>
        <time>2022-04-26T13:33:14Z</time>
      </trkpt>
      <trkpt lat="44.88135" lon="-0.13448">
        <ele>45.8</ele>
        <time>2022-04-26T13:33:27Z</time>
      </trkpt>
      <trkpt lat="44.88147" lon="-0.1342">
        <ele>44.36</ele>
        <time>2022-04-26T13:33:45Z</time>
      </trkpt>
      <trkpt lat="44.88149" lon="-0.13399">
        <ele>42.92</ele>
        <time>2022-04-26T13:33:59Z</time>
      </trkpt>
      <trkpt lat="44.88152" lon="-0.13392">
        <ele>43.4</ele>
        <time>2022-04-26T13:34:04Z</time>
      </trkpt>
      <trkpt lat="44.88154" lon="-0.13385">
        <ele>43.4</ele>
        <time>2022-04-26T13:34:08Z</time>
      </trkpt>
      <trkpt lat="44.88159" lon="-0.13364">
        <ele>42.92</ele>
        <time>2022-04-26T13:34:23Z</time>
      </trkpt>
      <trkpt lat="44.88166" lon="-0.13343">
        <ele>42.92</ele>
        <time>2022-04-26T13:34:37Z</time>
      </trkpt>
      <trkpt lat="44.88168" lon="-0.13327">
        <ele>42.92</ele>
        <time>2022-04-26T13:34:48Z</time>
      </trkpt>
      <trkpt lat="44.88159" lon="-0.13317">
        <ele>41.95</ele>
        <time>2022-04-26T13:34:58Z</time>
      </trkpt>
      <trkpt lat="44.88154" lon="-0.13314">
        <ele>40.99</ele>
        <time>2022-04-26T13:35:04Z</time>
      </trkpt>
      <trkpt lat="44.88138" lon="-0.13311">
        <ele>39.07</ele>
        <time>2022-04-26T13:35:19Z</time>
      </trkpt>
      <trkpt lat="44.88127" lon="-0.13303">
        <ele>39.07</ele>
        <time>2022-04-26T13:35:31Z</time>
      </trkpt>
      <trkpt lat="44.88127" lon="-0.13301">
        <ele>38.59</ele>
        <time>2022-04-26T13:35:35Z</time>
      </trkpt>
      <trkpt lat="44.88131" lon="-0.13276">
        <ele>37.63</ele>
        <time>2022-04-26T13:35:51Z</time>
      </trkpt>
      <trkpt lat="44.88132" lon="-0.1325">
        <ele>37.63</ele>
        <time>2022-04-26T13:36:08Z</time>
      </trkpt>
      <trkpt lat="44.88134" lon="-0.13234">
        <ele>34.74</ele>
        <time>2022-04-26T13:36:18Z</time>
      </trkpt>
      <trkpt lat="44.88134" lon="-0.13232">
        <ele>41.47</ele>
        <time>2022-04-26T13:36:20Z</time>
      </trkpt>
      <trkpt lat="44.88135" lon="-0.1323">
        <ele>38.11</ele>
        <time>2022-04-26T13:36:21Z</time>
      </trkpt>
      <trkpt lat="44.88135" lon="-0.13222">
        <ele>38.11</ele>
        <time>2022-04-26T13:36:27Z</time>
      </trkpt>
      <trkpt lat="44.88135" lon="-0.1322">
        <ele>38.11</ele>
        <time>2022-04-26T13:36:28Z</time>
      </trkpt>
      <trkpt lat="44.88136" lon="-0.1321">
        <ele>38.11</ele>
        <time>2022-04-26T13:36:34Z</time>
      </trkpt>
      <trkpt lat="44.88137" lon="-0.13189">
        <ele>37.63</ele>
        <time>2022-04-26T13:36:49Z</time>
      </trkpt>
      <trkpt lat="44.88136" lon="-0.13177">
        <ele>33.78</ele>
        <time>2022-04-26T13:36:59Z</time>
      </trkpt>
      <trkpt lat="44.88136" lon="-0.13177">
        <ele>40.03</ele>
        <time>2022-04-26T13:37:00Z</time>
      </trkpt>
      <trkpt lat="44.88136" lon="-0.13177">
        <ele>36.67</ele>
        <time>2022-04-26T13:37:01Z</time>
      </trkpt>
      <trkpt lat="44.88136" lon="-0.13177">
        <ele>40.03</ele>
        <time>2022-04-26T13:37:02Z</time>
      </trkpt>
      <trkpt lat="44.88136" lon="-0.13177">
        <ele>36.67</ele>
        <time>2022-04-26T13:37:03Z</time>
      </trkpt>
      <trkpt lat="44.88132" lon="-0.13176">
        <ele>37.15</ele>
        <time>2022-04-26T13:37:20Z</time>
      </trkpt>
      <trkpt lat="44.88133" lon="-0.13176">
        <ele>37.63</ele>
        <time>2022-04-26T13:37:31Z</time>
      </trkpt>
      <trkpt lat="44.88133" lon="-0.13176">
        <ele>34.26</ele>
        <time>2022-04-26T13:37:40Z</time>
      </trkpt>
      <trkpt lat="44.88133" lon="-0.13176">
        <ele>42.44</ele>
        <time>2022-04-26T13:37:41Z</time>
      </trkpt>
      <trkpt lat="44.88133" lon="-0.13176">
        <ele>35.71</ele>
        <time>2022-04-26T13:37:42Z</time>
      </trkpt>
      <trkpt lat="44.88133" lon="-0.13176">
        <ele>39.07</ele>
        <time>2022-04-26T13:37:46Z</time>
      </trkpt>
      <trkpt lat="44.88133" lon="-0.13176">
        <ele>37.63</ele>
        <time>2022-04-26T13:38:14Z</time>
      </trkpt>
      <trkpt lat="44.88133" lon="-0.13176">
        <ele>37.63</ele>
        <time>2022-04-26T13:38:47Z</time>
      </trkpt>
      <trkpt lat="44.88134" lon="-0.13176">
        <ele>37.63</ele>
        <time>2022-04-26T13:39:12Z</time>
      </trkpt>
      <trkpt lat="44.88129" lon="-0.13175">
        <ele>37.15</ele>
        <time>2022-04-26T13:39:32Z</time>
      </trkpt>
      <trkpt lat="44.88127" lon="-0.13176">
        <ele>37.15</ele>
        <time>2022-04-26T13:39:47Z</time>
      </trkpt>
      <trkpt lat="44.88127" lon="-0.13176">
        <ele>37.15</ele>
        <time>2022-04-26T13:39:52Z</time>
      </trkpt>
      <trkpt lat="44.88124" lon="-0.13176">
        <ele>37.15</ele>
        <time>2022-04-26T13:39:55Z</time>
      </trkpt>
      <trkpt lat="44.88103" lon="-0.13179">
        <ele>36.19</ele>
        <time>2022-04-26T13:40:12Z</time>
      </trkpt>
      <trkpt lat="44.88082" lon="-0.13179">
        <ele>34.74</ele>
        <time>2022-04-26T13:40:29Z</time>
      </trkpt>
      <trkpt lat="44.8806" lon="-0.1318">
        <ele>32.82</ele>
        <time>2022-04-26T13:40:47Z</time>
      </trkpt>
      <trkpt lat="44.88052" lon="-0.13178">
        <ele>32.34</ele>
        <time>2022-04-26T13:40:58Z</time>
      </trkpt>
      <trkpt lat="44.88051" lon="-0.13169">
        <ele>32.34</ele>
        <time>2022-04-26T13:41:03Z</time>
      </trkpt>
      <trkpt lat="44.88052" lon="-0.13144">
        <ele>32.82</ele>
        <time>2022-04-26T13:41:20Z</time>
      </trkpt>
      <trkpt lat="44.88053" lon="-0.13125">
        <ele>33.3</ele>
        <time>2022-04-26T13:41:36Z</time>
      </trkpt>
      <trkpt lat="44.88053" lon="-0.13128">
        <ele>32.82</ele>
        <time>2022-04-26T13:41:39Z</time>
      </trkpt>
      <trkpt lat="44.88053" lon="-0.1315">
        <ele>32.82</ele>
        <time>2022-04-26T13:41:50Z</time>
      </trkpt>
      <trkpt lat="44.88053" lon="-0.13156">
        <ele>32.82</ele>
        <time>2022-04-26T13:41:54Z</time>
      </trkpt>
      <trkpt lat="44.88055" lon="-0.13172">
        <ele>32.34</ele>
        <time>2022-04-26T13:42:05Z</time>
      </trkpt>
      <trkpt lat="44.88056" lon="-0.13174">
        <ele>32.34</ele>
        <time>2022-04-26T13:42:07Z</time>
      </trkpt>
      <trkpt lat="44.8807" lon="-0.13174">
        <ele>33.3</ele>
        <time>2022-04-26T13:42:18Z</time>
      </trkpt>
      <trkpt lat="44.88077" lon="-0.13172">
        <ele>33.3</ele>
        <time>2022-04-26T13:42:28Z</time>
      </trkpt>
      <trkpt lat="44.8808" lon="-0.13174">
        <ele>34.26</ele>
        <time>2022-04-26T13:42:32Z</time>
      </trkpt>
      <trkpt lat="44.88095" lon="-0.13176">
        <ele>34.74</ele>
        <time>2022-04-26T13:42:46Z</time>
      </trkpt>
      <trkpt lat="44.88097" lon="-0.13175">
        <ele>30.42</ele>
        <time>2022-04-26T13:42:48Z</time>
      </trkpt>
      <trkpt lat="44.88098" lon="-0.13175">
        <ele>40.51</ele>
        <time>2022-04-26T13:42:49Z</time>
      </trkpt>
      <trkpt lat="44.88099" lon="-0.13175">
        <ele>35.71</ele>
        <time>2022-04-26T13:42:50Z</time>
      </trkpt>
      <trkpt lat="44.88112" lon="-0.13178">
        <ele>35.71</ele>
        <time>2022-04-26T13:43:02Z</time>
      </trkpt>
      <trkpt lat="44.88129" lon="-0.13173">
        <ele>37.15</ele>
        <time>2022-04-26T13:43:17Z</time>
      </trkpt>
      <trkpt lat="44.88141" lon="-0.13172">
        <ele>37.63</ele>
        <time>2022-04-26T13:43:29Z</time>
      </trkpt>
      <trkpt lat="44.88155" lon="-0.13172">
        <ele>38.59</ele>
        <time>2022-04-26T13:43:40Z</time>
      </trkpt>
      <trkpt lat="44.88169" lon="-0.13173">
        <ele>40.03</ele>
        <time>2022-04-26T13:43:52Z</time>
      </trkpt>
      <trkpt lat="44.88184" lon="-0.13176">
        <ele>40.99</ele>
        <time>2022-04-26T13:44:07Z</time>
      </trkpt>
      <trkpt lat="44.88197" lon="-0.13178">
        <ele>41.95</ele>
        <time>2022-04-26T13:44:19Z</time>
      </trkpt>
      <trkpt lat="44.88207" lon="-0.13179">
        <ele>42.92</ele>
        <time>2022-04-26T13:44:28Z</time>
      </trkpt>
      <trkpt lat="44.88212" lon="-0.13181">
        <ele>43.4</ele>
        <time>2022-04-26T13:44:34Z</time>
      </trkpt>
      <trkpt lat="44.88223" lon="-0.13184">
        <ele>43.88</ele>
        <time>2022-04-26T13:44:44Z</time>
      </trkpt>
      <trkpt lat="44.88235" lon="-0.13186">
        <ele>45.32</ele>
        <time>2022-04-26T13:44:55Z</time>
      </trkpt>
      <trkpt lat="44.88247" lon="-0.13187">
        <ele>45.8</ele>
        <time>2022-04-26T13:45:06Z</time>
      </trkpt>
      <trkpt lat="44.88259" lon="-0.1319">
        <ele>46.76</ele>
        <time>2022-04-26T13:45:18Z</time>
      </trkpt>
      <trkpt lat="44.88277" lon="-0.13194">
        <ele>48.2</ele>
        <time>2022-04-26T13:45:33Z</time>
      </trkpt>
      <trkpt lat="44.88286" lon="-0.13195">
        <ele>49.65</ele>
        <time>2022-04-26T13:45:43Z</time>
      </trkpt>
      <trkpt lat="44.883" lon="-0.13197">
        <ele>50.61</ele>
        <time>2022-04-26T13:45:55Z</time>
      </trkpt>
      <trkpt lat="44.88311" lon="-0.13203">
        <ele>52.53</ele>
        <time>2022-04-26T13:46:05Z</time>
      </trkpt>
      <trkpt lat="44.8832" lon="-0.13206">
        <ele>53.49</ele>
        <time>2022-04-26T13:46:16Z</time>
      </trkpt>
      <trkpt lat="44.88327" lon="-0.13204">
        <ele>53.97</ele>
        <time>2022-04-26T13:46:27Z</time>
      </trkpt>
      <trkpt lat="44.88327" lon="-0.13204">
        <ele>54.45</ele>
        <time>2022-04-26T13:46:37Z</time>
      </trkpt>
      <trkpt lat="44.88328" lon="-0.13206">
        <ele>54.93</ele>
        <time>2022-04-26T13:46:55Z</time>
      </trkpt>
      <trkpt lat="44.8833" lon="-0.1321">
        <ele>54.93</ele>
        <time>2022-04-26T13:46:59Z</time>
      </trkpt>
      <trkpt lat="44.88333" lon="-0.13225">
        <ele>55.89</ele>
        <time>2022-04-26T13:47:10Z</time>
      </trkpt>
      <trkpt lat="44.88339" lon="-0.13246">
        <ele>58.3</ele>
        <time>2022-04-26T13:47:24Z</time>
      </trkpt>
      <trkpt lat="44.88339" lon="-0.13247">
        <ele>54.93</ele>
        <time>2022-04-26T13:47:25Z</time>
      </trkpt>
      <trkpt lat="44.88339" lon="-0.13248">
        <ele>61.18</ele>
        <time>2022-04-26T13:47:26Z</time>
      </trkpt>
      <trkpt lat="44.88341" lon="-0.1325">
        <ele>57.82</ele>
        <time>2022-04-26T13:47:28Z</time>
      </trkpt>
      <trkpt lat="44.88348" lon="-0.13265">
        <ele>59.74</ele>
        <time>2022-04-26T13:47:44Z</time>
      </trkpt>
      <trkpt lat="44.88355" lon="-0.13278">
        <ele>61.18</ele>
        <time>2022-04-26T13:48:00Z</time>
      </trkpt>
      <trkpt lat="44.8836" lon="-0.13291">
        <ele>62.62</ele>
        <time>2022-04-26T13:48:12Z</time>
      </trkpt>
      <trkpt lat="44.88362" lon="-0.13292">
        <ele>62.62</ele>
        <time>2022-04-26T13:48:19Z</time>
      </trkpt>
      <trkpt lat="44.88366" lon="-0.13297">
        <ele>63.58</ele>
        <time>2022-04-26T13:48:25Z</time>
      </trkpt>
      <trkpt lat="44.88368" lon="-0.13304">
        <ele>64.07</ele>
        <time>2022-04-26T13:48:30Z</time>
      </trkpt>
      <trkpt lat="44.88371" lon="-0.13318">
        <ele>65.99</ele>
        <time>2022-04-26T13:48:43Z</time>
      </trkpt>
      <trkpt lat="44.88372" lon="-0.13338">
        <ele>67.91</ele>
        <time>2022-04-26T13:48:59Z</time>
      </trkpt>
      <trkpt lat="44.88374" lon="-0.13354">
        <ele>69.35</ele>
        <time>2022-04-26T13:49:13Z</time>
      </trkpt>
      <trkpt lat="44.88374" lon="-0.13373">
        <ele>73.68</ele>
        <time>2022-04-26T13:49:27Z</time>
      </trkpt>
      <trkpt lat="44.88374" lon="-0.13392">
        <ele>72.72</ele>
        <time>2022-04-26T13:49:41Z</time>
      </trkpt>
      <trkpt lat="44.88376" lon="-0.13411">
        <ele>74.16</ele>
        <time>2022-04-26T13:49:56Z</time>
      </trkpt>
      <trkpt lat="44.88376" lon="-0.1342">
        <ele>75.12</ele>
        <time>2022-04-26T13:50:05Z</time>
      </trkpt>
      <trkpt lat="44.88372" lon="-0.13428">
        <ele>76.08</ele>
        <time>2022-04-26T13:50:15Z</time>
      </trkpt>
      <trkpt lat="44.88372" lon="-0.13428">
        <ele>76.56</ele>
        <time>2022-04-26T13:50:26Z</time>
      </trkpt>
      <trkpt lat="44.88384" lon="-0.13435">
        <ele>76.56</ele>
        <time>2022-04-26T13:50:38Z</time>
      </trkpt>
      <trkpt lat="44.8839" lon="-0.13443">
        <ele>76.56</ele>
        <time>2022-04-26T13:50:50Z</time>
      </trkpt>
      <trkpt lat="44.88392" lon="-0.13445">
        <ele>77.52</ele>
        <time>2022-04-26T13:50:53Z</time>
      </trkpt>
      <trkpt lat="44.88408" lon="-0.13458">
        <ele>77.52</ele>
        <time>2022-04-26T13:51:08Z</time>
      </trkpt>
      <trkpt lat="44.88412" lon="-0.1346">
        <ele>77.04</ele>
        <time>2022-04-26T13:51:14Z</time>
      </trkpt>
      <trkpt lat="44.88432" lon="-0.13465">
        <ele>78.97</ele>
        <time>2022-04-26T13:51:26Z</time>
      </trkpt>
      <trkpt lat="44.88437" lon="-0.13466">
        <ele>77.52</ele>
        <time>2022-04-26T13:51:29Z</time>
      </trkpt>
      <trkpt lat="44.88454" lon="-0.13478">
        <ele>78.97</ele>
        <time>2022-04-26T13:51:43Z</time>
      </trkpt>
      <trkpt lat="44.88454" lon="-0.13485">
        <ele>79.45</ele>
        <time>2022-04-26T13:51:47Z</time>
      </trkpt>
      <trkpt lat="44.88455" lon="-0.13514">
        <ele>79.45</ele>
        <time>2022-04-26T13:52:03Z</time>
      </trkpt>
      <trkpt lat="44.88457" lon="-0.13519">
        <ele>79.93</ele>
        <time>2022-04-26T13:52:06Z</time>
      </trkpt>
      <trkpt lat="44.88464" lon="-0.13535">
        <ele>80.41</ele>
        <time>2022-04-26T13:52:18Z</time>
      </trkpt>
      <trkpt lat="44.88469" lon="-0.13549">
        <ele>81.37</ele>
        <time>2022-04-26T13:52:28Z</time>
      </trkpt>
      <trkpt lat="44.88474" lon="-0.13563">
        <ele>81.85</ele>
        <time>2022-04-26T13:52:42Z</time>
      </trkpt>
      <trkpt lat="44.88476" lon="-0.13574">
        <ele>82.33</ele>
        <time>2022-04-26T13:52:53Z</time>
      </trkpt>
      <trkpt lat="44.8848" lon="-0.1359">
        <ele>82.81</ele>
        <time>2022-04-26T13:53:05Z</time>
      </trkpt>
      <trkpt lat="44.88482" lon="-0.13602">
        <ele>82.81</ele>
        <time>2022-04-26T13:53:14Z</time>
      </trkpt>
      <trkpt lat="44.88488" lon="-0.13623">
        <ele>83.77</ele>
        <time>2022-04-26T13:53:29Z</time>
      </trkpt>
      <trkpt lat="44.8849" lon="-0.13631">
        <ele>83.77</ele>
        <time>2022-04-26T13:53:34Z</time>
      </trkpt>
      <trkpt lat="44.88489" lon="-0.13636">
        <ele>82.81</ele>
        <time>2022-04-26T13:53:37Z</time>
      </trkpt>
      <trkpt lat="44.88493" lon="-0.1366">
        <ele>83.29</ele>
        <time>2022-04-26T13:53:52Z</time>
      </trkpt>
      <trkpt lat="44.88495" lon="-0.13669">
        <ele>84.73</ele>
        <time>2022-04-26T13:53:59Z</time>
      </trkpt>
      <trkpt lat="44.88499" lon="-0.13691">
        <ele>85.21</ele>
        <time>2022-04-26T13:54:13Z</time>
      </trkpt>
      <trkpt lat="44.88499" lon="-0.13694">
        <ele>88.58</ele>
        <time>2022-04-26T13:54:15Z</time>
      </trkpt>
      <trkpt lat="44.88499" lon="-0.13695">
        <ele>85.21</ele>
        <time>2022-04-26T13:54:16Z</time>
      </trkpt>
      <trkpt lat="44.88505" lon="-0.13719">
        <ele>85.69</ele>
        <time>2022-04-26T13:54:32Z</time>
      </trkpt>
      <trkpt lat="44.88516" lon="-0.13747">
        <ele>85.21</ele>
        <time>2022-04-26T13:54:51Z</time>
      </trkpt>
      <trkpt lat="44.88521" lon="-0.13765">
        <ele>85.69</ele>
        <time>2022-04-26T13:55:04Z</time>
      </trkpt>
      <trkpt lat="44.88528" lon="-0.13781">
        <ele>86.66</ele>
        <time>2022-04-26T13:55:16Z</time>
      </trkpt>
      <trkpt lat="44.88534" lon="-0.13796">
        <ele>86.18</ele>
        <time>2022-04-26T13:55:28Z</time>
      </trkpt>
      <trkpt lat="44.88542" lon="-0.13807">
        <ele>87.14</ele>
        <time>2022-04-26T13:55:39Z</time>
      </trkpt>
      <trkpt lat="44.88553" lon="-0.13813">
        <ele>86.66</ele>
        <time>2022-04-26T13:55:51Z</time>
      </trkpt>
      <trkpt lat="44.8856" lon="-0.13815">
        <ele>87.62</ele>
        <time>2022-04-26T13:55:56Z</time>
      </trkpt>
      <trkpt lat="44.88583" lon="-0.13819">
        <ele>87.62</ele>
        <time>2022-04-26T13:56:14Z</time>
      </trkpt>
      <trkpt lat="44.8859" lon="-0.13819">
        <ele>87.14</ele>
        <time>2022-04-26T13:56:22Z</time>
      </trkpt>
      <trkpt lat="44.88596" lon="-0.13819">
        <ele>87.62</ele>
        <time>2022-04-26T13:56:26Z</time>
      </trkpt>
      <trkpt lat="44.88599" lon="-0.13819">
        <ele>88.1</ele>
        <time>2022-04-26T13:56:28Z</time>
      </trkpt>
      <trkpt lat="44.886" lon="-0.1382">
        <ele>87.62</ele>
        <time>2022-04-26T13:56:30Z</time>
      </trkpt>
      <trkpt lat="44.88615" lon="-0.13822">
        <ele>87.14</ele>
        <time>2022-04-26T13:56:44Z</time>
      </trkpt>
      <trkpt lat="44.88619" lon="-0.13826">
        <ele>87.62</ele>
        <time>2022-04-26T13:56:48Z</time>
      </trkpt>
      <trkpt lat="44.88625" lon="-0.1383">
        <ele>86.18</ele>
        <time>2022-04-26T13:56:53Z</time>
      </trkpt>
      <trkpt lat="44.88626" lon="-0.13831">
        <ele>90.02</ele>
        <time>2022-04-26T13:56:54Z</time>
      </trkpt>
      <trkpt lat="44.88627" lon="-0.13832">
        <ele>88.58</ele>
        <time>2022-04-26T13:56:55Z</time>
      </trkpt>
      <trkpt lat="44.88628" lon="-0.13832">
        <ele>88.1</ele>
        <time>2022-04-26T13:56:56Z</time>
      </trkpt>
      <trkpt lat="44.88637" lon="-0.13833">
        <ele>87.14</ele>
        <time>2022-04-26T13:57:04Z</time>
      </trkpt>
      <trkpt lat="44.8864" lon="-0.13833">
        <ele>88.58</ele>
        <time>2022-04-26T13:57:07Z</time>
      </trkpt>
      <trkpt lat="44.88644" lon="-0.13833">
        <ele>87.62</ele>
        <time>2022-04-26T13:57:09Z</time>
      </trkpt>
      <trkpt lat="44.88658" lon="-0.13836">
        <ele>88.1</ele>
        <time>2022-04-26T13:57:22Z</time>
      </trkpt>
      <trkpt lat="44.88661" lon="-0.13836">
        <ele>87.62</ele>
        <time>2022-04-26T13:57:25Z</time>
      </trkpt>
      <trkpt lat="44.88677" lon="-0.13836">
        <ele>88.58</ele>
        <time>2022-04-26T13:57:39Z</time>
      </trkpt>
      <trkpt lat="44.88696" lon="-0.1384">
        <ele>88.58</ele>
        <time>2022-04-26T13:57:54Z</time>
      </trkpt>
      <trkpt lat="44.88707" lon="-0.13842">
        <ele>88.58</ele>
        <time>2022-04-26T13:58:03Z</time>
      </trkpt>
      <trkpt lat="44.88722" lon="-0.13843">
        <ele>88.58</ele>
        <time>2022-04-26T13:58:16Z</time>
      </trkpt>
      <trkpt lat="44.88729" lon="-0.13846">
        <ele>88.58</ele>
        <time>2022-04-26T13:58:22Z</time>
      </trkpt>
      <trkpt lat="44.88747" lon="-0.13848">
        <ele>89.06</ele>
        <time>2022-04-26T13:58:37Z</time>
      </trkpt>
      <trkpt lat="44.88758" lon="-0.13848">
        <ele>89.06</ele>
        <time>2022-04-26T13:58:46Z</time>
      </trkpt>
      <trkpt lat="44.88773" lon="-0.13852">
        <ele>89.06</ele>
        <time>2022-04-26T13:58:59Z</time>
      </trkpt>
      <trkpt lat="44.88782" lon="-0.13852">
        <ele>88.1</ele>
        <time>2022-04-26T13:59:09Z</time>
      </trkpt>
      <trkpt lat="44.88783" lon="-0.13851">
        <ele>88.58</ele>
        <time>2022-04-26T13:59:20Z</time>
      </trkpt>
      <trkpt lat="44.88783" lon="-0.13852">
        <ele>88.1</ele>
        <time>2022-04-26T13:59:45Z</time>
      </trkpt>
      <trkpt lat="44.88783" lon="-0.13851">
        <ele>88.58</ele>
        <time>2022-04-26T14:00:02Z</time>
      </trkpt>
      <trkpt lat="44.88795" lon="-0.13855">
        <ele>88.58</ele>
        <time>2022-04-26T14:00:14Z</time>
      </trkpt>
      <trkpt lat="44.88809" lon="-0.13855">
        <ele>88.1</ele>
        <time>2022-04-26T14:00:26Z</time>
      </trkpt>
      <trkpt lat="44.88812" lon="-0.13857">
        <ele>88.58</ele>
        <time>2022-04-26T14:00:29Z</time>
      </trkpt>
      <trkpt lat="44.88819" lon="-0.13858">
        <ele>89.06</ele>
        <time>2022-04-26T14:00:33Z</time>
      </trkpt>
      <trkpt lat="44.88826" lon="-0.1386">
        <ele>88.1</ele>
        <time>2022-04-26T14:00:44Z</time>
      </trkpt>
      <trkpt lat="44.88832" lon="-0.13861">
        <ele>88.1</ele>
        <time>2022-04-26T14:00:49Z</time>
      </trkpt>
      <trkpt lat="44.88843" lon="-0.13862">
        <ele>88.1</ele>
        <time>2022-04-26T14:00:58Z</time>
      </trkpt>
      <trkpt lat="44.88852" lon="-0.13861">
        <ele>87.62</ele>
        <time>2022-04-26T14:01:05Z</time>
      </trkpt>
      <trkpt lat="44.8887" lon="-0.13864">
        <ele>87.14</ele>
        <time>2022-04-26T14:01:20Z</time>
      </trkpt>
      <trkpt lat="44.88883" lon="-0.13866">
        <ele>86.66</ele>
        <time>2022-04-26T14:01:32Z</time>
      </trkpt>
      <trkpt lat="44.88897" lon="-0.13868">
        <ele>86.18</ele>
        <time>2022-04-26T14:01:44Z</time>
      </trkpt>
      <trkpt lat="44.88903" lon="-0.13869">
        <ele>86.66</ele>
        <time>2022-04-26T14:01:58Z</time>
      </trkpt>
      <trkpt lat="44.88903" lon="-0.13869">
        <ele>86.66</ele>
        <time>2022-04-26T14:02:16Z</time>
      </trkpt>
      <trkpt lat="44.88904" lon="-0.1387">
        <ele>86.66</ele>
        <time>2022-04-26T14:02:22Z</time>
      </trkpt>
      <trkpt lat="44.88916" lon="-0.13872">
        <ele>86.66</ele>
        <time>2022-04-26T14:02:36Z</time>
      </trkpt>
      <trkpt lat="44.88917" lon="-0.13871">
        <ele>86.66</ele>
        <time>2022-04-26T14:02:37Z</time>
      </trkpt>
      <trkpt lat="44.88919" lon="-0.13861">
        <ele>78</ele>
        <time>2022-04-26T14:02:43Z</time>
      </trkpt>
      <trkpt lat="44.88919" lon="-0.13857">
        <ele>86.18</ele>
        <time>2022-04-26T14:02:45Z</time>
      </trkpt>
      <trkpt lat="44.88918" lon="-0.13854">
        <ele>85.21</ele>
        <time>2022-04-26T14:02:47Z</time>
      </trkpt>
      <trkpt lat="44.88916" lon="-0.13843">
        <ele>84.25</ele>
        <time>2022-04-26T14:02:54Z</time>
      </trkpt>
      <trkpt lat="44.88919" lon="-0.13841">
        <ele>83.77</ele>
        <time>2022-04-26T14:02:57Z</time>
      </trkpt>
      <trkpt lat="44.88936" lon="-0.13831">
        <ele>83.29</ele>
        <time>2022-04-26T14:03:11Z</time>
      </trkpt>
      <trkpt lat="44.88952" lon="-0.13824">
        <ele>82.81</ele>
        <time>2022-04-26T14:03:25Z</time>
      </trkpt>
      <trkpt lat="44.8896" lon="-0.1382">
        <ele>81.85</ele>
        <time>2022-04-26T14:03:42Z</time>
      </trkpt>
      <trkpt lat="44.88962" lon="-0.13819">
        <ele>81.85</ele>
        <time>2022-04-26T14:03:45Z</time>
      </trkpt>
      <trkpt lat="44.8898" lon="-0.1381">
        <ele>82.81</ele>
        <time>2022-04-26T14:04:01Z</time>
      </trkpt>
      <trkpt lat="44.88998" lon="-0.13797">
        <ele>83.77</ele>
        <time>2022-04-26T14:04:18Z</time>
      </trkpt>
      <trkpt lat="44.89001" lon="-0.13796">
        <ele>82.81</ele>
        <time>2022-04-26T14:04:21Z</time>
      </trkpt>
      <trkpt lat="44.89003" lon="-0.13795">
        <ele>82.81</ele>
        <time>2022-04-26T14:04:23Z</time>
      </trkpt>
      <trkpt lat="44.89009" lon="-0.13791">
        <ele>82.81</ele>
        <time>2022-04-26T14:04:37Z</time>
      </trkpt>
      <trkpt lat="44.8901" lon="-0.13791">
        <ele>84.25</ele>
        <time>2022-04-26T14:04:42Z</time>
      </trkpt>
      <trkpt lat="44.89013" lon="-0.13789">
        <ele>82.81</ele>
        <time>2022-04-26T14:04:45Z</time>
      </trkpt>
      <trkpt lat="44.89029" lon="-0.13781">
        <ele>82.33</ele>
        <time>2022-04-26T14:04:59Z</time>
      </trkpt>
      <trkpt lat="44.89047" lon="-0.13769">
        <ele>82.33</ele>
        <time>2022-04-26T14:05:16Z</time>
      </trkpt>
      <trkpt lat="44.89047" lon="-0.13769">
        <ele>84.73</ele>
        <time>2022-04-26T14:05:17Z</time>
      </trkpt>
      <trkpt lat="44.89049" lon="-0.13766">
        <ele>84.25</ele>
        <time>2022-04-26T14:05:19Z</time>
      </trkpt>
      <trkpt lat="44.8906" lon="-0.13751">
        <ele>84.25</ele>
        <time>2022-04-26T14:05:32Z</time>
      </trkpt>
      <trkpt lat="44.89072" lon="-0.13732">
        <ele>84.25</ele>
        <time>2022-04-26T14:05:47Z</time>
      </trkpt>
      <trkpt lat="44.89082" lon="-0.13713">
        <ele>85.21</ele>
        <time>2022-04-26T14:06:00Z</time>
      </trkpt>
      <trkpt lat="44.89084" lon="-0.13709">
        <ele>83.77</ele>
        <time>2022-04-26T14:06:03Z</time>
      </trkpt>
      <trkpt lat="44.89094" lon="-0.13688">
        <ele>84.25</ele>
        <time>2022-04-26T14:06:20Z</time>
      </trkpt>
      <trkpt lat="44.89104" lon="-0.13672">
        <ele>83.77</ele>
        <time>2022-04-26T14:06:35Z</time>
      </trkpt>
      <trkpt lat="44.89121" lon="-0.1366">
        <ele>85.21</ele>
        <time>2022-04-26T14:06:50Z</time>
      </trkpt>
      <trkpt lat="44.89128" lon="-0.13651">
        <ele>85.21</ele>
        <time>2022-04-26T14:06:57Z</time>
      </trkpt>
      <trkpt lat="44.89135" lon="-0.13646">
        <ele>85.21</ele>
        <time>2022-04-26T14:07:03Z</time>
      </trkpt>
      <trkpt lat="44.89139" lon="-0.13642">
        <ele>84.73</ele>
        <time>2022-04-26T14:07:09Z</time>
      </trkpt>
      <trkpt lat="44.89153" lon="-0.13629">
        <ele>83.77</ele>
        <time>2022-04-26T14:07:25Z</time>
      </trkpt>
      <trkpt lat="44.89173" lon="-0.13614">
        <ele>84.25</ele>
        <time>2022-04-26T14:07:45Z</time>
      </trkpt>
      <trkpt lat="44.89177" lon="-0.13612">
        <ele>84.73</ele>
        <time>2022-04-26T14:07:48Z</time>
      </trkpt>
      <trkpt lat="44.89195" lon="-0.13598">
        <ele>83.77</ele>
        <time>2022-04-26T14:08:08Z</time>
      </trkpt>
      <trkpt lat="44.89215" lon="-0.1359">
        <ele>83.77</ele>
        <time>2022-04-26T14:08:23Z</time>
      </trkpt>
      <trkpt lat="44.89225" lon="-0.13585">
        <ele>84.25</ele>
        <time>2022-04-26T14:08:38Z</time>
      </trkpt>
      <trkpt lat="44.89224" lon="-0.13584">
        <ele>83.77</ele>
        <time>2022-04-26T14:08:52Z</time>
      </trkpt>
      <trkpt lat="44.89223" lon="-0.13583">
        <ele>83.77</ele>
        <time>2022-04-26T14:09:12Z</time>
      </trkpt>
      <trkpt lat="44.89222" lon="-0.13583">
        <ele>83.29</ele>
        <time>2022-04-26T14:09:36Z</time>
      </trkpt>
      <trkpt lat="44.89222" lon="-0.13583">
        <ele>80.41</ele>
        <time>2022-04-26T14:09:49Z</time>
      </trkpt>
      <trkpt lat="44.89223" lon="-0.13582">
        <ele>85.21</ele>
        <time>2022-04-26T14:09:50Z</time>
      </trkpt>
      <trkpt lat="44.89224" lon="-0.13583">
        <ele>81.85</ele>
        <time>2022-04-26T14:09:52Z</time>
      </trkpt>
      <trkpt lat="44.89226" lon="-0.13584">
        <ele>83.77</ele>
        <time>2022-04-26T14:09:54Z</time>
      </trkpt>
      <trkpt lat="44.89227" lon="-0.13588">
        <ele>83.77</ele>
        <time>2022-04-26T14:09:58Z</time>
      </trkpt>
      <trkpt lat="44.89225" lon="-0.13602">
        <ele>84.25</ele>
        <time>2022-04-26T14:10:16Z</time>
      </trkpt>
      <trkpt lat="44.89225" lon="-0.13602">
        <ele>83.29</ele>
        <time>2022-04-26T14:10:21Z</time>
      </trkpt>
      <trkpt lat="44.89224" lon="-0.13609">
        <ele>84.25</ele>
        <time>2022-04-26T14:10:26Z</time>
      </trkpt>
      <trkpt lat="44.89221" lon="-0.13629">
        <ele>85.21</ele>
        <time>2022-04-26T14:10:39Z</time>
      </trkpt>
      <trkpt lat="44.89221" lon="-0.13644">
        <ele>85.69</ele>
        <time>2022-04-26T14:10:49Z</time>
      </trkpt>
      <trkpt lat="44.8922" lon="-0.13648">
        <ele>85.21</ele>
        <time>2022-04-26T14:10:52Z</time>
      </trkpt>
      <trkpt lat="44.8922" lon="-0.13672">
        <ele>86.18</ele>
        <time>2022-04-26T14:11:07Z</time>
      </trkpt>
      <trkpt lat="44.89222" lon="-0.13683">
        <ele>86.66</ele>
        <time>2022-04-26T14:11:14Z</time>
      </trkpt>
      <trkpt lat="44.89224" lon="-0.13704">
        <ele>87.62</ele>
        <time>2022-04-26T14:11:28Z</time>
      </trkpt>
      <trkpt lat="44.89224" lon="-0.13727">
        <ele>87.14</ele>
        <time>2022-04-26T14:11:42Z</time>
      </trkpt>
      <trkpt lat="44.89225" lon="-0.13749">
        <ele>87.14</ele>
        <time>2022-04-26T14:11:55Z</time>
      </trkpt>
      <trkpt lat="44.89228" lon="-0.13774">
        <ele>87.62</ele>
        <time>2022-04-26T14:12:10Z</time>
      </trkpt>
      <trkpt lat="44.89228" lon="-0.13779">
        <ele>89.06</ele>
        <time>2022-04-26T14:12:13Z</time>
      </trkpt>
      <trkpt lat="44.89229" lon="-0.13801">
        <ele>89.06</ele>
        <time>2022-04-26T14:12:27Z</time>
      </trkpt>
      <trkpt lat="44.89231" lon="-0.13826">
        <ele>89.06</ele>
        <time>2022-04-26T14:12:42Z</time>
      </trkpt>
      <trkpt lat="44.89231" lon="-0.13831">
        <ele>90.02</ele>
        <time>2022-04-26T14:12:46Z</time>
      </trkpt>
      <trkpt lat="44.89232" lon="-0.13844">
        <ele>89.06</ele>
        <time>2022-04-26T14:12:55Z</time>
      </trkpt>
      <trkpt lat="44.89236" lon="-0.13858">
        <ele>90.02</ele>
        <time>2022-04-26T14:13:04Z</time>
      </trkpt>
      <trkpt lat="44.89236" lon="-0.13863">
        <ele>90.5</ele>
        <time>2022-04-26T14:13:07Z</time>
      </trkpt>
      <trkpt lat="44.89238" lon="-0.13892">
        <ele>90.5</ele>
        <time>2022-04-26T14:13:23Z</time>
      </trkpt>
      <trkpt lat="44.89242" lon="-0.13907">
        <ele>90.02</ele>
        <time>2022-04-26T14:13:33Z</time>
      </trkpt>
      <trkpt lat="44.89242" lon="-0.13916">
        <ele>89.06</ele>
        <time>2022-04-26T14:13:37Z</time>
      </trkpt>
      <trkpt lat="44.89243" lon="-0.13923">
        <ele>84.73</ele>
        <time>2022-04-26T14:13:41Z</time>
      </trkpt>
      <trkpt lat="44.89243" lon="-0.13924">
        <ele>95.31</ele>
        <time>2022-04-26T14:13:42Z</time>
      </trkpt>
      <trkpt lat="44.89243" lon="-0.13925">
        <ele>88.58</ele>
        <time>2022-04-26T14:13:43Z</time>
      </trkpt>
      <trkpt lat="44.89244" lon="-0.13955">
        <ele>90.98</ele>
        <time>2022-04-26T14:14:00Z</time>
      </trkpt>
      <trkpt lat="44.89244" lon="-0.13958">
        <ele>90.98</ele>
        <time>2022-04-26T14:14:01Z</time>
      </trkpt>
      <trkpt lat="44.89249" lon="-0.13985">
        <ele>90.5</ele>
        <time>2022-04-26T14:14:17Z</time>
      </trkpt>
      <trkpt lat="44.89251" lon="-0.13999">
        <ele>90.02</ele>
        <time>2022-04-26T14:14:27Z</time>
      </trkpt>
      <trkpt lat="44.89252" lon="-0.14015">
        <ele>90.98</ele>
        <time>2022-04-26T14:14:36Z</time>
      </trkpt>
      <trkpt lat="44.89253" lon="-0.14033">
        <ele>90.02</ele>
        <time>2022-04-26T14:14:47Z</time>
      </trkpt>
      <trkpt lat="44.89254" lon="-0.14047">
        <ele>90.5</ele>
        <time>2022-04-26T14:14:56Z</time>
      </trkpt>
      <trkpt lat="44.89254" lon="-0.1405">
        <ele>90.5</ele>
        <time>2022-04-26T14:14:59Z</time>
      </trkpt>
      <trkpt lat="44.89255" lon="-0.14071">
        <ele>90.02</ele>
        <time>2022-04-26T14:15:11Z</time>
      </trkpt>
      <trkpt lat="44.89255" lon="-0.14086">
        <ele>90.02</ele>
        <time>2022-04-26T14:15:20Z</time>
      </trkpt>
      <trkpt lat="44.89253" lon="-0.14088">
        <ele>90.5</ele>
        <time>2022-04-26T14:15:22Z</time>
      </trkpt>
      <trkpt lat="44.89257" lon="-0.1411">
        <ele>90.02</ele>
        <time>2022-04-26T14:15:34Z</time>
      </trkpt>
      <trkpt lat="44.89258" lon="-0.14113">
        <ele>90.02</ele>
        <time>2022-04-26T14:15:36Z</time>
      </trkpt>
      <trkpt lat="44.89264" lon="-0.14125">
        <ele>90.02</ele>
        <time>2022-04-26T14:15:45Z</time>
      </trkpt>
      <trkpt lat="44.89266" lon="-0.14132">
        <ele>90.02</ele>
        <time>2022-04-26T14:15:49Z</time>
      </trkpt>
      <trkpt lat="44.89278" lon="-0.14156">
        <ele>89.06</ele>
        <time>2022-04-26T14:16:06Z</time>
      </trkpt>
      <trkpt lat="44.89281" lon="-0.14165">
        <ele>89.06</ele>
        <time>2022-04-26T14:16:12Z</time>
      </trkpt>
      <trkpt lat="44.89288" lon="-0.14195">
        <ele>88.1</ele>
        <time>2022-04-26T14:16:31Z</time>
      </trkpt>
      <trkpt lat="44.89292" lon="-0.14219">
        <ele>87.62</ele>
        <time>2022-04-26T14:16:45Z</time>
      </trkpt>
      <trkpt lat="44.89298" lon="-0.14243">
        <ele>87.14</ele>
        <time>2022-04-26T14:17:01Z</time>
      </trkpt>
      <trkpt lat="44.89303" lon="-0.14261">
        <ele>86.18</ele>
        <time>2022-04-26T14:17:13Z</time>
      </trkpt>
      <trkpt lat="44.89311" lon="-0.14291">
        <ele>85.21</ele>
        <time>2022-04-26T14:17:32Z</time>
      </trkpt>
      <trkpt lat="44.8932" lon="-0.14312">
        <ele>84.25</ele>
        <time>2022-04-26T14:17:47Z</time>
      </trkpt>
      <trkpt lat="44.89322" lon="-0.14317">
        <ele>84.25</ele>
        <time>2022-04-26T14:17:51Z</time>
      </trkpt>
      <trkpt lat="44.89327" lon="-0.14325">
        <ele>82.33</ele>
        <time>2022-04-26T14:17:57Z</time>
      </trkpt>
      <trkpt lat="44.89327" lon="-0.14327">
        <ele>86.18</ele>
        <time>2022-04-26T14:17:58Z</time>
      </trkpt>
      <trkpt lat="44.89328" lon="-0.14329">
        <ele>83.77</ele>
        <time>2022-04-26T14:17:59Z</time>
      </trkpt>
      <trkpt lat="44.89333" lon="-0.14344">
        <ele>83.29</ele>
        <time>2022-04-26T14:18:09Z</time>
      </trkpt>
      <trkpt lat="44.89334" lon="-0.14357">
        <ele>82.33</ele>
        <time>2022-04-26T14:18:17Z</time>
      </trkpt>
      <trkpt lat="44.89338" lon="-0.1437">
        <ele>82.33</ele>
        <time>2022-04-26T14:18:26Z</time>
      </trkpt>
      <trkpt lat="44.89341" lon="-0.14379">
        <ele>81.37</ele>
        <time>2022-04-26T14:18:31Z</time>
      </trkpt>
      <trkpt lat="44.89342" lon="-0.14384">
        <ele>80.89</ele>
        <time>2022-04-26T14:18:34Z</time>
      </trkpt>
      <trkpt lat="44.89347" lon="-0.144">
        <ele>81.37</ele>
        <time>2022-04-26T14:18:45Z</time>
      </trkpt>
      <trkpt lat="44.89348" lon="-0.14402">
        <ele>80.89</ele>
        <time>2022-04-26T14:18:46Z</time>
      </trkpt>
      <trkpt lat="44.89346" lon="-0.14414">
        <ele>79.93</ele>
        <time>2022-04-26T14:18:52Z</time>
      </trkpt>
      <trkpt lat="44.89346" lon="-0.14418">
        <ele>81.37</ele>
        <time>2022-04-26T14:18:55Z</time>
      </trkpt>
      <trkpt lat="44.89351" lon="-0.14442">
        <ele>78.97</ele>
        <time>2022-04-26T14:19:10Z</time>
      </trkpt>
      <trkpt lat="44.89352" lon="-0.14446">
        <ele>80.41</ele>
        <time>2022-04-26T14:19:12Z</time>
      </trkpt>
      <trkpt lat="44.89356" lon="-0.14456">
        <ele>79.93</ele>
        <time>2022-04-26T14:19:20Z</time>
      </trkpt>
      <trkpt lat="44.89357" lon="-0.14465">
        <ele>78.97</ele>
        <time>2022-04-26T14:19:25Z</time>
      </trkpt>
      <trkpt lat="44.89359" lon="-0.1447">
        <ele>79.93</ele>
        <time>2022-04-26T14:19:28Z</time>
      </trkpt>
      <trkpt lat="44.89361" lon="-0.14481">
        <ele>78.97</ele>
        <time>2022-04-26T14:19:41Z</time>
      </trkpt>
      <trkpt lat="44.89362" lon="-0.14483">
        <ele>78.97</ele>
        <time>2022-04-26T14:19:43Z</time>
      </trkpt>
      <trkpt lat="44.89363" lon="-0.14488">
        <ele>78</ele>
        <time>2022-04-26T14:19:46Z</time>
      </trkpt>
      <trkpt lat="44.89368" lon="-0.14502">
        <ele>79.45</ele>
        <time>2022-04-26T14:19:58Z</time>
      </trkpt>
      <trkpt lat="44.89366" lon="-0.14506">
        <ele>78.97</ele>
        <time>2022-04-26T14:20:11Z</time>
      </trkpt>
      <trkpt lat="44.89365" lon="-0.14502">
        <ele>80.41</ele>
        <time>2022-04-26T14:20:16Z</time>
      </trkpt>
      <trkpt lat="44.89364" lon="-0.14495">
        <ele>78.97</ele>
        <time>2022-04-26T14:20:30Z</time>
      </trkpt>
      <trkpt lat="44.89363" lon="-0.14497">
        <ele>78.97</ele>
        <time>2022-04-26T14:20:45Z</time>
      </trkpt>
      <trkpt lat="44.89363" lon="-0.14497">
        <ele>78.48</ele>
        <time>2022-04-26T14:20:50Z</time>
      </trkpt>
      <trkpt lat="44.89362" lon="-0.14492">
        <ele>78.97</ele>
        <time>2022-04-26T14:21:04Z</time>
      </trkpt>
      <trkpt lat="44.89362" lon="-0.14493">
        <ele>79.45</ele>
        <time>2022-04-26T14:21:16Z</time>
      </trkpt>
      <trkpt lat="44.89365" lon="-0.14502">
        <ele>79.93</ele>
        <time>2022-04-26T14:21:24Z</time>
      </trkpt>
      <trkpt lat="44.89369" lon="-0.14517">
        <ele>78.48</ele>
        <time>2022-04-26T14:21:38Z</time>
      </trkpt>
      <trkpt lat="44.89371" lon="-0.14524">
        <ele>79.45</ele>
        <time>2022-04-26T14:21:44Z</time>
      </trkpt>
      <trkpt lat="44.8937" lon="-0.14529">
        <ele>78.97</ele>
        <time>2022-04-26T14:21:49Z</time>
      </trkpt>
      <trkpt lat="44.89364" lon="-0.14547">
        <ele>78.97</ele>
        <time>2022-04-26T14:22:04Z</time>
      </trkpt>
      <trkpt lat="44.8936" lon="-0.14555">
        <ele>77.04</ele>
        <time>2022-04-26T14:22:18Z</time>
      </trkpt>
      <trkpt lat="44.89363" lon="-0.14554">
        <ele>77.52</ele>
        <time>2022-04-26T14:22:39Z</time>
      </trkpt>
      <trkpt lat="44.89363" lon="-0.14555">
        <ele>77.52</ele>
        <time>2022-04-26T14:22:43Z</time>
      </trkpt>
      <trkpt lat="44.89358" lon="-0.14579">
        <ele>77.52</ele>
        <time>2022-04-26T14:22:58Z</time>
      </trkpt>
      <trkpt lat="44.89357" lon="-0.14588">
        <ele>76.56</ele>
        <time>2022-04-26T14:23:06Z</time>
      </trkpt>
      <trkpt lat="44.89358" lon="-0.14592">
        <ele>76.08</ele>
        <time>2022-04-26T14:23:09Z</time>
      </trkpt>
      <trkpt lat="44.89358" lon="-0.14599">
        <ele>77.04</ele>
        <time>2022-04-26T14:23:13Z</time>
      </trkpt>
      <trkpt lat="44.89357" lon="-0.14618">
        <ele>74.64</ele>
        <time>2022-04-26T14:23:24Z</time>
      </trkpt>
      <trkpt lat="44.89354" lon="-0.14639">
        <ele>73.68</ele>
        <time>2022-04-26T14:23:37Z</time>
      </trkpt>
      <trkpt lat="44.89353" lon="-0.14657">
        <ele>72.72</ele>
        <time>2022-04-26T14:23:49Z</time>
      </trkpt>
      <trkpt lat="44.89353" lon="-0.14662">
        <ele>72.72</ele>
        <time>2022-04-26T14:23:52Z</time>
      </trkpt>
      <trkpt lat="44.89354" lon="-0.14679">
        <ele>71.27</ele>
        <time>2022-04-26T14:24:06Z</time>
      </trkpt>
      <trkpt lat="44.89354" lon="-0.14677">
        <ele>71.27</ele>
        <time>2022-04-26T14:24:19Z</time>
      </trkpt>
      <trkpt lat="44.89355" lon="-0.14676">
        <ele>71.27</ele>
        <time>2022-04-26T14:24:39Z</time>
      </trkpt>
      <trkpt lat="44.89355" lon="-0.14676">
        <ele>71.27</ele>
        <time>2022-04-26T14:25:09Z</time>
      </trkpt>
      <trkpt lat="44.89355" lon="-0.14676">
        <ele>71.27</ele>
        <time>2022-04-26T14:25:29Z</time>
      </trkpt>
      <trkpt lat="44.89357" lon="-0.14699">
        <ele>69.83</ele>
        <time>2022-04-26T14:25:42Z</time>
      </trkpt>
      <trkpt lat="44.89357" lon="-0.14701">
        <ele>69.83</ele>
        <time>2022-04-26T14:25:43Z</time>
      </trkpt>
      <trkpt lat="44.89359" lon="-0.14712">
        <ele>69.35</ele>
        <time>2022-04-26T14:25:49Z</time>
      </trkpt>
      <trkpt lat="44.89358" lon="-0.14716">
        <ele>68.87</ele>
        <time>2022-04-26T14:25:53Z</time>
      </trkpt>
      <trkpt lat="44.89352" lon="-0.14728">
        <ele>68.87</ele>
        <time>2022-04-26T14:26:01Z</time>
      </trkpt>
      <trkpt lat="44.89344" lon="-0.14743">
        <ele>69.35</ele>
        <time>2022-04-26T14:26:13Z</time>
      </trkpt>
      <trkpt lat="44.89339" lon="-0.14754">
        <ele>69.83</ele>
        <time>2022-04-26T14:26:22Z</time>
      </trkpt>
      <trkpt lat="44.89334" lon="-0.14765">
        <ele>70.79</ele>
        <time>2022-04-26T14:26:32Z</time>
      </trkpt>
      <trkpt lat="44.8933" lon="-0.14773">
        <ele>70.79</ele>
        <time>2022-04-26T14:26:39Z</time>
      </trkpt>
      <trkpt lat="44.89325" lon="-0.14793">
        <ele>71.27</ele>
        <time>2022-04-26T14:26:51Z</time>
      </trkpt>
      <trkpt lat="44.8932" lon="-0.14813">
        <ele>72.24</ele>
        <time>2022-04-26T14:27:05Z</time>
      </trkpt>
      <trkpt lat="44.89317" lon="-0.1483">
        <ele>72.72</ele>
        <time>2022-04-26T14:27:17Z</time>
      </trkpt>
      <trkpt lat="44.89314" lon="-0.14843">
        <ele>77.04</ele>
        <time>2022-04-26T14:27:25Z</time>
      </trkpt>
      <trkpt lat="44.89314" lon="-0.14847">
        <ele>73.68</ele>
        <time>2022-04-26T14:27:28Z</time>
      </trkpt>
      <trkpt lat="44.89311" lon="-0.1486">
        <ele>74.16</ele>
        <time>2022-04-26T14:27:37Z</time>
      </trkpt>
      <trkpt lat="44.89311" lon="-0.1487">
        <ele>73.2</ele>
        <time>2022-04-26T14:27:45Z</time>
      </trkpt>
      <trkpt lat="44.89307" lon="-0.14899">
        <ele>76.56</ele>
        <time>2022-04-26T14:28:03Z</time>
      </trkpt>
      <trkpt lat="44.89305" lon="-0.14908">
        <ele>75.12</ele>
        <time>2022-04-26T14:28:08Z</time>
      </trkpt>
      <trkpt lat="44.89308" lon="-0.14929">
        <ele>76.08</ele>
        <time>2022-04-26T14:28:23Z</time>
      </trkpt>
      <trkpt lat="44.8931" lon="-0.1493">
        <ele>65.03</ele>
        <time>2022-04-26T14:28:26Z</time>
      </trkpt>
      <trkpt lat="44.8931" lon="-0.1493">
        <ele>72.72</ele>
        <time>2022-04-26T14:28:27Z</time>
      </trkpt>
      <trkpt lat="44.8931" lon="-0.1493">
        <ele>79.93</ele>
        <time>2022-04-26T14:28:28Z</time>
      </trkpt>
      <trkpt lat="44.8931" lon="-0.1493">
        <ele>76.56</ele>
        <time>2022-04-26T14:28:29Z</time>
      </trkpt>
      <trkpt lat="44.8931" lon="-0.1493">
        <ele>86.18</ele>
        <time>2022-04-26T14:28:34Z</time>
      </trkpt>
      <trkpt lat="44.8931" lon="-0.1493">
        <ele>78.97</ele>
        <time>2022-04-26T14:28:35Z</time>
      </trkpt>
      <trkpt lat="44.89309" lon="-0.14932">
        <ele>76.56</ele>
        <time>2022-04-26T14:28:37Z</time>
      </trkpt>
      <trkpt lat="44.89307" lon="-0.1496">
        <ele>76.56</ele>
        <time>2022-04-26T14:28:54Z</time>
      </trkpt>
      <trkpt lat="44.89304" lon="-0.14983">
        <ele>75.6</ele>
        <time>2022-04-26T14:29:08Z</time>
      </trkpt>
      <trkpt lat="44.89304" lon="-0.1501">
        <ele>75.6</ele>
        <time>2022-04-26T14:29:25Z</time>
      </trkpt>
      <trkpt lat="44.89304" lon="-0.15016">
        <ele>77.04</ele>
        <time>2022-04-26T14:29:28Z</time>
      </trkpt>
      <trkpt lat="44.89302" lon="-0.1503">
        <ele>77.04</ele>
        <time>2022-04-26T14:29:37Z</time>
      </trkpt>
      <trkpt lat="44.89296" lon="-0.15059">
        <ele>75.6</ele>
        <time>2022-04-26T14:29:55Z</time>
      </trkpt>
      <trkpt lat="44.89291" lon="-0.15081">
        <ele>77.04</ele>
        <time>2022-04-26T14:30:09Z</time>
      </trkpt>
      <trkpt lat="44.89289" lon="-0.15097">
        <ele>76.08</ele>
        <time>2022-04-26T14:30:17Z</time>
      </trkpt>
      <trkpt lat="44.89287" lon="-0.15101">
        <ele>76.56</ele>
        <time>2022-04-26T14:30:21Z</time>
      </trkpt>
      <trkpt lat="44.89285" lon="-0.15108">
        <ele>73.2</ele>
        <time>2022-04-26T14:30:25Z</time>
      </trkpt>
      <trkpt lat="44.89285" lon="-0.15109">
        <ele>79.45</ele>
        <time>2022-04-26T14:30:26Z</time>
      </trkpt>
      <trkpt lat="44.89286" lon="-0.15111">
        <ele>77.52</ele>
        <time>2022-04-26T14:30:27Z</time>
      </trkpt>
      <trkpt lat="44.89285" lon="-0.15114">
        <ele>76.56</ele>
        <time>2022-04-26T14:30:28Z</time>
      </trkpt>
      <trkpt lat="44.89284" lon="-0.15121">
        <ele>76.08</ele>
        <time>2022-04-26T14:30:32Z</time>
      </trkpt>
      <trkpt lat="44.89283" lon="-0.15127">
        <ele>77.04</ele>
        <time>2022-04-26T14:30:36Z</time>
      </trkpt>
      <trkpt lat="44.89278" lon="-0.15152">
        <ele>77.04</ele>
        <time>2022-04-26T14:30:52Z</time>
      </trkpt>
      <trkpt lat="44.89274" lon="-0.15174">
        <ele>76.56</ele>
        <time>2022-04-26T14:31:07Z</time>
      </trkpt>
      <trkpt lat="44.89274" lon="-0.15179">
        <ele>77.04</ele>
        <time>2022-04-26T14:31:10Z</time>
      </trkpt>
      <trkpt lat="44.8927" lon="-0.15194">
        <ele>76.56</ele>
        <time>2022-04-26T14:31:21Z</time>
      </trkpt>
      <trkpt lat="44.89269" lon="-0.15197">
        <ele>77.52</ele>
        <time>2022-04-26T14:31:23Z</time>
      </trkpt>
      <trkpt lat="44.89266" lon="-0.15219">
        <ele>77.52</ele>
        <time>2022-04-26T14:31:37Z</time>
      </trkpt>
      <trkpt lat="44.89263" lon="-0.15245">
        <ele>76.56</ele>
        <time>2022-04-26T14:31:53Z</time>
      </trkpt>
      <trkpt lat="44.89259" lon="-0.15252">
        <ele>76.56</ele>
        <time>2022-04-26T14:32:00Z</time>
      </trkpt>
      <trkpt lat="44.89256" lon="-0.15258">
        <ele>76.56</ele>
        <time>2022-04-26T14:32:06Z</time>
      </trkpt>
      <trkpt lat="44.89255" lon="-0.15269">
        <ele>77.52</ele>
        <time>2022-04-26T14:32:12Z</time>
      </trkpt>
      <trkpt lat="44.8925" lon="-0.15285">
        <ele>78</ele>
        <time>2022-04-26T14:32:22Z</time>
      </trkpt>
      <trkpt lat="44.89245" lon="-0.15297">
        <ele>76.56</ele>
        <time>2022-04-26T14:32:31Z</time>
      </trkpt>
      <trkpt lat="44.89239" lon="-0.15322">
        <ele>76.08</ele>
        <time>2022-04-26T14:32:46Z</time>
      </trkpt>
      <trkpt lat="44.89234" lon="-0.15342">
        <ele>77.04</ele>
        <time>2022-04-26T14:33:00Z</time>
      </trkpt>
      <trkpt lat="44.89233" lon="-0.15344">
        <ele>77.04</ele>
        <time>2022-04-26T14:33:01Z</time>
      </trkpt>
      <trkpt lat="44.89224" lon="-0.15357">
        <ele>77.04</ele>
        <time>2022-04-26T14:33:17Z</time>
      </trkpt>
      <trkpt lat="44.89226" lon="-0.1536">
        <ele>76.56</ele>
        <time>2022-04-26T14:33:32Z</time>
      </trkpt>
      <trkpt lat="44.89227" lon="-0.15371">
        <ele>76.56</ele>
        <time>2022-04-26T14:33:42Z</time>
      </trkpt>
      <trkpt lat="44.89222" lon="-0.15399">
        <ele>75.12</ele>
        <time>2022-04-26T14:34:01Z</time>
      </trkpt>
      <trkpt lat="44.89222" lon="-0.154">
        <ele>74.64</ele>
        <time>2022-04-26T14:34:02Z</time>
      </trkpt>
      <trkpt lat="44.89222" lon="-0.15404">
        <ele>74.16</ele>
        <time>2022-04-26T14:34:04Z</time>
      </trkpt>
      <trkpt lat="44.89223" lon="-0.1541">
        <ele>74.16</ele>
        <time>2022-04-26T14:34:09Z</time>
      </trkpt>
      <trkpt lat="44.89223" lon="-0.15413">
        <ele>75.12</ele>
        <time>2022-04-26T14:34:11Z</time>
      </trkpt>
      <trkpt lat="44.89232" lon="-0.15432">
        <ele>74.16</ele>
        <time>2022-04-26T14:34:25Z</time>
      </trkpt>
      <trkpt lat="44.89245" lon="-0.15447">
        <ele>73.68</ele>
        <time>2022-04-26T14:34:42Z</time>
      </trkpt>
      <trkpt lat="44.89248" lon="-0.15458">
        <ele>72.24</ele>
        <time>2022-04-26T14:34:57Z</time>
      </trkpt>
      <trkpt lat="44.89254" lon="-0.15461">
        <ele>72.72</ele>
        <time>2022-04-26T14:35:01Z</time>
      </trkpt>
      <trkpt lat="44.89263" lon="-0.1547">
        <ele>73.2</ele>
        <time>2022-04-26T14:35:12Z</time>
      </trkpt>
      <trkpt lat="44.89274" lon="-0.15473">
        <ele>73.68</ele>
        <time>2022-04-26T14:35:24Z</time>
      </trkpt>
      <trkpt lat="44.89291" lon="-0.15491">
        <ele>75.6</ele>
        <time>2022-04-26T14:35:44Z</time>
      </trkpt>
      <trkpt lat="44.89305" lon="-0.155">
        <ele>75.6</ele>
        <time>2022-04-26T14:36:01Z</time>
      </trkpt>
      <trkpt lat="44.89311" lon="-0.15502">
        <ele>75.12</ele>
        <time>2022-04-26T14:36:21Z</time>
      </trkpt>
      <trkpt lat="44.89319" lon="-0.15505">
        <ele>75.6</ele>
        <time>2022-04-26T14:36:32Z</time>
      </trkpt>
      <trkpt lat="44.89321" lon="-0.15506">
        <ele>75.12</ele>
        <time>2022-04-26T14:36:34Z</time>
      </trkpt>
      <trkpt lat="44.89323" lon="-0.15506">
        <ele>75.12</ele>
        <time>2022-04-26T14:36:37Z</time>
      </trkpt>
      <trkpt lat="44.8933" lon="-0.15505">
        <ele>74.64</ele>
        <time>2022-04-26T14:36:53Z</time>
      </trkpt>
      <trkpt lat="44.89333" lon="-0.15504">
        <ele>75.12</ele>
        <time>2022-04-26T14:36:56Z</time>
      </trkpt>
      <trkpt lat="44.89349" lon="-0.15509">
        <ele>75.12</ele>
        <time>2022-04-26T14:37:13Z</time>
      </trkpt>
      <trkpt lat="44.89362" lon="-0.15509">
        <ele>74.16</ele>
        <time>2022-04-26T14:37:29Z</time>
      </trkpt>
      <trkpt lat="44.89384" lon="-0.1551">
        <ele>73.2</ele>
        <time>2022-04-26T14:37:47Z</time>
      </trkpt>
      <trkpt lat="44.89387" lon="-0.15512">
        <ele>72.72</ele>
        <time>2022-04-26T14:37:50Z</time>
      </trkpt>
      <trkpt lat="44.8939" lon="-0.15518">
        <ele>72.24</ele>
        <time>2022-04-26T14:37:58Z</time>
      </trkpt>
      <trkpt lat="44.89391" lon="-0.15518">
        <ele>74.64</ele>
        <time>2022-04-26T14:37:59Z</time>
      </trkpt>
      <trkpt lat="44.89389" lon="-0.1554">
        <ele>75.6</ele>
        <time>2022-04-26T14:38:15Z</time>
      </trkpt>
      <trkpt lat="44.89391" lon="-0.15568">
        <ele>74.64</ele>
        <time>2022-04-26T14:38:35Z</time>
      </trkpt>
      <trkpt lat="44.89391" lon="-0.1557">
        <ele>74.64</ele>
        <time>2022-04-26T14:38:36Z</time>
      </trkpt>
      <trkpt lat="44.89384" lon="-0.15589">
        <ele>74.64</ele>
        <time>2022-04-26T14:38:47Z</time>
      </trkpt>
      <trkpt lat="44.89374" lon="-0.15615">
        <ele>74.64</ele>
        <time>2022-04-26T14:39:08Z</time>
      </trkpt>
      <trkpt lat="44.89373" lon="-0.15633">
        <ele>76.08</ele>
        <time>2022-04-26T14:39:24Z</time>
      </trkpt>
      <trkpt lat="44.89369" lon="-0.15638">
        <ele>74.64</ele>
        <time>2022-04-26T14:39:27Z</time>
      </trkpt>
      <trkpt lat="44.89367" lon="-0.15646">
        <ele>74.64</ele>
        <time>2022-04-26T14:39:32Z</time>
      </trkpt>
      <trkpt lat="44.89366" lon="-0.15649">
        <ele>75.12</ele>
        <time>2022-04-26T14:39:51Z</time>
      </trkpt>
      <trkpt lat="44.89363" lon="-0.15652">
        <ele>75.12</ele>
        <time>2022-04-26T14:40:10Z</time>
      </trkpt>
      <trkpt lat="44.89363" lon="-0.15648">
        <ele>75.12</ele>
        <time>2022-04-26T14:40:29Z</time>
      </trkpt>
      <trkpt lat="44.89365" lon="-0.15648">
        <ele>75.12</ele>
        <time>2022-04-26T14:40:51Z</time>
      </trkpt>
      <trkpt lat="44.89367" lon="-0.15646">
        <ele>76.08</ele>
        <time>2022-04-26T14:40:54Z</time>
      </trkpt>
      <trkpt lat="44.89375" lon="-0.15627">
        <ele>75.6</ele>
        <time>2022-04-26T14:41:08Z</time>
      </trkpt>
      <trkpt lat="44.89386" lon="-0.15593">
        <ele>73.2</ele>
        <time>2022-04-26T14:41:31Z</time>
      </trkpt>
      <trkpt lat="44.89386" lon="-0.15591">
        <ele>75.12</ele>
        <time>2022-04-26T14:41:33Z</time>
      </trkpt>
      <trkpt lat="44.89389" lon="-0.15589">
        <ele>74.16</ele>
        <time>2022-04-26T14:41:40Z</time>
      </trkpt>
      <trkpt lat="44.89391" lon="-0.15588">
        <ele>75.12</ele>
        <time>2022-04-26T14:41:42Z</time>
      </trkpt>
      <trkpt lat="44.89388" lon="-0.15588">
        <ele>74.16</ele>
        <time>2022-04-26T14:41:53Z</time>
      </trkpt>
      <trkpt lat="44.89389" lon="-0.15587">
        <ele>74.64</ele>
        <time>2022-04-26T14:42:13Z</time>
      </trkpt>
      <trkpt lat="44.89402" lon="-0.15587">
        <ele>75.12</ele>
        <time>2022-04-26T14:42:33Z</time>
      </trkpt>
      <trkpt lat="44.89408" lon="-0.15589">
        <ele>75.12</ele>
        <time>2022-04-26T14:42:39Z</time>
      </trkpt>
      <trkpt lat="44.89418" lon="-0.15586">
        <ele>75.12</ele>
        <time>2022-04-26T14:42:46Z</time>
      </trkpt>
      <trkpt lat="44.89422" lon="-0.15584">
        <ele>76.08</ele>
        <time>2022-04-26T14:42:50Z</time>
      </trkpt>
      <trkpt lat="44.89433" lon="-0.15589">
        <ele>76.56</ele>
        <time>2022-04-26T14:43:03Z</time>
      </trkpt>
      <trkpt lat="44.89451" lon="-0.15586">
        <ele>75.6</ele>
        <time>2022-04-26T14:43:17Z</time>
      </trkpt>
      <trkpt lat="44.89468" lon="-0.15585">
        <ele>75.12</ele>
        <time>2022-04-26T14:43:35Z</time>
      </trkpt>
      <trkpt lat="44.89487" lon="-0.1558">
        <ele>74.16</ele>
        <time>2022-04-26T14:43:53Z</time>
      </trkpt>
      <trkpt lat="44.89499" lon="-0.15578">
        <ele>74.16</ele>
        <time>2022-04-26T14:44:12Z</time>
      </trkpt>
      <trkpt lat="44.89507" lon="-0.15575">
        <ele>74.16</ele>
        <time>2022-04-26T14:44:19Z</time>
      </trkpt>
      <trkpt lat="44.89525" lon="-0.15564">
        <ele>72.72</ele>
        <time>2022-04-26T14:44:39Z</time>
      </trkpt>
      <trkpt lat="44.89526" lon="-0.15561">
        <ele>72.72</ele>
        <time>2022-04-26T14:44:42Z</time>
      </trkpt>
      <trkpt lat="44.89527" lon="-0.15556">
        <ele>73.2</ele>
        <time>2022-04-26T14:44:45Z</time>
      </trkpt>
      <trkpt lat="44.89529" lon="-0.15535">
        <ele>73.2</ele>
        <time>2022-04-26T14:45:00Z</time>
      </trkpt>
      <trkpt lat="44.89536" lon="-0.15533">
        <ele>71.76</ele>
        <time>2022-04-26T14:45:07Z</time>
      </trkpt>
      <trkpt lat="44.89543" lon="-0.15538">
        <ele>71.76</ele>
        <time>2022-04-26T14:45:16Z</time>
      </trkpt>
      <trkpt lat="44.8956" lon="-0.15545">
        <ele>71.27</ele>
        <time>2022-04-26T14:45:30Z</time>
      </trkpt>
      <trkpt lat="44.8957" lon="-0.15548">
        <ele>71.76</ele>
        <time>2022-04-26T14:45:40Z</time>
      </trkpt>
      <trkpt lat="44.89572" lon="-0.15552">
        <ele>70.31</ele>
        <time>2022-04-26T14:45:43Z</time>
      </trkpt>
      <trkpt lat="44.89579" lon="-0.15564">
        <ele>70.31</ele>
        <time>2022-04-26T14:45:51Z</time>
      </trkpt>
      <trkpt lat="44.89583" lon="-0.15578">
        <ele>70.79</ele>
        <time>2022-04-26T14:46:05Z</time>
      </trkpt>
      <trkpt lat="44.89583" lon="-0.15579">
        <ele>69.83</ele>
        <time>2022-04-26T14:46:14Z</time>
      </trkpt>
      <trkpt lat="44.89578" lon="-0.15583">
        <ele>71.27</ele>
        <time>2022-04-26T14:46:19Z</time>
      </trkpt>
      <trkpt lat="44.89568" lon="-0.15591">
        <ele>71.27</ele>
        <time>2022-04-26T14:46:29Z</time>
      </trkpt>
      <trkpt lat="44.89569" lon="-0.15593">
        <ele>70.79</ele>
        <time>2022-04-26T14:46:43Z</time>
      </trkpt>
      <trkpt lat="44.89576" lon="-0.15587">
        <ele>75.12</ele>
        <time>2022-04-26T14:46:51Z</time>
      </trkpt>
      <trkpt lat="44.89582" lon="-0.1558">
        <ele>70.31</ele>
        <time>2022-04-26T14:46:56Z</time>
      </trkpt>
      <trkpt lat="44.89596" lon="-0.15573">
        <ele>70.31</ele>
        <time>2022-04-26T14:47:06Z</time>
      </trkpt>
      <trkpt lat="44.89601" lon="-0.15575">
        <ele>69.35</ele>
        <time>2022-04-26T14:47:11Z</time>
      </trkpt>
      <trkpt lat="44.89605" lon="-0.1557">
        <ele>69.83</ele>
        <time>2022-04-26T14:47:15Z</time>
      </trkpt>
      <trkpt lat="44.89609" lon="-0.15568">
        <ele>68.39</ele>
        <time>2022-04-26T14:47:23Z</time>
      </trkpt>
      <trkpt lat="44.89623" lon="-0.15578">
        <ele>67.43</ele>
        <time>2022-04-26T14:47:36Z</time>
      </trkpt>
      <trkpt lat="44.89639" lon="-0.15592">
        <ele>66.95</ele>
        <time>2022-04-26T14:47:46Z</time>
      </trkpt>
      <trkpt lat="44.89643" lon="-0.15598">
        <ele>64.55</ele>
        <time>2022-04-26T14:47:55Z</time>
      </trkpt>
      <trkpt lat="44.89643" lon="-0.15598">
        <ele>69.83</ele>
        <time>2022-04-26T14:47:56Z</time>
      </trkpt>
      <trkpt lat="44.89642" lon="-0.15598">
        <ele>67.43</ele>
        <time>2022-04-26T14:47:57Z</time>
      </trkpt>
      <trkpt lat="44.89642" lon="-0.15598">
        <ele>66.47</ele>
        <time>2022-04-26T14:48:17Z</time>
      </trkpt>
      <trkpt lat="44.89642" lon="-0.15597">
        <ele>65.51</ele>
        <time>2022-04-26T14:48:36Z</time>
      </trkpt>
      <trkpt lat="44.89642" lon="-0.15597">
        <ele>69.83</ele>
        <time>2022-04-26T14:48:38Z</time>
      </trkpt>
      <trkpt lat="44.89642" lon="-0.15597">
        <ele>65.51</ele>
        <time>2022-04-26T14:48:39Z</time>
      </trkpt>
      <trkpt lat="44.89642" lon="-0.15597">
        <ele>66.47</ele>
        <time>2022-04-26T14:48:40Z</time>
      </trkpt>
      <trkpt lat="44.89642" lon="-0.15595">
        <ele>67.43</ele>
        <time>2022-04-26T14:49:09Z</time>
      </trkpt>
      <trkpt lat="44.89642" lon="-0.15596">
        <ele>67.43</ele>
        <time>2022-04-26T14:49:43Z</time>
      </trkpt>
      <trkpt lat="44.89642" lon="-0.15598">
        <ele>68.39</ele>
        <time>2022-04-26T14:50:07Z</time>
      </trkpt>
      <trkpt lat="44.89643" lon="-0.15598">
        <ele>67.43</ele>
        <time>2022-04-26T14:50:39Z</time>
      </trkpt>
      <trkpt lat="44.89644" lon="-0.15596">
        <ele>67.43</ele>
        <time>2022-04-26T14:51:09Z</time>
      </trkpt>
      <trkpt lat="44.89644" lon="-0.15596">
        <ele>67.43</ele>
        <time>2022-04-26T14:51:42Z</time>
      </trkpt>
      <trkpt lat="44.89644" lon="-0.15597">
        <ele>68.39</ele>
        <time>2022-04-26T14:52:08Z</time>
      </trkpt>
      <trkpt lat="44.89644" lon="-0.15597">
        <ele>67.43</ele>
        <time>2022-04-26T14:52:34Z</time>
      </trkpt>
      <trkpt lat="44.89645" lon="-0.15599">
        <ele>67.43</ele>
        <time>2022-04-26T14:53:01Z</time>
      </trkpt>
      <trkpt lat="44.89642" lon="-0.15599">
        <ele>67.91</ele>
        <time>2022-04-26T14:53:30Z</time>
      </trkpt>
      <trkpt lat="44.8964" lon="-0.156">
        <ele>67.91</ele>
        <time>2022-04-26T14:54:01Z</time>
      </trkpt>
      <trkpt lat="44.8964" lon="-0.15599">
        <ele>67.91</ele>
        <time>2022-04-26T14:54:34Z</time>
      </trkpt>
      <trkpt lat="44.89639" lon="-0.15598">
        <ele>67.91</ele>
        <time>2022-04-26T14:55:00Z</time>
      </trkpt>
      <trkpt lat="44.8964" lon="-0.15598">
        <ele>68.39</ele>
        <time>2022-04-26T14:55:34Z</time>
      </trkpt>
      <trkpt lat="44.89641" lon="-0.15597">
        <ele>68.39</ele>
        <time>2022-04-26T14:56:09Z</time>
      </trkpt>
      <trkpt lat="44.89641" lon="-0.15597">
        <ele>68.39</ele>
        <time>2022-04-26T14:56:42Z</time>
      </trkpt>
      <trkpt lat="44.89641" lon="-0.15597">
        <ele>68.39</ele>
        <time>2022-04-26T14:57:16Z</time>
      </trkpt>
      <trkpt lat="44.89641" lon="-0.15596">
        <ele>68.39</ele>
        <time>2022-04-26T14:57:49Z</time>
      </trkpt>
      <trkpt lat="44.89642" lon="-0.15597">
        <ele>68.87</ele>
        <time>2022-04-26T14:58:00Z</time>
      </trkpt>
      <trkpt lat="44.89644" lon="-0.15596">
        <ele>68.39</ele>
        <time>2022-04-26T14:58:17Z</time>
      </trkpt>
      <trkpt lat="44.89646" lon="-0.15603">
        <ele>67.91</ele>
        <time>2022-04-26T14:58:23Z</time>
      </trkpt>
      <trkpt lat="44.89646" lon="-0.15625">
        <ele>68.39</ele>
        <time>2022-04-26T14:58:37Z</time>
      </trkpt>
      <trkpt lat="44.89648" lon="-0.15629">
        <ele>68.39</ele>
        <time>2022-04-26T14:58:43Z</time>
      </trkpt>
      <trkpt lat="44.89648" lon="-0.15631">
        <ele>67.91</ele>
        <time>2022-04-26T14:58:44Z</time>
      </trkpt>
      <trkpt lat="44.89648" lon="-0.1564">
        <ele>68.39</ele>
        <time>2022-04-26T14:58:49Z</time>
      </trkpt>
      <trkpt lat="44.89645" lon="-0.1565">
        <ele>67.91</ele>
        <time>2022-04-26T14:58:56Z</time>
      </trkpt>
      <trkpt lat="44.89645" lon="-0.15661">
        <ele>66.95</ele>
        <time>2022-04-26T14:59:04Z</time>
      </trkpt>
      <trkpt lat="44.89642" lon="-0.15682">
        <ele>66.47</ele>
        <time>2022-04-26T14:59:17Z</time>
      </trkpt>
      <trkpt lat="44.89641" lon="-0.15686">
        <ele>67.91</ele>
        <time>2022-04-26T14:59:20Z</time>
      </trkpt>
      <trkpt lat="44.89639" lon="-0.15696">
        <ele>66.47</ele>
        <time>2022-04-26T14:59:28Z</time>
      </trkpt>
      <trkpt lat="44.89639" lon="-0.15702">
        <ele>66.95</ele>
        <time>2022-04-26T14:59:33Z</time>
      </trkpt>
      <trkpt lat="44.89642" lon="-0.15704">
        <ele>66.47</ele>
        <time>2022-04-26T14:59:36Z</time>
      </trkpt>
      <trkpt lat="44.89656" lon="-0.15704">
        <ele>66.95</ele>
        <time>2022-04-26T14:59:51Z</time>
      </trkpt>
      <trkpt lat="44.89666" lon="-0.15703">
        <ele>66.47</ele>
        <time>2022-04-26T15:00:03Z</time>
      </trkpt>
      <trkpt lat="44.8967" lon="-0.15702">
        <ele>65.03</ele>
        <time>2022-04-26T15:00:09Z</time>
      </trkpt>
      <trkpt lat="44.89674" lon="-0.15703">
        <ele>65.99</ele>
        <time>2022-04-26T15:00:13Z</time>
      </trkpt>
      <trkpt lat="44.8968" lon="-0.15702">
        <ele>66.47</ele>
        <time>2022-04-26T15:00:19Z</time>
      </trkpt>
      <trkpt lat="44.89686" lon="-0.15697">
        <ele>65.51</ele>
        <time>2022-04-26T15:00:28Z</time>
      </trkpt>
      <trkpt lat="44.89699" lon="-0.15698">
        <ele>65.03</ele>
        <time>2022-04-26T15:00:43Z</time>
      </trkpt>
      <trkpt lat="44.89701" lon="-0.15698">
        <ele>65.03</ele>
        <time>2022-04-26T15:00:51Z</time>
      </trkpt>
      <trkpt lat="44.89705" lon="-0.15694">
        <ele>65.03</ele>
        <time>2022-04-26T15:00:55Z</time>
      </trkpt>
      <trkpt lat="44.89706" lon="-0.15691">
        <ele>65.99</ele>
        <time>2022-04-26T15:00:57Z</time>
      </trkpt>
      <trkpt lat="44.89711" lon="-0.15672">
        <ele>65.03</ele>
        <time>2022-04-26T15:01:10Z</time>
      </trkpt>
      <trkpt lat="44.89712" lon="-0.15671">
        <ele>65.03</ele>
        <time>2022-04-26T15:01:24Z</time>
      </trkpt>
      <trkpt lat="44.89712" lon="-0.15672">
        <ele>65.03</ele>
        <time>2022-04-26T15:01:36Z</time>
      </trkpt>
      <trkpt lat="44.89712" lon="-0.15671">
        <ele>66.47</ele>
        <time>2022-04-26T15:01:58Z</time>
      </trkpt>
    </trkseg>
  </trk>
</gpx>